<?xml version="1.0" encoding="UTF-8" standalone="no" ?>
<gpx xmlns="http://www.topografix.com/GPX/1/1" xmlns:xsi="http://www.w3.org/2001/XMLSchema-instance" xsi:schemaLocation="http://www.topografix.com/GPX/1/1 http://www.topografix.com/GPX/1/1/gpx.xsd" version="1.1" creator="VisuGPX - https://www.visugpx.com">
  <metadata>
    <name>Piolenc-Aramon-65-110</name>
    <desc><![CDATA[Via Rhona - Etape 5 : Piolenc - Aramon - 65 km - Dénivelé : 110 m]]></desc>
  </metadata>
  <trk>
    <name><![CDATA[Piolenc-Aramon]]></name>
    <extensions>
      <line xmlns="http://www.topografix.com/GPX/gpx_style/0/2">
        <color>ff0000</color>
        <opacity>1.0</opacity>
        <width>2.0</width>
      </line>
    </extensions>
    <trkseg>
      <trkpt lat="44.16534" lon="4.73697">
        <ele>33</ele>
      </trkpt>
      <trkpt lat="44.16532" lon="4.73693">
        <ele>33</ele>
      </trkpt>
      <trkpt lat="44.16532" lon="4.73685">
        <ele>33</ele>
      </trkpt>
      <trkpt lat="44.1653" lon="4.73674">
        <ele>33</ele>
      </trkpt>
      <trkpt lat="44.1653" lon="4.73665">
        <ele>33</ele>
      </trkpt>
      <trkpt lat="44.16528" lon="4.73588">
        <ele>33</ele>
      </trkpt>
      <trkpt lat="44.16506" lon="4.73455">
        <ele>33</ele>
      </trkpt>
      <trkpt lat="44.16504" lon="4.73446">
        <ele>33</ele>
      </trkpt>
      <trkpt lat="44.16495" lon="4.73395">
        <ele>33</ele>
      </trkpt>
      <trkpt lat="44.16491" lon="4.73376">
        <ele>33</ele>
      </trkpt>
      <trkpt lat="44.1647" lon="4.73221">
        <ele>33</ele>
      </trkpt>
      <trkpt lat="44.16371" lon="4.72946">
        <ele>33</ele>
      </trkpt>
      <trkpt lat="44.16337" lon="4.72848">
        <ele>34</ele>
      </trkpt>
      <trkpt lat="44.1627" lon="4.72648">
        <ele>34</ele>
      </trkpt>
      <trkpt lat="44.16271" lon="4.72647">
        <ele>34</ele>
      </trkpt>
      <trkpt lat="44.16264" lon="4.72627">
        <ele>34</ele>
      </trkpt>
      <trkpt lat="44.16264" lon="4.72619">
        <ele>33</ele>
        <time>2017-07-26T09:07:50Z</time>
      </trkpt>
      <trkpt lat="44.16262" lon="4.72594">
        <ele>33</ele>
        <time>2017-07-26T09:07:55Z</time>
      </trkpt>
      <trkpt lat="44.16261" lon="4.72583">
        <ele>33</ele>
        <time>2017-07-26T09:07:58Z</time>
      </trkpt>
      <trkpt lat="44.16259" lon="4.72571">
        <ele>36</ele>
        <time>2017-07-26T09:09:04Z</time>
      </trkpt>
      <trkpt lat="44.16259" lon="4.7257">
        <ele>36</ele>
        <time>2017-07-26T09:09:05Z</time>
      </trkpt>
      <trkpt lat="44.1626" lon="4.72562">
        <ele>36</ele>
        <time>2017-07-26T09:09:08Z</time>
      </trkpt>
      <trkpt lat="44.16266" lon="4.7254">
        <ele>36</ele>
        <time>2017-07-26T09:09:47Z</time>
      </trkpt>
      <trkpt lat="44.16268" lon="4.72536">
        <ele>36</ele>
        <time>2017-07-26T09:09:48Z</time>
      </trkpt>
      <trkpt lat="44.1627" lon="4.72518">
        <ele>36</ele>
        <time>2017-07-26T09:09:52Z</time>
      </trkpt>
      <trkpt lat="44.16276" lon="4.72494">
        <ele>36</ele>
        <time>2017-07-26T09:09:58Z</time>
      </trkpt>
      <trkpt lat="44.16279" lon="4.72486">
        <ele>36</ele>
        <time>2017-07-26T09:10:00Z</time>
      </trkpt>
      <trkpt lat="44.1628" lon="4.72481">
        <ele>37</ele>
        <time>2017-07-26T09:10:01Z</time>
      </trkpt>
      <trkpt lat="44.16281" lon="4.72476">
        <ele>38</ele>
        <time>2017-07-26T09:10:02Z</time>
      </trkpt>
      <trkpt lat="44.16282" lon="4.7247">
        <ele>38</ele>
        <time>2017-07-26T09:10:03Z</time>
      </trkpt>
      <trkpt lat="44.16284" lon="4.72465">
        <ele>38</ele>
        <time>2017-07-26T09:10:04Z</time>
      </trkpt>
      <trkpt lat="44.16285" lon="4.7246">
        <ele>38</ele>
        <time>2017-07-26T09:10:05Z</time>
      </trkpt>
      <trkpt lat="44.16287" lon="4.72448">
        <ele>38</ele>
        <time>2017-07-26T09:10:07Z</time>
      </trkpt>
      <trkpt lat="44.16293" lon="4.72438">
        <ele>38</ele>
        <time>2017-07-26T09:10:09Z</time>
      </trkpt>
      <trkpt lat="44.16308" lon="4.72423">
        <ele>38</ele>
        <time>2017-07-26T09:10:13Z</time>
      </trkpt>
      <trkpt lat="44.16315" lon="4.724">
        <ele>38</ele>
        <time>2017-07-26T09:10:17Z</time>
      </trkpt>
      <trkpt lat="44.16317" lon="4.72395">
        <ele>38</ele>
        <time>2017-07-26T09:10:18Z</time>
      </trkpt>
      <trkpt lat="44.16326" lon="4.72381">
        <ele>38</ele>
        <time>2017-07-26T09:10:21Z</time>
      </trkpt>
      <trkpt lat="44.16329" lon="4.72378">
        <ele>38</ele>
        <time>2017-07-26T09:10:22Z</time>
      </trkpt>
      <trkpt lat="44.16332" lon="4.72374">
        <ele>38</ele>
        <time>2017-07-26T09:10:23Z</time>
      </trkpt>
      <trkpt lat="44.16337" lon="4.72357">
        <ele>38</ele>
        <time>2017-07-26T09:10:26Z</time>
      </trkpt>
      <trkpt lat="44.16334" lon="4.72334">
        <ele>38</ele>
        <time>2017-07-26T09:10:30Z</time>
      </trkpt>
      <trkpt lat="44.16322" lon="4.7232">
        <ele>38</ele>
        <time>2017-07-26T09:10:34Z</time>
      </trkpt>
      <trkpt lat="44.1631" lon="4.72318">
        <ele>38</ele>
        <time>2017-07-26T09:10:37Z</time>
      </trkpt>
      <trkpt lat="44.16305" lon="4.72319">
        <ele>38</ele>
        <time>2017-07-26T09:10:38Z</time>
      </trkpt>
      <trkpt lat="44.16301" lon="4.72319">
        <ele>38</ele>
        <time>2017-07-26T09:10:39Z</time>
      </trkpt>
      <trkpt lat="44.16282" lon="4.72324">
        <ele>38</ele>
        <time>2017-07-26T09:10:43Z</time>
      </trkpt>
      <trkpt lat="44.16246" lon="4.72327">
        <ele>38</ele>
        <time>2017-07-26T09:10:50Z</time>
      </trkpt>
      <trkpt lat="44.16232" lon="4.7233">
        <ele>38</ele>
        <time>2017-07-26T09:10:53Z</time>
      </trkpt>
      <trkpt lat="44.16211" lon="4.72333">
        <ele>38</ele>
        <time>2017-07-26T09:10:57Z</time>
      </trkpt>
      <trkpt lat="44.16196" lon="4.72331">
        <ele>38</ele>
        <time>2017-07-26T09:11:00Z</time>
      </trkpt>
      <trkpt lat="44.16188" lon="4.72325">
        <ele>38</ele>
        <time>2017-07-26T09:11:02Z</time>
      </trkpt>
      <trkpt lat="44.1618" lon="4.72317">
        <ele>38</ele>
        <time>2017-07-26T09:11:04Z</time>
      </trkpt>
      <trkpt lat="44.16162" lon="4.72295">
        <ele>38</ele>
        <time>2017-07-26T09:11:09Z</time>
      </trkpt>
      <trkpt lat="44.16141" lon="4.72266">
        <ele>38</ele>
        <time>2017-07-26T09:11:16Z</time>
      </trkpt>
      <trkpt lat="44.16141" lon="4.72266">
        <ele>38</ele>
        <time>2017-07-26T09:11:19Z</time>
      </trkpt>
      <trkpt lat="44.16141" lon="4.72266">
        <ele>38</ele>
        <time>2017-07-26T09:11:31Z</time>
      </trkpt>
      <trkpt lat="44.16141" lon="4.72266">
        <ele>38</ele>
        <time>2017-07-26T09:11:44Z</time>
      </trkpt>
      <trkpt lat="44.16141" lon="4.72266">
        <ele>38</ele>
        <time>2017-07-26T09:11:52Z</time>
      </trkpt>
      <trkpt lat="44.16135" lon="4.72259">
        <ele>38</ele>
        <time>2017-07-26T09:11:56Z</time>
      </trkpt>
      <trkpt lat="44.16121" lon="4.7224">
        <ele>38</ele>
        <time>2017-07-26T09:12:02Z</time>
      </trkpt>
      <trkpt lat="44.16112" lon="4.72229">
        <ele>38</ele>
        <time>2017-07-26T09:12:05Z</time>
      </trkpt>
      <trkpt lat="44.16102" lon="4.72215">
        <ele>38</ele>
        <time>2017-07-26T09:12:08Z</time>
      </trkpt>
      <trkpt lat="44.16079" lon="4.72187">
        <ele>38</ele>
        <time>2017-07-26T09:12:15Z</time>
      </trkpt>
      <trkpt lat="44.1606" lon="4.72161">
        <ele>38</ele>
        <time>2017-07-26T09:12:21Z</time>
      </trkpt>
      <trkpt lat="44.16057" lon="4.72155">
        <ele>38</ele>
        <time>2017-07-26T09:12:22Z</time>
      </trkpt>
      <trkpt lat="44.16053" lon="4.72138">
        <ele>38</ele>
        <time>2017-07-26T09:12:25Z</time>
      </trkpt>
      <trkpt lat="44.16051" lon="4.72133">
        <ele>38</ele>
        <time>2017-07-26T09:12:26Z</time>
      </trkpt>
      <trkpt lat="44.16044" lon="4.72106">
        <ele>38</ele>
        <time>2017-07-26T09:12:32Z</time>
      </trkpt>
      <trkpt lat="44.1604" lon="4.72082">
        <ele>38</ele>
        <time>2017-07-26T09:12:38Z</time>
      </trkpt>
      <trkpt lat="44.16036" lon="4.72068">
        <ele>38</ele>
        <time>2017-07-26T09:12:42Z</time>
      </trkpt>
      <trkpt lat="44.16033" lon="4.72068">
        <ele>38</ele>
        <time>2017-07-26T09:12:43Z</time>
      </trkpt>
      <trkpt lat="44.16028" lon="4.72068">
        <ele>38</ele>
        <time>2017-07-26T09:12:47Z</time>
      </trkpt>
      <trkpt lat="44.16028" lon="4.72068">
        <ele>38</ele>
        <time>2017-07-26T09:12:57Z</time>
      </trkpt>
      <trkpt lat="44.16028" lon="4.72068">
        <ele>38</ele>
        <time>2017-07-26T09:13:08Z</time>
      </trkpt>
      <trkpt lat="44.16024" lon="4.72069">
        <ele>38</ele>
        <time>2017-07-26T09:13:13Z</time>
      </trkpt>
      <trkpt lat="44.16024" lon="4.72069">
        <ele>38</ele>
        <time>2017-07-26T09:13:27Z</time>
      </trkpt>
      <trkpt lat="44.16024" lon="4.72069">
        <ele>38</ele>
        <time>2017-07-26T09:13:37Z</time>
      </trkpt>
      <trkpt lat="44.16024" lon="4.72068">
        <ele>38</ele>
        <time>2017-07-26T09:13:41Z</time>
      </trkpt>
      <trkpt lat="44.1602" lon="4.72067">
        <ele>38</ele>
        <time>2017-07-26T09:13:43Z</time>
      </trkpt>
      <trkpt lat="44.16004" lon="4.72067">
        <ele>38</ele>
        <time>2017-07-26T09:13:48Z</time>
      </trkpt>
      <trkpt lat="44.15995" lon="4.72067">
        <ele>38</ele>
        <time>2017-07-26T09:13:50Z</time>
      </trkpt>
      <trkpt lat="44.15986" lon="4.72067">
        <ele>38</ele>
        <time>2017-07-26T09:13:52Z</time>
      </trkpt>
      <trkpt lat="44.15981" lon="4.72068">
        <ele>38</ele>
        <time>2017-07-26T09:13:53Z</time>
      </trkpt>
      <trkpt lat="44.15942" lon="4.7207">
        <ele>38</ele>
        <time>2017-07-26T09:14:00Z</time>
      </trkpt>
      <trkpt lat="44.15909" lon="4.72073">
        <ele>38</ele>
        <time>2017-07-26T09:14:06Z</time>
      </trkpt>
      <trkpt lat="44.1586" lon="4.7208">
        <ele>38</ele>
        <time>2017-07-26T09:14:15Z</time>
      </trkpt>
      <trkpt lat="44.15819" lon="4.72086">
        <ele>38</ele>
        <time>2017-07-26T09:14:22Z</time>
      </trkpt>
      <trkpt lat="44.15772" lon="4.72092">
        <ele>38</ele>
        <time>2017-07-26T09:14:30Z</time>
      </trkpt>
      <trkpt lat="44.15725" lon="4.72099">
        <ele>38</ele>
        <time>2017-07-26T09:14:39Z</time>
      </trkpt>
      <trkpt lat="44.1571" lon="4.72101">
        <ele>38</ele>
        <time>2017-07-26T09:14:42Z</time>
      </trkpt>
      <trkpt lat="44.15698" lon="4.72094">
        <ele>38</ele>
        <time>2017-07-26T09:14:45Z</time>
      </trkpt>
      <trkpt lat="44.15694" lon="4.7208">
        <ele>38</ele>
        <time>2017-07-26T09:14:48Z</time>
      </trkpt>
      <trkpt lat="44.15693" lon="4.72077">
        <ele>38</ele>
        <time>2017-07-26T09:14:49Z</time>
      </trkpt>
      <trkpt lat="44.15693" lon="4.7207">
        <ele>38</ele>
        <time>2017-07-26T09:14:52Z</time>
      </trkpt>
      <trkpt lat="44.15693" lon="4.72059">
        <ele>38</ele>
        <time>2017-07-26T09:14:57Z</time>
      </trkpt>
      <trkpt lat="44.15693" lon="4.72057">
        <ele>38</ele>
        <time>2017-07-26T09:14:58Z</time>
      </trkpt>
      <trkpt lat="44.15698" lon="4.72042">
        <ele>38</ele>
        <time>2017-07-26T09:15:04Z</time>
      </trkpt>
      <trkpt lat="44.15709" lon="4.72033">
        <ele>38</ele>
        <time>2017-07-26T09:15:09Z</time>
      </trkpt>
      <trkpt lat="44.15712" lon="4.72031">
        <ele>38</ele>
        <time>2017-07-26T09:15:10Z</time>
      </trkpt>
      <trkpt lat="44.15714" lon="4.72029">
        <ele>39</ele>
        <time>2017-07-26T09:15:11Z</time>
      </trkpt>
      <trkpt lat="44.15717" lon="4.72027">
        <ele>39</ele>
        <time>2017-07-26T09:15:12Z</time>
      </trkpt>
      <trkpt lat="44.15719" lon="4.72025">
        <ele>40</ele>
        <time>2017-07-26T09:15:13Z</time>
      </trkpt>
      <trkpt lat="44.15721" lon="4.72024">
        <ele>40</ele>
        <time>2017-07-26T09:15:14Z</time>
      </trkpt>
      <trkpt lat="44.15722" lon="4.72022">
        <ele>40</ele>
        <time>2017-07-26T09:15:15Z</time>
      </trkpt>
      <trkpt lat="44.15731" lon="4.72013">
        <ele>40</ele>
        <time>2017-07-26T09:15:20Z</time>
      </trkpt>
      <trkpt lat="44.15732" lon="4.7201">
        <ele>40</ele>
        <time>2017-07-26T09:15:21Z</time>
      </trkpt>
      <trkpt lat="44.15728" lon="4.72003">
        <ele>40</ele>
        <time>2017-07-26T09:15:24Z</time>
      </trkpt>
      <trkpt lat="44.15721" lon="4.72006">
        <ele>40</ele>
        <time>2017-07-26T09:15:27Z</time>
      </trkpt>
      <trkpt lat="44.15718" lon="4.72006">
        <ele>40</ele>
        <time>2017-07-26T09:15:28Z</time>
      </trkpt>
      <trkpt lat="44.15696" lon="4.72009">
        <ele>40</ele>
        <time>2017-07-26T09:15:34Z</time>
      </trkpt>
      <trkpt lat="44.15681" lon="4.72014">
        <ele>41</ele>
        <time>2017-07-26T09:15:38Z</time>
      </trkpt>
      <trkpt lat="44.15678" lon="4.72015">
        <ele>41</ele>
        <time>2017-07-26T09:15:39Z</time>
      </trkpt>
      <trkpt lat="44.15674" lon="4.72017">
        <ele>42</ele>
        <time>2017-07-26T09:15:40Z</time>
      </trkpt>
      <trkpt lat="44.1567" lon="4.72018">
        <ele>42</ele>
        <time>2017-07-26T09:15:41Z</time>
      </trkpt>
      <trkpt lat="44.15666" lon="4.72019">
        <ele>42</ele>
        <time>2017-07-26T09:15:42Z</time>
      </trkpt>
      <trkpt lat="44.15646" lon="4.7202">
        <ele>42</ele>
        <time>2017-07-26T09:15:47Z</time>
      </trkpt>
      <trkpt lat="44.15631" lon="4.72025">
        <ele>42</ele>
        <time>2017-07-26T09:15:52Z</time>
      </trkpt>
      <trkpt lat="44.15542" lon="4.72055">
        <ele>42</ele>
        <time>2017-07-26T09:16:44Z</time>
      </trkpt>
      <trkpt lat="44.15489" lon="4.72071">
        <ele>42</ele>
        <time>2017-07-26T09:16:53Z</time>
      </trkpt>
      <trkpt lat="44.15435" lon="4.72087">
        <ele>42</ele>
        <time>2017-07-26T09:17:02Z</time>
      </trkpt>
      <trkpt lat="44.15429" lon="4.72089">
        <ele>42</ele>
        <time>2017-07-26T09:17:03Z</time>
      </trkpt>
      <trkpt lat="44.1539" lon="4.72101">
        <ele>42</ele>
        <time>2017-07-26T09:17:10Z</time>
      </trkpt>
      <trkpt lat="44.15344" lon="4.72116">
        <ele>42</ele>
        <time>2017-07-26T09:17:18Z</time>
      </trkpt>
      <trkpt lat="44.15288" lon="4.72132">
        <ele>42</ele>
        <time>2017-07-26T09:17:27Z</time>
      </trkpt>
      <trkpt lat="44.15282" lon="4.72134">
        <ele>42</ele>
        <time>2017-07-26T09:17:28Z</time>
      </trkpt>
      <trkpt lat="44.15228" lon="4.7215">
        <ele>42</ele>
        <time>2017-07-26T09:17:37Z</time>
      </trkpt>
      <trkpt lat="44.15217" lon="4.72153">
        <ele>42</ele>
        <time>2017-07-26T09:17:39Z</time>
      </trkpt>
      <trkpt lat="44.1516" lon="4.72169">
        <ele>42</ele>
        <time>2017-07-26T09:17:49Z</time>
      </trkpt>
      <trkpt lat="44.1513" lon="4.72178">
        <ele>42</ele>
        <time>2017-07-26T09:17:54Z</time>
      </trkpt>
      <trkpt lat="44.15123" lon="4.7218">
        <ele>42</ele>
        <time>2017-07-26T09:17:55Z</time>
      </trkpt>
      <trkpt lat="44.15117" lon="4.72182">
        <ele>41</ele>
        <time>2017-07-26T09:17:56Z</time>
      </trkpt>
      <trkpt lat="44.15111" lon="4.72184">
        <ele>41</ele>
        <time>2017-07-26T09:17:57Z</time>
      </trkpt>
      <trkpt lat="44.15105" lon="4.72186">
        <ele>40</ele>
        <time>2017-07-26T09:17:58Z</time>
      </trkpt>
      <trkpt lat="44.15059" lon="4.72202">
        <ele>40</ele>
        <time>2017-07-26T09:18:06Z</time>
      </trkpt>
      <trkpt lat="44.15048" lon="4.72204">
        <ele>40</ele>
        <time>2017-07-26T09:18:08Z</time>
      </trkpt>
      <trkpt lat="44.15035" lon="4.72204">
        <ele>40</ele>
        <time>2017-07-26T09:18:11Z</time>
      </trkpt>
      <trkpt lat="44.15031" lon="4.72203">
        <ele>40</ele>
        <time>2017-07-26T09:18:12Z</time>
      </trkpt>
      <trkpt lat="44.15027" lon="4.72202">
        <ele>41</ele>
        <time>2017-07-26T09:18:13Z</time>
      </trkpt>
      <trkpt lat="44.15024" lon="4.72202">
        <ele>41</ele>
        <time>2017-07-26T09:18:14Z</time>
      </trkpt>
      <trkpt lat="44.15021" lon="4.72203">
        <ele>42</ele>
        <time>2017-07-26T09:18:15Z</time>
      </trkpt>
      <trkpt lat="44.15018" lon="4.72204">
        <ele>43</ele>
        <time>2017-07-26T09:18:16Z</time>
      </trkpt>
      <trkpt lat="44.15006" lon="4.72209">
        <ele>43</ele>
        <time>2017-07-26T09:18:20Z</time>
      </trkpt>
      <trkpt lat="44.14982" lon="4.72215">
        <ele>43</ele>
        <time>2017-07-26T09:18:24Z</time>
      </trkpt>
      <trkpt lat="44.14959" lon="4.72225">
        <ele>42</ele>
        <time>2017-07-26T09:18:28Z</time>
      </trkpt>
      <trkpt lat="44.14954" lon="4.72228">
        <ele>42</ele>
        <time>2017-07-26T09:18:29Z</time>
      </trkpt>
      <trkpt lat="44.14952" lon="4.7223">
        <ele>41</ele>
        <time>2017-07-26T09:18:30Z</time>
      </trkpt>
      <trkpt lat="44.14951" lon="4.72232">
        <ele>41</ele>
        <time>2017-07-26T09:18:31Z</time>
      </trkpt>
      <trkpt lat="44.14951" lon="4.72232">
        <ele>41</ele>
        <time>2017-07-26T09:18:32Z</time>
      </trkpt>
      <trkpt lat="44.14951" lon="4.72232">
        <ele>41</ele>
        <time>2017-07-26T09:18:33Z</time>
      </trkpt>
      <trkpt lat="44.14925" lon="4.72238">
        <ele>43</ele>
        <time>2017-07-26T09:19:05Z</time>
      </trkpt>
      <trkpt lat="44.14895" lon="4.72247">
        <ele>43</ele>
        <time>2017-07-26T09:19:11Z</time>
      </trkpt>
      <trkpt lat="44.14857" lon="4.72256">
        <ele>43</ele>
        <time>2017-07-26T09:19:18Z</time>
      </trkpt>
      <trkpt lat="44.1482" lon="4.72266">
        <ele>43</ele>
        <time>2017-07-26T09:19:25Z</time>
      </trkpt>
      <trkpt lat="44.14769" lon="4.72278">
        <ele>43</ele>
        <time>2017-07-26T09:19:35Z</time>
      </trkpt>
      <trkpt lat="44.14757" lon="4.7228">
        <ele>42</ele>
        <time>2017-07-26T09:19:38Z</time>
      </trkpt>
      <trkpt lat="44.14753" lon="4.72281">
        <ele>42</ele>
        <time>2017-07-26T09:19:39Z</time>
      </trkpt>
      <trkpt lat="44.1475" lon="4.72282">
        <ele>41</ele>
        <time>2017-07-26T09:19:40Z</time>
      </trkpt>
      <trkpt lat="44.14747" lon="4.72283">
        <ele>41</ele>
        <time>2017-07-26T09:19:41Z</time>
      </trkpt>
      <trkpt lat="44.14743" lon="4.72283">
        <ele>41</ele>
        <time>2017-07-26T09:19:42Z</time>
      </trkpt>
      <trkpt lat="44.14732" lon="4.72284">
        <ele>41</ele>
        <time>2017-07-26T09:19:45Z</time>
      </trkpt>
      <trkpt lat="44.14717" lon="4.72288">
        <ele>41</ele>
        <time>2017-07-26T09:19:50Z</time>
      </trkpt>
      <trkpt lat="44.14717" lon="4.7229">
        <ele>41</ele>
        <time>2017-07-26T09:19:52Z</time>
      </trkpt>
      <trkpt lat="44.14718" lon="4.72289">
        <ele>41</ele>
        <time>2017-07-26T09:19:53Z</time>
      </trkpt>
      <trkpt lat="44.14718" lon="4.72289">
        <ele>41</ele>
        <time>2017-07-26T09:19:58Z</time>
      </trkpt>
      <trkpt lat="44.14718" lon="4.72288">
        <ele>41</ele>
        <time>2017-07-26T09:20:00Z</time>
      </trkpt>
      <trkpt lat="44.14714" lon="4.7229">
        <ele>41</ele>
        <time>2017-07-26T09:20:02Z</time>
      </trkpt>
      <trkpt lat="44.14705" lon="4.7229">
        <ele>41</ele>
        <time>2017-07-26T09:20:05Z</time>
      </trkpt>
      <trkpt lat="44.14701" lon="4.7229">
        <ele>41</ele>
        <time>2017-07-26T09:20:06Z</time>
      </trkpt>
      <trkpt lat="44.14676" lon="4.72292">
        <ele>41</ele>
        <time>2017-07-26T09:20:11Z</time>
      </trkpt>
      <trkpt lat="44.14638" lon="4.72296">
        <ele>41</ele>
        <time>2017-07-26T09:20:18Z</time>
      </trkpt>
      <trkpt lat="44.14591" lon="4.72299">
        <ele>41</ele>
        <time>2017-07-26T09:20:27Z</time>
      </trkpt>
      <trkpt lat="44.14545" lon="4.72303">
        <ele>41</ele>
        <time>2017-07-26T09:20:35Z</time>
      </trkpt>
      <trkpt lat="44.14502" lon="4.72307">
        <ele>41</ele>
        <time>2017-07-26T09:20:43Z</time>
      </trkpt>
      <trkpt lat="44.14469" lon="4.72308">
        <ele>41</ele>
        <time>2017-07-26T09:20:49Z</time>
      </trkpt>
      <trkpt lat="44.14432" lon="4.72309">
        <ele>41</ele>
        <time>2017-07-26T09:20:55Z</time>
      </trkpt>
      <trkpt lat="44.1439" lon="4.72308">
        <ele>41</ele>
        <time>2017-07-26T09:21:02Z</time>
      </trkpt>
      <trkpt lat="44.14338" lon="4.72304">
        <ele>41</ele>
        <time>2017-07-26T09:21:10Z</time>
      </trkpt>
      <trkpt lat="44.14282" lon="4.72299">
        <ele>41</ele>
        <time>2017-07-26T09:21:19Z</time>
      </trkpt>
      <trkpt lat="44.14232" lon="4.72293">
        <ele>41</ele>
        <time>2017-07-26T09:21:27Z</time>
      </trkpt>
      <trkpt lat="44.14183" lon="4.72284">
        <ele>41</ele>
        <time>2017-07-26T09:21:35Z</time>
      </trkpt>
      <trkpt lat="44.14135" lon="4.72274">
        <ele>41</ele>
        <time>2017-07-26T09:21:43Z</time>
      </trkpt>
      <trkpt lat="44.1409" lon="4.72263">
        <ele>41</ele>
        <time>2017-07-26T09:21:50Z</time>
      </trkpt>
      <trkpt lat="44.14043" lon="4.7225">
        <ele>41</ele>
        <time>2017-07-26T09:21:58Z</time>
      </trkpt>
      <trkpt lat="44.14" lon="4.72236">
        <ele>41</ele>
        <time>2017-07-26T09:22:05Z</time>
      </trkpt>
      <trkpt lat="44.13944" lon="4.72216">
        <ele>41</ele>
        <time>2017-07-26T09:22:14Z</time>
      </trkpt>
      <trkpt lat="44.13939" lon="4.72213">
        <ele>41</ele>
        <time>2017-07-26T09:22:15Z</time>
      </trkpt>
      <trkpt lat="44.13882" lon="4.72189">
        <ele>41</ele>
        <time>2017-07-26T09:22:25Z</time>
      </trkpt>
      <trkpt lat="44.13833" lon="4.72166">
        <ele>41</ele>
        <time>2017-07-26T09:22:33Z</time>
      </trkpt>
      <trkpt lat="44.1381" lon="4.72154">
        <ele>41</ele>
        <time>2017-07-26T09:22:37Z</time>
      </trkpt>
      <trkpt lat="44.13799" lon="4.72149">
        <ele>41</ele>
        <time>2017-07-26T09:22:39Z</time>
      </trkpt>
      <trkpt lat="44.13754" lon="4.72124">
        <ele>41</ele>
        <time>2017-07-26T09:22:47Z</time>
      </trkpt>
      <trkpt lat="44.13707" lon="4.721">
        <ele>41</ele>
        <time>2017-07-26T09:22:56Z</time>
      </trkpt>
      <trkpt lat="44.13675" lon="4.72081">
        <ele>41</ele>
        <time>2017-07-26T09:23:03Z</time>
      </trkpt>
      <trkpt lat="44.13642" lon="4.72061">
        <ele>41</ele>
        <time>2017-07-26T09:23:11Z</time>
      </trkpt>
      <trkpt lat="44.13631" lon="4.72055">
        <ele>41</ele>
        <time>2017-07-26T09:23:14Z</time>
      </trkpt>
      <trkpt lat="44.13623" lon="4.7205">
        <ele>41</ele>
        <time>2017-07-26T09:23:16Z</time>
      </trkpt>
      <trkpt lat="44.13619" lon="4.72047">
        <ele>41</ele>
        <time>2017-07-26T09:23:17Z</time>
      </trkpt>
      <trkpt lat="44.13596" lon="4.72034">
        <ele>41</ele>
        <time>2017-07-26T09:23:23Z</time>
      </trkpt>
      <trkpt lat="44.13564" lon="4.72016">
        <ele>41</ele>
        <time>2017-07-26T09:23:30Z</time>
      </trkpt>
      <trkpt lat="44.13525" lon="4.71994">
        <ele>41</ele>
        <time>2017-07-26T09:23:38Z</time>
      </trkpt>
      <trkpt lat="44.13476" lon="4.71966">
        <ele>41</ele>
        <time>2017-07-26T09:23:47Z</time>
      </trkpt>
      <trkpt lat="44.13437" lon="4.71943">
        <ele>41</ele>
        <time>2017-07-26T09:23:54Z</time>
      </trkpt>
      <trkpt lat="44.13408" lon="4.71926">
        <ele>41</ele>
        <time>2017-07-26T09:23:59Z</time>
      </trkpt>
      <trkpt lat="44.13391" lon="4.71915">
        <ele>41</ele>
        <time>2017-07-26T09:24:02Z</time>
      </trkpt>
      <trkpt lat="44.13362" lon="4.71901">
        <ele>41</ele>
        <time>2017-07-26T09:24:07Z</time>
      </trkpt>
      <trkpt lat="44.13352" lon="4.71895">
        <ele>40</ele>
        <time>2017-07-26T09:24:09Z</time>
      </trkpt>
      <trkpt lat="44.13347" lon="4.71892">
        <ele>40</ele>
        <time>2017-07-26T09:24:10Z</time>
      </trkpt>
      <trkpt lat="44.13342" lon="4.71888">
        <ele>39</ele>
        <time>2017-07-26T09:24:11Z</time>
      </trkpt>
      <trkpt lat="44.13337" lon="4.71884">
        <ele>39</ele>
        <time>2017-07-26T09:24:12Z</time>
      </trkpt>
      <trkpt lat="44.13332" lon="4.71882">
        <ele>38</ele>
        <time>2017-07-26T09:24:13Z</time>
      </trkpt>
      <trkpt lat="44.13326" lon="4.7188">
        <ele>38</ele>
        <time>2017-07-26T09:24:14Z</time>
      </trkpt>
      <trkpt lat="44.13321" lon="4.71876">
        <ele>38</ele>
        <time>2017-07-26T09:24:15Z</time>
      </trkpt>
      <trkpt lat="44.13302" lon="4.71865">
        <ele>38</ele>
        <time>2017-07-26T09:24:19Z</time>
      </trkpt>
      <trkpt lat="44.1327" lon="4.71845">
        <ele>38</ele>
        <time>2017-07-26T09:24:25Z</time>
      </trkpt>
      <trkpt lat="44.1323" lon="4.71822">
        <ele>38</ele>
        <time>2017-07-26T09:24:32Z</time>
      </trkpt>
      <trkpt lat="44.132" lon="4.71804">
        <ele>38</ele>
        <time>2017-07-26T09:24:38Z</time>
      </trkpt>
      <trkpt lat="44.13158" lon="4.71779">
        <ele>38</ele>
        <time>2017-07-26T09:24:46Z</time>
      </trkpt>
      <trkpt lat="44.13147" lon="4.71772">
        <ele>38</ele>
        <time>2017-07-26T09:24:48Z</time>
      </trkpt>
      <trkpt lat="44.1313" lon="4.71764">
        <ele>38</ele>
        <time>2017-07-26T09:24:51Z</time>
      </trkpt>
      <trkpt lat="44.13103" lon="4.71747">
        <ele>38</ele>
        <time>2017-07-26T09:24:56Z</time>
      </trkpt>
      <trkpt lat="44.13098" lon="4.71744">
        <ele>38</ele>
        <time>2017-07-26T09:24:57Z</time>
      </trkpt>
      <trkpt lat="44.13049" lon="4.71715">
        <ele>38</ele>
        <time>2017-07-26T09:25:06Z</time>
      </trkpt>
      <trkpt lat="44.1301" lon="4.71693">
        <ele>38</ele>
        <time>2017-07-26T09:25:13Z</time>
      </trkpt>
      <trkpt lat="44.12957" lon="4.71671">
        <ele>38</ele>
        <time>2017-07-26T09:25:23Z</time>
      </trkpt>
      <trkpt lat="44.12911" lon="4.71656">
        <ele>38</ele>
        <time>2017-07-26T09:25:31Z</time>
      </trkpt>
      <trkpt lat="44.12863" lon="4.71641">
        <ele>38</ele>
        <time>2017-07-26T09:25:40Z</time>
      </trkpt>
      <trkpt lat="44.12844" lon="4.71633">
        <ele>38</ele>
        <time>2017-07-26T09:25:44Z</time>
      </trkpt>
      <trkpt lat="44.12836" lon="4.71624">
        <ele>38</ele>
        <time>2017-07-26T09:25:46Z</time>
      </trkpt>
      <trkpt lat="44.12828" lon="4.71598">
        <ele>38</ele>
        <time>2017-07-26T09:25:50Z</time>
      </trkpt>
      <trkpt lat="44.12828" lon="4.71571">
        <ele>38</ele>
        <time>2017-07-26T09:25:54Z</time>
      </trkpt>
      <trkpt lat="44.12809" lon="4.71564">
        <ele>41</ele>
        <time>2017-07-26T09:26:41Z</time>
      </trkpt>
      <trkpt lat="44.12805" lon="4.71564">
        <ele>41</ele>
        <time>2017-07-26T09:26:42Z</time>
      </trkpt>
      <trkpt lat="44.12793" lon="4.71579">
        <ele>41</ele>
        <time>2017-07-26T09:26:46Z</time>
      </trkpt>
      <trkpt lat="44.12791" lon="4.71604">
        <ele>41</ele>
        <time>2017-07-26T09:26:50Z</time>
      </trkpt>
      <trkpt lat="44.1279" lon="4.7161">
        <ele>41</ele>
        <time>2017-07-26T09:26:51Z</time>
      </trkpt>
      <trkpt lat="44.12782" lon="4.71629">
        <ele>41</ele>
        <time>2017-07-26T09:26:55Z</time>
      </trkpt>
      <trkpt lat="44.12779" lon="4.71629">
        <ele>41</ele>
        <time>2017-07-26T09:26:56Z</time>
      </trkpt>
      <trkpt lat="44.12773" lon="4.71625">
        <ele>41</ele>
        <time>2017-07-26T09:26:58Z</time>
      </trkpt>
      <trkpt lat="44.12766" lon="4.71626">
        <ele>41</ele>
        <time>2017-07-26T09:27:02Z</time>
      </trkpt>
      <trkpt lat="44.12716" lon="4.71624">
        <ele>41</ele>
        <time>2017-07-26T09:27:37Z</time>
      </trkpt>
      <trkpt lat="44.12711" lon="4.71624">
        <ele>41</ele>
        <time>2017-07-26T09:27:38Z</time>
      </trkpt>
      <trkpt lat="44.12667" lon="4.71626">
        <ele>41</ele>
        <time>2017-07-26T09:27:46Z</time>
      </trkpt>
      <trkpt lat="44.12632" lon="4.71625">
        <ele>41</ele>
        <time>2017-07-26T09:27:53Z</time>
      </trkpt>
      <trkpt lat="44.12594" lon="4.71625">
        <ele>41</ele>
        <time>2017-07-26T09:28:00Z</time>
      </trkpt>
      <trkpt lat="44.12546" lon="4.71625">
        <ele>41</ele>
        <time>2017-07-26T09:28:08Z</time>
      </trkpt>
      <trkpt lat="44.12495" lon="4.71626">
        <ele>41</ele>
        <time>2017-07-26T09:28:17Z</time>
      </trkpt>
      <trkpt lat="44.12442" lon="4.71627">
        <ele>41</ele>
        <time>2017-07-26T09:28:26Z</time>
      </trkpt>
      <trkpt lat="44.12394" lon="4.71628">
        <ele>41</ele>
        <time>2017-07-26T09:28:35Z</time>
      </trkpt>
      <trkpt lat="44.1236" lon="4.71629">
        <ele>41</ele>
        <time>2017-07-26T09:28:41Z</time>
      </trkpt>
      <trkpt lat="44.12319" lon="4.71633">
        <ele>41</ele>
        <time>2017-07-26T09:28:48Z</time>
      </trkpt>
      <trkpt lat="44.12287" lon="4.71642">
        <ele>41</ele>
        <time>2017-07-26T09:28:54Z</time>
      </trkpt>
      <trkpt lat="44.12242" lon="4.71654">
        <ele>41</ele>
        <time>2017-07-26T09:29:02Z</time>
      </trkpt>
      <trkpt lat="44.12196" lon="4.7167">
        <ele>41</ele>
        <time>2017-07-26T09:29:10Z</time>
      </trkpt>
      <trkpt lat="44.12148" lon="4.71689">
        <ele>41</ele>
        <time>2017-07-26T09:29:19Z</time>
      </trkpt>
      <trkpt lat="44.12105" lon="4.71705">
        <ele>41</ele>
        <time>2017-07-26T09:29:26Z</time>
      </trkpt>
      <trkpt lat="44.12071" lon="4.71718">
        <ele>41</ele>
        <time>2017-07-26T09:29:32Z</time>
      </trkpt>
      <trkpt lat="44.1206" lon="4.71722">
        <ele>41</ele>
        <time>2017-07-26T09:29:34Z</time>
      </trkpt>
      <trkpt lat="44.12049" lon="4.71726">
        <ele>41</ele>
        <time>2017-07-26T09:29:36Z</time>
      </trkpt>
      <trkpt lat="44.12023" lon="4.71737">
        <ele>41</ele>
        <time>2017-07-26T09:29:41Z</time>
      </trkpt>
      <trkpt lat="44.1197" lon="4.71756">
        <ele>41</ele>
        <time>2017-07-26T09:29:50Z</time>
      </trkpt>
      <trkpt lat="44.11933" lon="4.7177">
        <ele>41</ele>
        <time>2017-07-26T09:29:57Z</time>
      </trkpt>
      <trkpt lat="44.11917" lon="4.71772">
        <ele>41</ele>
        <time>2017-07-26T09:30:00Z</time>
      </trkpt>
      <trkpt lat="44.11902" lon="4.71774">
        <ele>41</ele>
        <time>2017-07-26T09:30:03Z</time>
      </trkpt>
      <trkpt lat="44.11869" lon="4.71784">
        <ele>41</ele>
        <time>2017-07-26T09:30:10Z</time>
      </trkpt>
      <trkpt lat="44.11837" lon="4.71795">
        <ele>41</ele>
        <time>2017-07-26T09:30:16Z</time>
      </trkpt>
      <trkpt lat="44.11794" lon="4.71812">
        <ele>41</ele>
        <time>2017-07-26T09:30:24Z</time>
      </trkpt>
      <trkpt lat="44.11739" lon="4.71832">
        <ele>41</ele>
        <time>2017-07-26T09:30:33Z</time>
      </trkpt>
      <trkpt lat="44.11726" lon="4.71837">
        <ele>41</ele>
        <time>2017-07-26T09:30:35Z</time>
      </trkpt>
      <trkpt lat="44.11673" lon="4.71857">
        <ele>41</ele>
        <time>2017-07-26T09:30:43Z</time>
      </trkpt>
      <trkpt lat="44.11661" lon="4.71862">
        <ele>41</ele>
        <time>2017-07-26T09:30:45Z</time>
      </trkpt>
      <trkpt lat="44.11626" lon="4.71876">
        <ele>41</ele>
        <time>2017-07-26T09:30:51Z</time>
      </trkpt>
      <trkpt lat="44.11583" lon="4.71892">
        <ele>41</ele>
        <time>2017-07-26T09:30:59Z</time>
      </trkpt>
      <trkpt lat="44.11542" lon="4.71905">
        <ele>41</ele>
        <time>2017-07-26T09:31:06Z</time>
      </trkpt>
      <trkpt lat="44.1151" lon="4.71916">
        <ele>41</ele>
        <time>2017-07-26T09:31:12Z</time>
      </trkpt>
      <trkpt lat="44.11471" lon="4.71929">
        <ele>41</ele>
        <time>2017-07-26T09:31:19Z</time>
      </trkpt>
      <trkpt lat="44.11449" lon="4.71937">
        <ele>41</ele>
        <time>2017-07-26T09:31:23Z</time>
      </trkpt>
      <trkpt lat="44.11444" lon="4.71939">
        <ele>42</ele>
        <time>2017-07-26T09:31:24Z</time>
      </trkpt>
      <trkpt lat="44.11438" lon="4.71941">
        <ele>42</ele>
        <time>2017-07-26T09:31:25Z</time>
      </trkpt>
      <trkpt lat="44.11432" lon="4.71942">
        <ele>43</ele>
        <time>2017-07-26T09:31:26Z</time>
      </trkpt>
      <trkpt lat="44.11427" lon="4.71943">
        <ele>43</ele>
        <time>2017-07-26T09:31:27Z</time>
      </trkpt>
      <trkpt lat="44.11393" lon="4.71957">
        <ele>43</ele>
        <time>2017-07-26T09:31:33Z</time>
      </trkpt>
      <trkpt lat="44.11338" lon="4.7198">
        <ele>43</ele>
        <time>2017-07-26T09:31:43Z</time>
      </trkpt>
      <trkpt lat="44.11307" lon="4.71994">
        <ele>43</ele>
        <time>2017-07-26T09:31:48Z</time>
      </trkpt>
      <trkpt lat="44.1127" lon="4.7201">
        <ele>42</ele>
        <time>2017-07-26T09:31:53Z</time>
      </trkpt>
      <trkpt lat="44.11262" lon="4.72013">
        <ele>42</ele>
        <time>2017-07-26T09:31:54Z</time>
      </trkpt>
      <trkpt lat="44.11254" lon="4.72016">
        <ele>41</ele>
        <time>2017-07-26T09:31:55Z</time>
      </trkpt>
      <trkpt lat="44.11246" lon="4.72018">
        <ele>41</ele>
        <time>2017-07-26T09:31:56Z</time>
      </trkpt>
      <trkpt lat="44.11238" lon="4.72021">
        <ele>40</ele>
        <time>2017-07-26T09:31:57Z</time>
      </trkpt>
      <trkpt lat="44.11231" lon="4.72023">
        <ele>40</ele>
        <time>2017-07-26T09:31:58Z</time>
      </trkpt>
      <trkpt lat="44.11223" lon="4.72025">
        <ele>39</ele>
        <time>2017-07-26T09:31:59Z</time>
      </trkpt>
      <trkpt lat="44.11217" lon="4.72028">
        <ele>39</ele>
        <time>2017-07-26T09:32:00Z</time>
      </trkpt>
      <trkpt lat="44.11213" lon="4.72033">
        <ele>38</ele>
        <time>2017-07-26T09:32:01Z</time>
      </trkpt>
      <trkpt lat="44.11211" lon="4.72039">
        <ele>38</ele>
        <time>2017-07-26T09:32:02Z</time>
      </trkpt>
      <trkpt lat="44.1121" lon="4.72046">
        <ele>38</ele>
        <time>2017-07-26T09:32:03Z</time>
      </trkpt>
      <trkpt lat="44.11209" lon="4.72051">
        <ele>38</ele>
        <time>2017-07-26T09:32:04Z</time>
      </trkpt>
      <trkpt lat="44.11205" lon="4.72055">
        <ele>38</ele>
        <time>2017-07-26T09:32:05Z</time>
      </trkpt>
      <trkpt lat="44.11192" lon="4.72058">
        <ele>38</ele>
        <time>2017-07-26T09:32:08Z</time>
      </trkpt>
      <trkpt lat="44.11187" lon="4.72059">
        <ele>38</ele>
        <time>2017-07-26T09:32:09Z</time>
      </trkpt>
      <trkpt lat="44.11152" lon="4.72067">
        <ele>38</ele>
        <time>2017-07-26T09:32:16Z</time>
      </trkpt>
      <trkpt lat="44.1114" lon="4.7207">
        <ele>38</ele>
        <time>2017-07-26T09:32:18Z</time>
      </trkpt>
      <trkpt lat="44.11135" lon="4.72072">
        <ele>37</ele>
        <time>2017-07-26T09:32:19Z</time>
      </trkpt>
      <trkpt lat="44.11129" lon="4.72075">
        <ele>37</ele>
        <time>2017-07-26T09:32:20Z</time>
      </trkpt>
      <trkpt lat="44.11123" lon="4.72077">
        <ele>36</ele>
        <time>2017-07-26T09:32:21Z</time>
      </trkpt>
      <trkpt lat="44.11117" lon="4.7208">
        <ele>36</ele>
        <time>2017-07-26T09:32:22Z</time>
      </trkpt>
      <trkpt lat="44.11075" lon="4.72103">
        <ele>36</ele>
        <time>2017-07-26T09:32:30Z</time>
      </trkpt>
      <trkpt lat="44.11044" lon="4.72117">
        <ele>36</ele>
        <time>2017-07-26T09:32:36Z</time>
      </trkpt>
      <trkpt lat="44.11034" lon="4.72122">
        <ele>36</ele>
        <time>2017-07-26T09:32:38Z</time>
      </trkpt>
      <trkpt lat="44.10999" lon="4.72143">
        <ele>36</ele>
        <time>2017-07-26T09:32:45Z</time>
      </trkpt>
      <trkpt lat="44.1097" lon="4.72169">
        <ele>36</ele>
        <time>2017-07-26T09:32:51Z</time>
      </trkpt>
      <trkpt lat="44.10941" lon="4.72198">
        <ele>36</ele>
        <time>2017-07-26T09:32:58Z</time>
      </trkpt>
      <trkpt lat="44.10918" lon="4.72226">
        <ele>36</ele>
        <time>2017-07-26T09:33:04Z</time>
      </trkpt>
      <trkpt lat="44.10895" lon="4.72256">
        <ele>36</ele>
        <time>2017-07-26T09:33:10Z</time>
      </trkpt>
      <trkpt lat="44.10891" lon="4.72262">
        <ele>36</ele>
        <time>2017-07-26T09:33:11Z</time>
      </trkpt>
      <trkpt lat="44.10875" lon="4.72283">
        <ele>36</ele>
        <time>2017-07-26T09:33:15Z</time>
      </trkpt>
      <trkpt lat="44.10854" lon="4.72307">
        <ele>36</ele>
        <time>2017-07-26T09:33:20Z</time>
      </trkpt>
      <trkpt lat="44.10851" lon="4.72312">
        <ele>36</ele>
        <time>2017-07-26T09:33:21Z</time>
      </trkpt>
      <trkpt lat="44.10841" lon="4.72329">
        <ele>36</ele>
        <time>2017-07-26T09:33:24Z</time>
      </trkpt>
      <trkpt lat="44.10833" lon="4.72339">
        <ele>36</ele>
        <time>2017-07-26T09:33:26Z</time>
      </trkpt>
      <trkpt lat="44.10813" lon="4.72365">
        <ele>36</ele>
        <time>2017-07-26T09:33:31Z</time>
      </trkpt>
      <trkpt lat="44.10784" lon="4.72403">
        <ele>36</ele>
        <time>2017-07-26T09:33:38Z</time>
      </trkpt>
      <trkpt lat="44.1078" lon="4.72408">
        <ele>36</ele>
        <time>2017-07-26T09:33:39Z</time>
      </trkpt>
      <trkpt lat="44.10772" lon="4.72418">
        <ele>36</ele>
        <time>2017-07-26T09:33:41Z</time>
      </trkpt>
      <trkpt lat="44.10764" lon="4.7243">
        <ele>36</ele>
        <time>2017-07-26T09:33:44Z</time>
      </trkpt>
      <trkpt lat="44.10762" lon="4.72435">
        <ele>36</ele>
        <time>2017-07-26T09:33:45Z</time>
      </trkpt>
      <trkpt lat="44.10748" lon="4.72452">
        <ele>36</ele>
        <time>2017-07-26T09:33:49Z</time>
      </trkpt>
      <trkpt lat="44.10729" lon="4.72476">
        <ele>36</ele>
        <time>2017-07-26T09:33:55Z</time>
      </trkpt>
      <trkpt lat="44.10725" lon="4.72481">
        <ele>36</ele>
        <time>2017-07-26T09:33:59Z</time>
      </trkpt>
      <trkpt lat="44.10725" lon="4.72481">
        <ele>36</ele>
        <time>2017-07-26T09:34:08Z</time>
      </trkpt>
      <trkpt lat="44.10725" lon="4.72481">
        <ele>36</ele>
        <time>2017-07-26T09:34:17Z</time>
      </trkpt>
      <trkpt lat="44.10724" lon="4.72482">
        <ele>36</ele>
        <time>2017-07-26T09:34:26Z</time>
      </trkpt>
      <trkpt lat="44.10722" lon="4.72485">
        <ele>36</ele>
        <time>2017-07-26T09:34:33Z</time>
      </trkpt>
      <trkpt lat="44.1071" lon="4.725">
        <ele>36</ele>
        <time>2017-07-26T09:34:38Z</time>
      </trkpt>
      <trkpt lat="44.107" lon="4.72512">
        <ele>36</ele>
        <time>2017-07-26T09:34:41Z</time>
      </trkpt>
      <trkpt lat="44.10692" lon="4.72521">
        <ele>36</ele>
        <time>2017-07-26T09:34:43Z</time>
      </trkpt>
      <trkpt lat="44.10688" lon="4.72525">
        <ele>36</ele>
        <time>2017-07-26T09:34:44Z</time>
      </trkpt>
      <trkpt lat="44.10683" lon="4.72529">
        <ele>37</ele>
        <time>2017-07-26T09:34:45Z</time>
      </trkpt>
      <trkpt lat="44.10679" lon="4.72534">
        <ele>37</ele>
        <time>2017-07-26T09:34:46Z</time>
      </trkpt>
      <trkpt lat="44.10675" lon="4.72539">
        <ele>38</ele>
        <time>2017-07-26T09:34:47Z</time>
      </trkpt>
      <trkpt lat="44.10671" lon="4.72544">
        <ele>38</ele>
        <time>2017-07-26T09:34:48Z</time>
      </trkpt>
      <trkpt lat="44.10646" lon="4.72578">
        <ele>38</ele>
        <time>2017-07-26T09:34:55Z</time>
      </trkpt>
      <trkpt lat="44.1062" lon="4.72611">
        <ele>38</ele>
        <time>2017-07-26T09:35:02Z</time>
      </trkpt>
      <trkpt lat="44.10607" lon="4.72628">
        <ele>38</ele>
        <time>2017-07-26T09:35:06Z</time>
      </trkpt>
      <trkpt lat="44.10595" lon="4.72642">
        <ele>38</ele>
        <time>2017-07-26T09:35:09Z</time>
      </trkpt>
      <trkpt lat="44.10566" lon="4.72676">
        <ele>38</ele>
        <time>2017-07-26T09:35:16Z</time>
      </trkpt>
      <trkpt lat="44.10539" lon="4.72702">
        <ele>38</ele>
        <time>2017-07-26T09:35:22Z</time>
      </trkpt>
      <trkpt lat="44.1053" lon="4.72709">
        <ele>38</ele>
        <time>2017-07-26T09:35:24Z</time>
      </trkpt>
      <trkpt lat="44.10491" lon="4.72738">
        <ele>38</ele>
        <time>2017-07-26T09:35:32Z</time>
      </trkpt>
      <trkpt lat="44.10451" lon="4.72756">
        <ele>38</ele>
        <time>2017-07-26T09:35:39Z</time>
      </trkpt>
      <trkpt lat="44.10409" lon="4.72769">
        <ele>38</ele>
        <time>2017-07-26T09:35:46Z</time>
      </trkpt>
      <trkpt lat="44.10367" lon="4.72774">
        <ele>38</ele>
        <time>2017-07-26T09:35:53Z</time>
      </trkpt>
      <trkpt lat="44.10325" lon="4.72771">
        <ele>38</ele>
        <time>2017-07-26T09:36:00Z</time>
      </trkpt>
      <trkpt lat="44.10289" lon="4.72765">
        <ele>38</ele>
        <time>2017-07-26T09:36:06Z</time>
      </trkpt>
      <trkpt lat="44.1025" lon="4.72753">
        <ele>38</ele>
        <time>2017-07-26T09:36:13Z</time>
      </trkpt>
      <trkpt lat="44.10235" lon="4.72746">
        <ele>38</ele>
        <time>2017-07-26T09:36:16Z</time>
      </trkpt>
      <trkpt lat="44.10216" lon="4.72736">
        <ele>38</ele>
        <time>2017-07-26T09:36:20Z</time>
      </trkpt>
      <trkpt lat="44.10201" lon="4.72729">
        <ele>38</ele>
        <time>2017-07-26T09:36:23Z</time>
      </trkpt>
      <trkpt lat="44.10186" lon="4.7272">
        <ele>38</ele>
        <time>2017-07-26T09:36:26Z</time>
      </trkpt>
      <trkpt lat="44.10167" lon="4.72711">
        <ele>38</ele>
        <time>2017-07-26T09:36:30Z</time>
      </trkpt>
      <trkpt lat="44.10158" lon="4.72705">
        <ele>38</ele>
        <time>2017-07-26T09:36:32Z</time>
      </trkpt>
      <trkpt lat="44.10153" lon="4.72702">
        <ele>38</ele>
        <time>2017-07-26T09:36:33Z</time>
      </trkpt>
      <trkpt lat="44.10129" lon="4.72688">
        <ele>38</ele>
        <time>2017-07-26T09:36:38Z</time>
      </trkpt>
      <trkpt lat="44.1009" lon="4.72666">
        <ele>38</ele>
        <time>2017-07-26T09:36:46Z</time>
      </trkpt>
      <trkpt lat="44.10054" lon="4.72644">
        <ele>38</ele>
        <time>2017-07-26T09:36:53Z</time>
      </trkpt>
      <trkpt lat="44.10027" lon="4.72631">
        <ele>38</ele>
        <time>2017-07-26T09:36:59Z</time>
      </trkpt>
      <trkpt lat="44.09999" lon="4.72622">
        <ele>38</ele>
        <time>2017-07-26T09:37:05Z</time>
      </trkpt>
      <trkpt lat="44.09995" lon="4.72622">
        <ele>38</ele>
        <time>2017-07-26T09:37:06Z</time>
      </trkpt>
      <trkpt lat="44.09983" lon="4.7263">
        <ele>38</ele>
        <time>2017-07-26T09:37:09Z</time>
      </trkpt>
      <trkpt lat="44.09974" lon="4.72633">
        <ele>38</ele>
        <time>2017-07-26T09:37:11Z</time>
      </trkpt>
      <trkpt lat="44.09965" lon="4.7263">
        <ele>38</ele>
        <time>2017-07-26T09:37:13Z</time>
      </trkpt>
      <trkpt lat="44.09951" lon="4.72625">
        <ele>38</ele>
        <time>2017-07-26T09:37:16Z</time>
      </trkpt>
      <trkpt lat="44.09946" lon="4.72624">
        <ele>38</ele>
        <time>2017-07-26T09:37:17Z</time>
      </trkpt>
      <trkpt lat="44.09935" lon="4.72621">
        <ele>38</ele>
        <time>2017-07-26T09:37:19Z</time>
      </trkpt>
      <trkpt lat="44.09899" lon="4.72614">
        <ele>38</ele>
        <time>2017-07-26T09:37:26Z</time>
      </trkpt>
      <trkpt lat="44.09856" lon="4.72608">
        <ele>38</ele>
        <time>2017-07-26T09:37:34Z</time>
      </trkpt>
      <trkpt lat="44.09832" lon="4.72607">
        <ele>38</ele>
        <time>2017-07-26T09:37:39Z</time>
      </trkpt>
      <trkpt lat="44.09822" lon="4.72607">
        <ele>38</ele>
        <time>2017-07-26T09:37:41Z</time>
      </trkpt>
      <trkpt lat="44.09789" lon="4.72608">
        <ele>38</ele>
        <time>2017-07-26T09:37:48Z</time>
      </trkpt>
      <trkpt lat="44.09745" lon="4.72609">
        <ele>38</ele>
        <time>2017-07-26T09:37:57Z</time>
      </trkpt>
      <trkpt lat="44.09727" lon="4.72609">
        <ele>38</ele>
        <time>2017-07-26T09:38:01Z</time>
      </trkpt>
      <trkpt lat="44.09715" lon="4.72608">
        <ele>38</ele>
        <time>2017-07-26T09:38:04Z</time>
      </trkpt>
      <trkpt lat="44.09693" lon="4.72609">
        <ele>38</ele>
        <time>2017-07-26T09:38:10Z</time>
      </trkpt>
      <trkpt lat="44.09683" lon="4.7261">
        <ele>30</ele>
      </trkpt>
      <trkpt lat="44.0968" lon="4.72631">
        <ele>30</ele>
      </trkpt>
      <trkpt lat="44.09685" lon="4.72751">
        <ele>30</ele>
      </trkpt>
      <trkpt lat="44.09685" lon="4.72758">
        <ele>30</ele>
      </trkpt>
      <trkpt lat="44.09689" lon="4.72839">
        <ele>30</ele>
      </trkpt>
      <trkpt lat="44.09693" lon="4.72981">
        <ele>30</ele>
      </trkpt>
      <trkpt lat="44.09695" lon="4.73019">
        <ele>30</ele>
      </trkpt>
      <trkpt lat="44.09704" lon="4.73041">
        <ele>30</ele>
      </trkpt>
      <trkpt lat="44.09708" lon="4.73058">
        <ele>30</ele>
      </trkpt>
      <trkpt lat="44.09706" lon="4.73075">
        <ele>30</ele>
      </trkpt>
      <trkpt lat="44.09704" lon="4.73088">
        <ele>30</ele>
      </trkpt>
      <trkpt lat="44.09704" lon="4.73109">
        <ele>29</ele>
      </trkpt>
      <trkpt lat="44.09689" lon="4.73116">
        <ele>29</ele>
      </trkpt>
      <trkpt lat="44.0962" lon="4.73114">
        <ele>29</ele>
      </trkpt>
      <trkpt lat="44.09577" lon="4.73107">
        <ele>30</ele>
      </trkpt>
      <trkpt lat="44.09552" lon="4.73097">
        <ele>30</ele>
      </trkpt>
      <trkpt lat="44.09502" lon="4.73073">
        <ele>30</ele>
      </trkpt>
      <trkpt lat="44.09461" lon="4.73058">
        <ele>30</ele>
      </trkpt>
      <trkpt lat="44.09414" lon="4.7306">
        <ele>30</ele>
      </trkpt>
      <trkpt lat="44.09391" lon="4.73071">
        <ele>30</ele>
      </trkpt>
      <trkpt lat="44.09367" lon="4.73086">
        <ele>30</ele>
      </trkpt>
      <trkpt lat="44.09346" lon="4.73116">
        <ele>30</ele>
      </trkpt>
      <trkpt lat="44.09305" lon="4.73197">
        <ele>29</ele>
      </trkpt>
      <trkpt lat="44.0926" lon="4.73283">
        <ele>29</ele>
      </trkpt>
      <trkpt lat="44.09238" lon="4.73326">
        <ele>29</ele>
      </trkpt>
      <trkpt lat="44.09234" lon="4.73342">
        <ele>29</ele>
      </trkpt>
      <trkpt lat="44.09232" lon="4.73348">
        <ele>29</ele>
      </trkpt>
      <trkpt lat="44.0923" lon="4.73378">
        <ele>29</ele>
      </trkpt>
      <trkpt lat="44.09223" lon="4.73543">
        <ele>29</ele>
      </trkpt>
      <trkpt lat="44.09236" lon="4.73687">
        <ele>29</ele>
      </trkpt>
      <trkpt lat="44.09277" lon="4.74041">
        <ele>28</ele>
      </trkpt>
      <trkpt lat="44.09324" lon="4.7415">
        <ele>27</ele>
      </trkpt>
      <trkpt lat="44.09421" lon="4.74309">
        <ele>28</ele>
      </trkpt>
      <trkpt lat="44.09453" lon="4.74356">
        <ele>28</ele>
      </trkpt>
      <trkpt lat="44.09498" lon="4.74401">
        <ele>29</ele>
      </trkpt>
      <trkpt lat="44.09592" lon="4.74504">
        <ele>28</ele>
      </trkpt>
      <trkpt lat="44.09667" lon="4.7459">
        <ele>28</ele>
      </trkpt>
      <trkpt lat="44.09702" lon="4.74627">
        <ele>27</ele>
      </trkpt>
      <trkpt lat="44.09753" lon="4.7468">
        <ele>26</ele>
      </trkpt>
      <trkpt lat="44.09775" lon="4.74723">
        <ele>26</ele>
      </trkpt>
      <trkpt lat="44.09788" lon="4.74749">
        <ele>26</ele>
      </trkpt>
      <trkpt lat="44.09822" lon="4.74815">
        <ele>26</ele>
      </trkpt>
      <trkpt lat="44.09891" lon="4.7488">
        <ele>25</ele>
      </trkpt>
      <trkpt lat="44.09897" lon="4.74886">
        <ele>25</ele>
      </trkpt>
      <trkpt lat="44.09906" lon="4.74899">
        <ele>25</ele>
      </trkpt>
      <trkpt lat="44.09994" lon="4.74993">
        <ele>25</ele>
      </trkpt>
      <trkpt lat="44.10043" lon="4.75075">
        <ele>25</ele>
      </trkpt>
      <trkpt lat="44.10047" lon="4.7509">
        <ele>25</ele>
      </trkpt>
      <trkpt lat="44.10047" lon="4.75109">
        <ele>25</ele>
      </trkpt>
      <trkpt lat="44.10047" lon="4.75131">
        <ele>25</ele>
      </trkpt>
      <trkpt lat="44.10045" lon="4.75144">
        <ele>25</ele>
      </trkpt>
      <trkpt lat="44.10032" lon="4.75178">
        <ele>25</ele>
      </trkpt>
      <trkpt lat="44.10026" lon="4.7521">
        <ele>25</ele>
      </trkpt>
      <trkpt lat="44.09998" lon="4.75442">
        <ele>26</ele>
      </trkpt>
      <trkpt lat="44.1" lon="4.75459">
        <ele>26</ele>
      </trkpt>
      <trkpt lat="44.10002" lon="4.75466">
        <ele>26</ele>
      </trkpt>
      <trkpt lat="44.10011" lon="4.75461">
        <ele>26</ele>
      </trkpt>
      <trkpt lat="44.10024" lon="4.75451">
        <ele>26</ele>
      </trkpt>
      <trkpt lat="44.10032" lon="4.75446">
        <ele>26</ele>
      </trkpt>
      <trkpt lat="44.10067" lon="4.75435">
        <ele>26</ele>
      </trkpt>
      <trkpt lat="44.10082" lon="4.75429">
        <ele>26</ele>
      </trkpt>
      <trkpt lat="44.1009" lon="4.7542">
        <ele>26</ele>
      </trkpt>
      <trkpt lat="44.10131" lon="4.75375">
        <ele>26</ele>
      </trkpt>
      <trkpt lat="44.1014" lon="4.75371">
        <ele>26</ele>
      </trkpt>
      <trkpt lat="44.10148" lon="4.75369">
        <ele>26</ele>
      </trkpt>
      <trkpt lat="44.10157" lon="4.75369">
        <ele>26</ele>
      </trkpt>
      <trkpt lat="44.10223" lon="4.75384">
        <ele>26</ele>
      </trkpt>
      <trkpt lat="44.10311" lon="4.75403">
        <ele>26</ele>
      </trkpt>
      <trkpt lat="44.1044" lon="4.75446">
        <ele>26</ele>
      </trkpt>
      <trkpt lat="44.1044" lon="4.75455">
        <ele>26</ele>
      </trkpt>
      <trkpt lat="44.10444" lon="4.75459">
        <ele>26</ele>
      </trkpt>
      <trkpt lat="44.10449" lon="4.75459">
        <ele>26</ele>
      </trkpt>
      <trkpt lat="44.10451" lon="4.75468">
        <ele>26</ele>
      </trkpt>
      <trkpt lat="44.10453" lon="4.75485">
        <ele>26</ele>
      </trkpt>
      <trkpt lat="44.10455" lon="4.75517">
        <ele>26</ele>
      </trkpt>
      <trkpt lat="44.10461" lon="4.75564">
        <ele>26</ele>
      </trkpt>
      <trkpt lat="44.10444" lon="4.75569">
        <ele>26</ele>
      </trkpt>
      <trkpt lat="44.10432" lon="4.75573">
        <ele>29</ele>
      </trkpt>
      <trkpt lat="44.1043" lon="4.75555">
        <ele>29</ele>
      </trkpt>
      <trkpt lat="44.10425" lon="4.75507">
        <ele>29</ele>
      </trkpt>
      <trkpt lat="44.10425" lon="4.75507">
        <ele>29</ele>
      </trkpt>
      <trkpt lat="44.10419" lon="4.75488">
        <ele>28.2</ele>
      </trkpt>
      <trkpt lat="44.10419" lon="4.75486">
        <ele>28.2</ele>
      </trkpt>
      <trkpt lat="44.10403" lon="4.75473">
        <ele>28</ele>
      </trkpt>
      <trkpt lat="44.10402" lon="4.75473">
        <ele>28</ele>
      </trkpt>
      <trkpt lat="44.10373" lon="4.75466">
        <ele>27.6</ele>
      </trkpt>
      <trkpt lat="44.10373" lon="4.75465">
        <ele>27.6</ele>
      </trkpt>
      <trkpt lat="44.10343" lon="4.75454">
        <ele>27.2</ele>
      </trkpt>
      <trkpt lat="44.10343" lon="4.75454">
        <ele>27.2</ele>
      </trkpt>
      <trkpt lat="44.10272" lon="4.75439">
        <ele>28.1</ele>
      </trkpt>
      <trkpt lat="44.10241" lon="4.75436">
        <ele>27.7</ele>
      </trkpt>
      <trkpt lat="44.10241" lon="4.75436">
        <ele>27.7</ele>
      </trkpt>
      <trkpt lat="44.10212" lon="4.7543">
        <ele>27.7</ele>
      </trkpt>
      <trkpt lat="44.10212" lon="4.75429">
        <ele>27.6</ele>
      </trkpt>
      <trkpt lat="44.10184" lon="4.75419">
        <ele>28</ele>
      </trkpt>
      <trkpt lat="44.10182" lon="4.75418">
        <ele>28</ele>
      </trkpt>
      <trkpt lat="44.10162" lon="4.75415">
        <ele>28</ele>
      </trkpt>
      <trkpt lat="44.10148" lon="4.75419">
        <ele>27.4</ele>
      </trkpt>
      <trkpt lat="44.1014" lon="4.75426">
        <ele>27.3</ele>
      </trkpt>
      <trkpt lat="44.10112" lon="4.75467">
        <ele>28</ele>
      </trkpt>
      <trkpt lat="44.101" lon="4.75473">
        <ele>28</ele>
      </trkpt>
      <trkpt lat="44.101" lon="4.75473">
        <ele>28</ele>
      </trkpt>
      <trkpt lat="44.10079" lon="4.75472">
        <ele>28</ele>
      </trkpt>
      <trkpt lat="44.1005" lon="4.75475">
        <ele>28.1</ele>
      </trkpt>
      <trkpt lat="44.1005" lon="4.75475">
        <ele>28.1</ele>
      </trkpt>
      <trkpt lat="44.10028" lon="4.75495">
        <ele>28</ele>
      </trkpt>
      <trkpt lat="44.09994" lon="4.75532">
        <ele>28.5</ele>
      </trkpt>
      <trkpt lat="44.09976" lon="4.75558">
        <ele>27.3</ele>
      </trkpt>
      <trkpt lat="44.09967" lon="4.75595">
        <ele>27.6</ele>
      </trkpt>
      <trkpt lat="44.09963" lon="4.75651">
        <ele>28.7</ele>
      </trkpt>
      <trkpt lat="44.09961" lon="4.75689">
        <ele>28.6</ele>
      </trkpt>
      <trkpt lat="44.09968" lon="4.75697">
        <ele>27.7</ele>
      </trkpt>
      <trkpt lat="44.10011" lon="4.75726">
        <ele>27.6</ele>
      </trkpt>
      <trkpt lat="44.10045" lon="4.75749">
        <ele>27</ele>
      </trkpt>
      <trkpt lat="44.10066" lon="4.75759">
        <ele>27.7</ele>
      </trkpt>
      <trkpt lat="44.10091" lon="4.7577">
        <ele>27.3</ele>
      </trkpt>
      <trkpt lat="44.10163" lon="4.75786">
        <ele>27.6</ele>
      </trkpt>
      <trkpt lat="44.10241" lon="4.75807">
        <ele>28.2</ele>
      </trkpt>
      <trkpt lat="44.10263" lon="4.75813">
        <ele>28.9</ele>
      </trkpt>
      <trkpt lat="44.10263" lon="4.75813">
        <ele>28.9</ele>
      </trkpt>
      <trkpt lat="44.1026" lon="4.7583">
        <ele>30.1</ele>
      </trkpt>
      <trkpt lat="44.10253" lon="4.75847">
        <ele>29.9</ele>
      </trkpt>
      <trkpt lat="44.1025" lon="4.75852">
        <ele>29.7</ele>
      </trkpt>
      <trkpt lat="44.10247" lon="4.75855">
        <ele>29.4</ele>
      </trkpt>
      <trkpt lat="44.10247" lon="4.75864">
        <ele>29</ele>
      </trkpt>
      <trkpt lat="44.1025" lon="4.75869">
        <ele>29</ele>
      </trkpt>
      <trkpt lat="44.1025" lon="4.75869">
        <ele>29</ele>
      </trkpt>
      <trkpt lat="44.10257" lon="4.75868">
        <ele>29</ele>
      </trkpt>
      <trkpt lat="44.10258" lon="4.75875">
        <ele>26</ele>
      </trkpt>
      <trkpt lat="44.10266" lon="4.75897">
        <ele>26</ele>
      </trkpt>
      <trkpt lat="44.10283" lon="4.75989">
        <ele>26</ele>
      </trkpt>
      <trkpt lat="44.1029" lon="4.76013">
        <ele>26</ele>
      </trkpt>
      <trkpt lat="44.1029" lon="4.76013">
        <ele>26</ele>
      </trkpt>
      <trkpt lat="44.10292" lon="4.76023">
        <ele>26</ele>
      </trkpt>
      <trkpt lat="44.10313" lon="4.76171">
        <ele>26</ele>
      </trkpt>
      <trkpt lat="44.10322" lon="4.76217">
        <ele>26</ele>
      </trkpt>
      <trkpt lat="44.10483" lon="4.76315">
        <ele>27</ele>
      </trkpt>
      <trkpt lat="44.10498" lon="4.76328">
        <ele>27</ele>
      </trkpt>
      <trkpt lat="44.10509" lon="4.76345">
        <ele>27</ele>
      </trkpt>
      <trkpt lat="44.10517" lon="4.76371">
        <ele>27</ele>
      </trkpt>
      <trkpt lat="44.1053" lon="4.76463">
        <ele>27</ele>
      </trkpt>
      <trkpt lat="44.10541" lon="4.76562">
        <ele>27</ele>
      </trkpt>
      <trkpt lat="44.10547" lon="4.76588">
        <ele>27</ele>
      </trkpt>
      <trkpt lat="44.10582" lon="4.76629">
        <ele>27</ele>
      </trkpt>
      <trkpt lat="44.10603" lon="4.76663">
        <ele>27</ele>
      </trkpt>
      <trkpt lat="44.10629" lon="4.76691">
        <ele>28</ele>
      </trkpt>
      <trkpt lat="44.1064" lon="4.76719">
        <ele>28</ele>
      </trkpt>
      <trkpt lat="44.1065" lon="4.76762">
        <ele>28</ele>
      </trkpt>
      <trkpt lat="44.1067" lon="4.76792">
        <ele>28</ele>
      </trkpt>
      <trkpt lat="44.10674" lon="4.76822">
        <ele>28</ele>
      </trkpt>
      <trkpt lat="44.10676" lon="4.76871">
        <ele>28</ele>
      </trkpt>
      <trkpt lat="44.1068" lon="4.76938">
        <ele>28</ele>
      </trkpt>
      <trkpt lat="44.10688" lon="4.77066">
        <ele>28</ele>
      </trkpt>
      <trkpt lat="44.10691" lon="4.77107">
        <ele>28</ele>
      </trkpt>
      <trkpt lat="44.10693" lon="4.77118">
        <ele>28</ele>
      </trkpt>
      <trkpt lat="44.10704" lon="4.77129">
        <ele>28</ele>
      </trkpt>
      <trkpt lat="44.10728" lon="4.77141">
        <ele>28</ele>
      </trkpt>
      <trkpt lat="44.10762" lon="4.77161">
        <ele>28</ele>
      </trkpt>
      <trkpt lat="44.10826" lon="4.77227">
        <ele>28</ele>
      </trkpt>
      <trkpt lat="44.10828" lon="4.77238">
        <ele>28</ele>
      </trkpt>
      <trkpt lat="44.10886" lon="4.77401">
        <ele>28</ele>
      </trkpt>
      <trkpt lat="44.10931" lon="4.7756">
        <ele>29</ele>
      </trkpt>
      <trkpt lat="44.11002" lon="4.77706">
        <ele>29</ele>
      </trkpt>
      <trkpt lat="44.11097" lon="4.77845">
        <ele>29</ele>
      </trkpt>
      <trkpt lat="44.11124" lon="4.77907">
        <ele>29</ele>
      </trkpt>
      <trkpt lat="44.11163" lon="4.77933">
        <ele>29</ele>
      </trkpt>
      <trkpt lat="44.11176" lon="4.78047">
        <ele>29</ele>
      </trkpt>
      <trkpt lat="44.1118" lon="4.78083">
        <ele>29</ele>
      </trkpt>
      <trkpt lat="44.11167" lon="4.78204">
        <ele>29</ele>
      </trkpt>
      <trkpt lat="44.11152" lon="4.78322">
        <ele>30</ele>
      </trkpt>
      <trkpt lat="44.11146" lon="4.78351">
        <ele>30</ele>
      </trkpt>
      <trkpt lat="44.11133" lon="4.78405">
        <ele>30</ele>
      </trkpt>
      <trkpt lat="44.11127" lon="4.7844">
        <ele>30</ele>
      </trkpt>
      <trkpt lat="44.11118" lon="4.78482">
        <ele>31</ele>
      </trkpt>
      <trkpt lat="44.11114" lon="4.78562">
        <ele>32</ele>
      </trkpt>
      <trkpt lat="44.11109" lon="4.78585">
        <ele>32</ele>
      </trkpt>
      <trkpt lat="44.11103" lon="4.78622">
        <ele>32</ele>
      </trkpt>
      <trkpt lat="44.11103" lon="4.78686">
        <ele>33</ele>
      </trkpt>
      <trkpt lat="44.11105" lon="4.78693">
        <ele>33</ele>
      </trkpt>
      <trkpt lat="44.1112" lon="4.78798">
        <ele>33</ele>
      </trkpt>
      <trkpt lat="44.11133" lon="4.78869">
        <ele>33</ele>
      </trkpt>
      <trkpt lat="44.11139" lon="4.78907">
        <ele>32</ele>
      </trkpt>
      <trkpt lat="44.11139" lon="4.78944">
        <ele>32</ele>
      </trkpt>
      <trkpt lat="44.11133" lon="4.78993">
        <ele>32</ele>
      </trkpt>
      <trkpt lat="44.11122" lon="4.79038">
        <ele>32</ele>
      </trkpt>
      <trkpt lat="44.1112" lon="4.79047">
        <ele>32</ele>
      </trkpt>
      <trkpt lat="44.11118" lon="4.79058">
        <ele>32</ele>
      </trkpt>
      <trkpt lat="44.11107" lon="4.79131">
        <ele>32</ele>
      </trkpt>
      <trkpt lat="44.11091" lon="4.79266">
        <ele>32</ele>
      </trkpt>
      <trkpt lat="44.11088" lon="4.79291">
        <ele>32</ele>
      </trkpt>
      <trkpt lat="44.11195" lon="4.79345">
        <ele>32</ele>
      </trkpt>
      <trkpt lat="44.11225" lon="4.79367">
        <ele>32</ele>
      </trkpt>
      <trkpt lat="44.11225" lon="4.79377">
        <ele>32</ele>
      </trkpt>
      <trkpt lat="44.11236" lon="4.79455">
        <ele>32</ele>
      </trkpt>
      <trkpt lat="44.11234" lon="4.7947">
        <ele>32</ele>
      </trkpt>
      <trkpt lat="44.11219" lon="4.7957">
        <ele>32</ele>
      </trkpt>
      <trkpt lat="44.11217" lon="4.79596">
        <ele>32</ele>
      </trkpt>
      <trkpt lat="44.11215" lon="4.79626">
        <ele>32</ele>
      </trkpt>
      <trkpt lat="44.11215" lon="4.79648">
        <ele>32</ele>
      </trkpt>
      <trkpt lat="44.11212" lon="4.79669">
        <ele>32</ele>
      </trkpt>
      <trkpt lat="44.11204" lon="4.79714">
        <ele>33</ele>
      </trkpt>
      <trkpt lat="44.11174" lon="4.79809">
        <ele>33</ele>
      </trkpt>
      <trkpt lat="44.11163" lon="4.79858">
        <ele>33</ele>
      </trkpt>
      <trkpt lat="44.11159" lon="4.79894">
        <ele>33</ele>
      </trkpt>
      <trkpt lat="44.11146" lon="4.79952">
        <ele>33</ele>
      </trkpt>
      <trkpt lat="44.11139" lon="4.79961">
        <ele>33</ele>
      </trkpt>
      <trkpt lat="44.11129" lon="4.79995">
        <ele>34</ele>
      </trkpt>
      <trkpt lat="44.11112" lon="4.80032">
        <ele>34</ele>
      </trkpt>
      <trkpt lat="44.11073" lon="4.80092">
        <ele>33</ele>
      </trkpt>
      <trkpt lat="44.11069" lon="4.80115">
        <ele>33</ele>
      </trkpt>
      <trkpt lat="44.11062" lon="4.80164">
        <ele>33</ele>
      </trkpt>
      <trkpt lat="44.11047" lon="4.8027">
        <ele>34</ele>
      </trkpt>
      <trkpt lat="44.10942" lon="4.80259">
        <ele>34</ele>
      </trkpt>
      <trkpt lat="44.10876" lon="4.80261">
        <ele>34</ele>
      </trkpt>
      <trkpt lat="44.10833" lon="4.80266">
        <ele>35</ele>
      </trkpt>
      <trkpt lat="44.10803" lon="4.80274">
        <ele>36</ele>
      </trkpt>
      <trkpt lat="44.10732" lon="4.80321">
        <ele>38</ele>
      </trkpt>
      <trkpt lat="44.10659" lon="4.80362">
        <ele>38</ele>
      </trkpt>
      <trkpt lat="44.10627" lon="4.80369">
        <ele>38</ele>
      </trkpt>
      <trkpt lat="44.10594" lon="4.80384">
        <ele>37</ele>
      </trkpt>
      <trkpt lat="44.10567" lon="4.80409">
        <ele>36</ele>
      </trkpt>
      <trkpt lat="44.10506" lon="4.80478">
        <ele>36</ele>
      </trkpt>
      <trkpt lat="44.10485" lon="4.80497">
        <ele>36</ele>
      </trkpt>
      <trkpt lat="44.10444" lon="4.80521">
        <ele>35</ele>
      </trkpt>
      <trkpt lat="44.10397" lon="4.8054">
        <ele>34</ele>
      </trkpt>
      <trkpt lat="44.10386" lon="4.80545">
        <ele>34</ele>
      </trkpt>
      <trkpt lat="44.10322" lon="4.80572">
        <ele>33</ele>
      </trkpt>
      <trkpt lat="44.10253" lon="4.8059">
        <ele>33</ele>
      </trkpt>
      <trkpt lat="44.10204" lon="4.80594">
        <ele>32</ele>
      </trkpt>
      <trkpt lat="44.10075" lon="4.80592">
        <ele>33</ele>
      </trkpt>
      <trkpt lat="44.10056" lon="4.80592">
        <ele>33</ele>
      </trkpt>
      <trkpt lat="44.10007" lon="4.80577">
        <ele>33</ele>
      </trkpt>
      <trkpt lat="44.09976" lon="4.80566">
        <ele>33</ele>
      </trkpt>
      <trkpt lat="44.09966" lon="4.80564">
        <ele>33</ele>
      </trkpt>
      <trkpt lat="44.09901" lon="4.80536">
        <ele>35</ele>
      </trkpt>
      <trkpt lat="44.09876" lon="4.8053">
        <ele>36</ele>
      </trkpt>
      <trkpt lat="44.09869" lon="4.8053">
        <ele>36</ele>
      </trkpt>
      <trkpt lat="44.0985" lon="4.80527">
        <ele>37</ele>
      </trkpt>
      <trkpt lat="44.09843" lon="4.80525">
        <ele>37</ele>
      </trkpt>
      <trkpt lat="44.09811" lon="4.80521">
        <ele>38</ele>
      </trkpt>
      <trkpt lat="44.0973" lon="4.80523">
        <ele>41</ele>
      </trkpt>
      <trkpt lat="44.09702" lon="4.80523">
        <ele>43</ele>
      </trkpt>
      <trkpt lat="44.0968" lon="4.80523">
        <ele>44</ele>
      </trkpt>
      <trkpt lat="44.09655" lon="4.80523">
        <ele>45</ele>
      </trkpt>
      <trkpt lat="44.0965" lon="4.80517">
        <ele>45</ele>
      </trkpt>
      <trkpt lat="44.09622" lon="4.80515">
        <ele>46</ele>
      </trkpt>
      <trkpt lat="44.09588" lon="4.80521">
        <ele>48</ele>
      </trkpt>
      <trkpt lat="44.09556" lon="4.80532">
        <ele>49</ele>
      </trkpt>
      <trkpt lat="44.09543" lon="4.80536">
        <ele>50</ele>
      </trkpt>
      <trkpt lat="44.09519" lon="4.80545">
        <ele>51</ele>
      </trkpt>
      <trkpt lat="44.09489" lon="4.80549">
        <ele>52</ele>
      </trkpt>
      <trkpt lat="44.09408" lon="4.80553">
        <ele>56</ele>
      </trkpt>
      <trkpt lat="44.09376" lon="4.80551">
        <ele>57</ele>
      </trkpt>
      <trkpt lat="44.09322" lon="4.80542">
        <ele>60</ele>
      </trkpt>
      <trkpt lat="44.09296" lon="4.8054">
        <ele>61</ele>
      </trkpt>
      <trkpt lat="44.09221" lon="4.8054">
        <ele>66</ele>
      </trkpt>
      <trkpt lat="44.09178" lon="4.80521">
        <ele>68</ele>
      </trkpt>
      <trkpt lat="44.09037" lon="4.80482">
        <ele>74</ele>
      </trkpt>
      <trkpt lat="44.08831" lon="4.80431">
        <ele>83</ele>
      </trkpt>
      <trkpt lat="44.08771" lon="4.80433">
        <ele>83</ele>
      </trkpt>
      <trkpt lat="44.08676" lon="4.80482">
        <ele>87</ele>
      </trkpt>
      <trkpt lat="44.08629" lon="4.80502">
        <ele>88</ele>
      </trkpt>
      <trkpt lat="44.08586" lon="4.80536">
        <ele>91</ele>
      </trkpt>
      <trkpt lat="44.08477" lon="4.80635">
        <ele>98</ele>
      </trkpt>
      <trkpt lat="44.08466" lon="4.80645">
        <ele>98</ele>
      </trkpt>
      <trkpt lat="44.08453" lon="4.80705">
        <ele>100</ele>
      </trkpt>
      <trkpt lat="44.08447" lon="4.80774">
        <ele>101</ele>
      </trkpt>
      <trkpt lat="44.08442" lon="4.80787">
        <ele>101</ele>
      </trkpt>
      <trkpt lat="44.08432" lon="4.80802">
        <ele>101</ele>
      </trkpt>
      <trkpt lat="44.08395" lon="4.80824">
        <ele>100</ele>
      </trkpt>
      <trkpt lat="44.08344" lon="4.80866">
        <ele>100</ele>
      </trkpt>
      <trkpt lat="44.08335" lon="4.80869">
        <ele>100</ele>
      </trkpt>
      <trkpt lat="44.08322" lon="4.80877">
        <ele>100</ele>
      </trkpt>
      <trkpt lat="44.08298" lon="4.80873">
        <ele>99</ele>
      </trkpt>
      <trkpt lat="44.08296" lon="4.80884">
        <ele>99</ele>
      </trkpt>
      <trkpt lat="44.08277" lon="4.81066">
        <ele>111</ele>
      </trkpt>
      <trkpt lat="44.08266" lon="4.81096">
        <ele>113</ele>
      </trkpt>
      <trkpt lat="44.08245" lon="4.8112">
        <ele>114</ele>
      </trkpt>
      <trkpt lat="44.08226" lon="4.81165">
        <ele>116</ele>
      </trkpt>
      <trkpt lat="44.08191" lon="4.81184">
        <ele>117</ele>
      </trkpt>
      <trkpt lat="44.08144" lon="4.81171">
        <ele>117</ele>
      </trkpt>
      <trkpt lat="44.07977" lon="4.81128">
        <ele>117</ele>
      </trkpt>
      <trkpt lat="44.07959" lon="4.81124">
        <ele>117</ele>
      </trkpt>
      <trkpt lat="44.07936" lon="4.81111">
        <ele>117</ele>
      </trkpt>
      <trkpt lat="44.07925" lon="4.81092">
        <ele>116</ele>
      </trkpt>
      <trkpt lat="44.07936" lon="4.80946">
        <ele>105</ele>
      </trkpt>
      <trkpt lat="44.07942" lon="4.80866">
        <ele>100</ele>
      </trkpt>
      <trkpt lat="44.07942" lon="4.80849">
        <ele>99</ele>
      </trkpt>
      <trkpt lat="44.07938" lon="4.80841">
        <ele>99</ele>
      </trkpt>
      <trkpt lat="44.07923" lon="4.80834">
        <ele>99</ele>
      </trkpt>
      <trkpt lat="44.07842" lon="4.80821">
        <ele>99</ele>
      </trkpt>
      <trkpt lat="44.07818" lon="4.80817">
        <ele>99</ele>
      </trkpt>
      <trkpt lat="44.07803" lon="4.80813">
        <ele>99</ele>
      </trkpt>
      <trkpt lat="44.07792" lon="4.80811">
        <ele>99</ele>
      </trkpt>
      <trkpt lat="44.07659" lon="4.80746">
        <ele>96</ele>
      </trkpt>
      <trkpt lat="44.07623" lon="4.80716">
        <ele>94</ele>
      </trkpt>
      <trkpt lat="44.07584" lon="4.80693">
        <ele>93</ele>
      </trkpt>
      <trkpt lat="44.07545" lon="4.80684">
        <ele>92</ele>
      </trkpt>
      <trkpt lat="44.07485" lon="4.80665">
        <ele>90</ele>
      </trkpt>
      <trkpt lat="44.07444" lon="4.80656">
        <ele>89</ele>
      </trkpt>
      <trkpt lat="44.07402" lon="4.8065">
        <ele>88</ele>
      </trkpt>
      <trkpt lat="44.07367" lon="4.8065">
        <ele>88</ele>
      </trkpt>
      <trkpt lat="44.07354" lon="4.80648">
        <ele>88</ele>
      </trkpt>
      <trkpt lat="44.07264" lon="4.80633">
        <ele>85</ele>
      </trkpt>
      <trkpt lat="44.07135" lon="4.80635">
        <ele>83</ele>
      </trkpt>
      <trkpt lat="44.07026" lon="4.80637">
        <ele>80</ele>
      </trkpt>
      <trkpt lat="44.07002" lon="4.80633">
        <ele>79</ele>
      </trkpt>
      <trkpt lat="44.06975" lon="4.80637">
        <ele>78</ele>
      </trkpt>
      <trkpt lat="44.06941" lon="4.80642">
        <ele>77</ele>
      </trkpt>
      <trkpt lat="44.0691" lon="4.80648">
        <ele>76</ele>
      </trkpt>
      <trkpt lat="44.06887" lon="4.80667">
        <ele>75</ele>
      </trkpt>
      <trkpt lat="44.06846" lon="4.8074">
        <ele>77</ele>
      </trkpt>
      <trkpt lat="44.0679" lon="4.80811">
        <ele>78</ele>
      </trkpt>
      <trkpt lat="44.06747" lon="4.8086">
        <ele>78</ele>
      </trkpt>
      <trkpt lat="44.06726" lon="4.80873">
        <ele>78</ele>
      </trkpt>
      <trkpt lat="44.06708" lon="4.80907">
        <ele>79</ele>
      </trkpt>
      <trkpt lat="44.06668" lon="4.80946">
        <ele>81</ele>
      </trkpt>
      <trkpt lat="44.06627" lon="4.80999">
        <ele>83</ele>
      </trkpt>
      <trkpt lat="44.06588" lon="4.81027">
        <ele>83</ele>
      </trkpt>
      <trkpt lat="44.065" lon="4.81038">
        <ele>79</ele>
      </trkpt>
      <trkpt lat="44.06447" lon="4.81066">
        <ele>77</ele>
      </trkpt>
      <trkpt lat="44.06391" lon="4.81098">
        <ele>75</ele>
      </trkpt>
      <trkpt lat="44.06357" lon="4.81124">
        <ele>73</ele>
      </trkpt>
      <trkpt lat="44.06322" lon="4.81133">
        <ele>71</ele>
      </trkpt>
      <trkpt lat="44.06296" lon="4.81141">
        <ele>69</ele>
      </trkpt>
      <trkpt lat="44.06262" lon="4.81165">
        <ele>67</ele>
      </trkpt>
      <trkpt lat="44.06168" lon="4.81293">
        <ele>64</ele>
      </trkpt>
      <trkpt lat="44.06116" lon="4.8139">
        <ele>62</ele>
      </trkpt>
      <trkpt lat="44.06106" lon="4.81401">
        <ele>61</ele>
      </trkpt>
      <trkpt lat="44.06095" lon="4.81401">
        <ele>61</ele>
      </trkpt>
      <trkpt lat="44.06084" lon="4.81399">
        <ele>60</ele>
      </trkpt>
      <trkpt lat="44.06069" lon="4.81379">
        <ele>59</ele>
      </trkpt>
      <trkpt lat="44.06045" lon="4.81345">
        <ele>57</ele>
      </trkpt>
      <trkpt lat="44.06035" lon="4.81341">
        <ele>56</ele>
      </trkpt>
      <trkpt lat="44.06022" lon="4.81347">
        <ele>56</ele>
      </trkpt>
      <trkpt lat="44.06005" lon="4.81392">
        <ele>54</ele>
      </trkpt>
      <trkpt lat="44.05992" lon="4.81433">
        <ele>54</ele>
      </trkpt>
      <trkpt lat="44.0597" lon="4.81457">
        <ele>52</ele>
      </trkpt>
      <trkpt lat="44.05908" lon="4.81489">
        <ele>51</ele>
      </trkpt>
      <trkpt lat="44.05854" lon="4.81502">
        <ele>50</ele>
      </trkpt>
      <trkpt lat="44.05829" lon="4.81566">
        <ele>49</ele>
      </trkpt>
      <trkpt lat="44.05799" lon="4.81652">
        <ele>51</ele>
      </trkpt>
      <trkpt lat="44.05777" lon="4.81641">
        <ele>50</ele>
      </trkpt>
      <trkpt lat="44.05747" lon="4.8163">
        <ele>49</ele>
      </trkpt>
      <trkpt lat="44.05694" lon="4.81613">
        <ele>48</ele>
      </trkpt>
      <trkpt lat="44.0567" lon="4.81607">
        <ele>48</ele>
      </trkpt>
      <trkpt lat="44.05636" lon="4.81602">
        <ele>47</ele>
      </trkpt>
      <trkpt lat="44.05623" lon="4.81596">
        <ele>47</ele>
      </trkpt>
      <trkpt lat="44.05614" lon="4.8159">
        <ele>46</ele>
      </trkpt>
      <trkpt lat="44.05568" lon="4.8153">
        <ele>45</ele>
      </trkpt>
      <trkpt lat="44.05563" lon="4.81523">
        <ele>44</ele>
      </trkpt>
      <trkpt lat="44.05543" lon="4.81489">
        <ele>44</ele>
      </trkpt>
      <trkpt lat="44.05539" lon="4.81497">
        <ele>44</ele>
      </trkpt>
      <trkpt lat="44.05537" lon="4.81506">
        <ele>44</ele>
      </trkpt>
      <trkpt lat="44.0553" lon="4.81564">
        <ele>45</ele>
      </trkpt>
      <trkpt lat="44.05522" lon="4.81615">
        <ele>45</ele>
      </trkpt>
      <trkpt lat="44.05518" lon="4.81654">
        <ele>45</ele>
      </trkpt>
      <trkpt lat="44.05518" lon="4.81703">
        <ele>46</ele>
      </trkpt>
      <trkpt lat="44.05515" lon="4.8175">
        <ele>47</ele>
      </trkpt>
      <trkpt lat="44.05507" lon="4.81864">
        <ele>49</ele>
      </trkpt>
      <trkpt lat="44.05503" lon="4.81875">
        <ele>49</ele>
      </trkpt>
      <trkpt lat="44.05492" lon="4.8189">
        <ele>49</ele>
      </trkpt>
      <trkpt lat="44.05466" lon="4.81937">
        <ele>48</ele>
      </trkpt>
      <trkpt lat="44.05438" lon="4.81974">
        <ele>48</ele>
      </trkpt>
      <trkpt lat="44.05425" lon="4.81995">
        <ele>47</ele>
      </trkpt>
      <trkpt lat="44.05417" lon="4.82012">
        <ele>47</ele>
      </trkpt>
      <trkpt lat="44.0541" lon="4.82027">
        <ele>47</ele>
      </trkpt>
      <trkpt lat="44.05408" lon="4.82034">
        <ele>47</ele>
      </trkpt>
      <trkpt lat="44.05404" lon="4.82057">
        <ele>47</ele>
      </trkpt>
      <trkpt lat="44.05408" lon="4.82147">
        <ele>48</ele>
      </trkpt>
      <trkpt lat="44.05408" lon="4.82208">
        <ele>49</ele>
      </trkpt>
      <trkpt lat="44.0541" lon="4.82265">
        <ele>49</ele>
      </trkpt>
      <trkpt lat="44.05408" lon="4.82332">
        <ele>49</ele>
      </trkpt>
      <trkpt lat="44.05406" lon="4.82347">
        <ele>49</ele>
      </trkpt>
      <trkpt lat="44.05408" lon="4.82356">
        <ele>49</ele>
      </trkpt>
      <trkpt lat="44.0541" lon="4.82416">
        <ele>49</ele>
      </trkpt>
      <trkpt lat="44.05406" lon="4.82538">
        <ele>48</ele>
      </trkpt>
      <trkpt lat="44.05412" lon="4.82581">
        <ele>48</ele>
      </trkpt>
      <trkpt lat="44.05412" lon="4.82594">
        <ele>48</ele>
      </trkpt>
      <trkpt lat="44.05406" lon="4.8265">
        <ele>47</ele>
      </trkpt>
      <trkpt lat="44.05402" lon="4.82662">
        <ele>47</ele>
      </trkpt>
      <trkpt lat="44.05395" lon="4.82669">
        <ele>47</ele>
      </trkpt>
      <trkpt lat="44.05382" lon="4.82677">
        <ele>46</ele>
      </trkpt>
      <trkpt lat="44.05367" lon="4.82682">
        <ele>46</ele>
      </trkpt>
      <trkpt lat="44.05363" lon="4.82682">
        <ele>45</ele>
      </trkpt>
      <trkpt lat="44.05357" lon="4.8268">
        <ele>45</ele>
      </trkpt>
      <trkpt lat="44.05327" lon="4.82656">
        <ele>43</ele>
      </trkpt>
      <trkpt lat="44.05309" lon="4.82643">
        <ele>43</ele>
      </trkpt>
      <trkpt lat="44.05301" lon="4.82639">
        <ele>42</ele>
      </trkpt>
      <trkpt lat="44.05292" lon="4.82637">
        <ele>42</ele>
      </trkpt>
      <trkpt lat="44.05271" lon="4.82632">
        <ele>41</ele>
      </trkpt>
      <trkpt lat="44.05252" lon="4.82624">
        <ele>41</ele>
      </trkpt>
      <trkpt lat="44.0523" lon="4.82611">
        <ele>40</ele>
      </trkpt>
      <trkpt lat="44.05209" lon="4.82596">
        <ele>40</ele>
      </trkpt>
      <trkpt lat="44.0517" lon="4.82581">
        <ele>39</ele>
      </trkpt>
      <trkpt lat="44.05164" lon="4.82581">
        <ele>38</ele>
      </trkpt>
      <trkpt lat="44.05121" lon="4.82581">
        <ele>37</ele>
      </trkpt>
      <trkpt lat="44.05108" lon="4.82577">
        <ele>37</ele>
      </trkpt>
      <trkpt lat="44.05091" lon="4.82568">
        <ele>36</ele>
      </trkpt>
      <trkpt lat="44.05063" lon="4.82559">
        <ele>35</ele>
      </trkpt>
      <trkpt lat="44.04981" lon="4.82547">
        <ele>33</ele>
      </trkpt>
      <trkpt lat="44.0497" lon="4.82544">
        <ele>32</ele>
      </trkpt>
      <trkpt lat="44.04949" lon="4.82527">
        <ele>32</ele>
      </trkpt>
      <trkpt lat="44.0491" lon="4.82474">
        <ele>30</ele>
      </trkpt>
      <trkpt lat="44.049" lon="4.82469">
        <ele>30</ele>
      </trkpt>
      <trkpt lat="44.04893" lon="4.82469">
        <ele>30</ele>
      </trkpt>
      <trkpt lat="44.04889" lon="4.82476">
        <ele>29</ele>
      </trkpt>
      <trkpt lat="44.04885" lon="4.82484">
        <ele>29</ele>
      </trkpt>
      <trkpt lat="44.04887" lon="4.82519">
        <ele>30</ele>
      </trkpt>
      <trkpt lat="44.04867" lon="4.82585">
        <ele>29</ele>
      </trkpt>
      <trkpt lat="44.04857" lon="4.8263">
        <ele>29</ele>
      </trkpt>
      <trkpt lat="44.04829" lon="4.8283">
        <ele>30</ele>
      </trkpt>
      <trkpt lat="44.04824" lon="4.8289">
        <ele>31</ele>
      </trkpt>
      <trkpt lat="44.04827" lon="4.82997">
        <ele>32</ele>
      </trkpt>
      <trkpt lat="44.04833" lon="4.83036">
        <ele>32</ele>
      </trkpt>
      <trkpt lat="44.04846" lon="4.83059">
        <ele>33</ele>
      </trkpt>
      <trkpt lat="44.04846" lon="4.83066">
        <ele>33</ele>
      </trkpt>
      <trkpt lat="44.0485" lon="4.83068">
        <ele>33</ele>
      </trkpt>
      <trkpt lat="44.04859" lon="4.83096">
        <ele>33</ele>
      </trkpt>
      <trkpt lat="44.0487" lon="4.83147">
        <ele>34</ele>
      </trkpt>
      <trkpt lat="44.04872" lon="4.83165">
        <ele>34</ele>
      </trkpt>
      <trkpt lat="44.04876" lon="4.83214">
        <ele>35</ele>
      </trkpt>
      <trkpt lat="44.0488" lon="4.83246">
        <ele>36</ele>
      </trkpt>
      <trkpt lat="44.04891" lon="4.83272">
        <ele>36</ele>
      </trkpt>
      <trkpt lat="44.04938" lon="4.83351">
        <ele>39</ele>
      </trkpt>
      <trkpt lat="44.04945" lon="4.83362">
        <ele>39</ele>
      </trkpt>
      <trkpt lat="44.04951" lon="4.83373">
        <ele>39</ele>
      </trkpt>
      <trkpt lat="44.0499" lon="4.83437">
        <ele>41</ele>
      </trkpt>
      <trkpt lat="44.05026" lon="4.83474">
        <ele>42</ele>
      </trkpt>
      <trkpt lat="44.05069" lon="4.8351">
        <ele>44</ele>
      </trkpt>
      <trkpt lat="44.05054" lon="4.83527">
        <ele>43</ele>
      </trkpt>
      <trkpt lat="44.05046" lon="4.83529">
        <ele>43</ele>
      </trkpt>
      <trkpt lat="44.05003" lon="4.83546">
        <ele>42</ele>
      </trkpt>
      <trkpt lat="44.04945" lon="4.83566">
        <ele>40</ele>
      </trkpt>
      <trkpt lat="44.04925" lon="4.8357">
        <ele>40</ele>
      </trkpt>
      <trkpt lat="44.04897" lon="4.83564">
        <ele>39</ele>
      </trkpt>
      <trkpt lat="44.04891" lon="4.83566">
        <ele>38</ele>
      </trkpt>
      <trkpt lat="44.04842" lon="4.83583">
        <ele>37</ele>
      </trkpt>
      <trkpt lat="44.04803" lon="4.83592">
        <ele>36</ele>
      </trkpt>
      <trkpt lat="44.04764" lon="4.83592">
        <ele>35</ele>
      </trkpt>
      <trkpt lat="44.04711" lon="4.83596">
        <ele>33</ele>
      </trkpt>
      <trkpt lat="44.04597" lon="4.83622">
        <ele>31</ele>
      </trkpt>
      <trkpt lat="44.04533" lon="4.83589">
        <ele>30</ele>
      </trkpt>
      <trkpt lat="44.04507" lon="4.83581">
        <ele>30</ele>
      </trkpt>
      <trkpt lat="44.04494" lon="4.83579">
        <ele>30</ele>
      </trkpt>
      <trkpt lat="44.04464" lon="4.83579">
        <ele>29</ele>
      </trkpt>
      <trkpt lat="44.04314" lon="4.83611">
        <ele>29</ele>
      </trkpt>
      <trkpt lat="44.04271" lon="4.83619">
        <ele>29</ele>
      </trkpt>
      <trkpt lat="44.04121" lon="4.83626">
        <ele>29</ele>
      </trkpt>
      <trkpt lat="44.04091" lon="4.83626">
        <ele>29</ele>
      </trkpt>
      <trkpt lat="44.03925" lon="4.83669">
        <ele>30</ele>
      </trkpt>
      <trkpt lat="44.03807" lon="4.83695">
        <ele>30</ele>
      </trkpt>
      <trkpt lat="44.0373" lon="4.83703">
        <ele>30</ele>
      </trkpt>
      <trkpt lat="44.03687" lon="4.83716">
        <ele>30</ele>
      </trkpt>
      <trkpt lat="44.03657" lon="4.83725">
        <ele>30</ele>
      </trkpt>
      <trkpt lat="44.03627" lon="4.83729">
        <ele>30</ele>
      </trkpt>
      <trkpt lat="44.03558" lon="4.83735">
        <ele>30</ele>
      </trkpt>
      <trkpt lat="44.03466" lon="4.83765">
        <ele>30</ele>
      </trkpt>
      <trkpt lat="44.03363" lon="4.83798">
        <ele>28</ele>
      </trkpt>
      <trkpt lat="44.03312" lon="4.83808">
        <ele>28</ele>
      </trkpt>
      <trkpt lat="44.03299" lon="4.8381">
        <ele>28</ele>
      </trkpt>
      <trkpt lat="44.03268" lon="4.83824">
        <ele>27</ele>
      </trkpt>
      <trkpt lat="44.03241" lon="4.83836">
        <ele>27</ele>
      </trkpt>
      <trkpt lat="44.03129" lon="4.83935">
        <ele>26</ele>
      </trkpt>
      <trkpt lat="44.03112" lon="4.83946">
        <ele>25</ele>
      </trkpt>
      <trkpt lat="44.03018" lon="4.84027">
        <ele>25</ele>
      </trkpt>
      <trkpt lat="44.02938" lon="4.84111">
        <ele>25</ele>
      </trkpt>
      <trkpt lat="44.0288" lon="4.84182">
        <ele>24</ele>
      </trkpt>
      <trkpt lat="44.0279" lon="4.84276">
        <ele>24</ele>
      </trkpt>
      <trkpt lat="44.02762" lon="4.84302">
        <ele>24</ele>
      </trkpt>
      <trkpt lat="44.02698" lon="4.84345">
        <ele>24</ele>
      </trkpt>
      <trkpt lat="44.02623" lon="4.84375">
        <ele>24</ele>
      </trkpt>
      <trkpt lat="44.02597" lon="4.84383">
        <ele>24</ele>
      </trkpt>
      <trkpt lat="44.02559" lon="4.84388">
        <ele>24</ele>
      </trkpt>
      <trkpt lat="44.02472" lon="4.84422">
        <ele>24</ele>
      </trkpt>
      <trkpt lat="44.0243" lon="4.84439">
        <ele>24</ele>
      </trkpt>
      <trkpt lat="44.02411" lon="4.84452">
        <ele>25</ele>
      </trkpt>
      <trkpt lat="44.02406" lon="4.84467">
        <ele>25</ele>
      </trkpt>
      <trkpt lat="44.02406" lon="4.84488">
        <ele>25</ele>
      </trkpt>
      <trkpt lat="44.02402" lon="4.8451">
        <ele>25</ele>
      </trkpt>
      <trkpt lat="44.02389" lon="4.84523">
        <ele>25</ele>
      </trkpt>
      <trkpt lat="44.02297" lon="4.84574">
        <ele>25</ele>
      </trkpt>
      <trkpt lat="44.0228" lon="4.84589">
        <ele>25</ele>
      </trkpt>
      <trkpt lat="44.02267" lon="4.84602">
        <ele>25</ele>
      </trkpt>
      <trkpt lat="44.02155" lon="4.84677">
        <ele>24</ele>
      </trkpt>
      <trkpt lat="44.02144" lon="4.84686">
        <ele>24</ele>
      </trkpt>
      <trkpt lat="44.02016" lon="4.84774">
        <ele>24</ele>
      </trkpt>
      <trkpt lat="44.01915" lon="4.8486">
        <ele>24</ele>
      </trkpt>
      <trkpt lat="44.01902" lon="4.84873">
        <ele>24</ele>
      </trkpt>
      <trkpt lat="44.01883" lon="4.84888">
        <ele>24</ele>
      </trkpt>
      <trkpt lat="44.01795" lon="4.84969">
        <ele>23</ele>
      </trkpt>
      <trkpt lat="44.01741" lon="4.85025">
        <ele>24</ele>
      </trkpt>
      <trkpt lat="44.01688" lon="4.8508">
        <ele>24</ele>
      </trkpt>
      <trkpt lat="44.01608" lon="4.85162">
        <ele>24</ele>
      </trkpt>
      <trkpt lat="44.01591" lon="4.85177">
        <ele>24</ele>
      </trkpt>
      <trkpt lat="44.01511" lon="4.85265">
        <ele>24</ele>
      </trkpt>
      <trkpt lat="44.01486" lon="4.85327">
        <ele>24</ele>
      </trkpt>
      <trkpt lat="44.01473" lon="4.8537">
        <ele>24</ele>
      </trkpt>
      <trkpt lat="44.01469" lon="4.85413">
        <ele>23</ele>
      </trkpt>
      <trkpt lat="44.01466" lon="4.85452">
        <ele>23</ele>
      </trkpt>
      <trkpt lat="44.01469" lon="4.85497">
        <ele>23</ele>
      </trkpt>
      <trkpt lat="44.01471" lon="4.85512">
        <ele>23</ele>
      </trkpt>
      <trkpt lat="44.01479" lon="4.85585">
        <ele>23</ele>
      </trkpt>
      <trkpt lat="44.01479" lon="4.85617">
        <ele>23</ele>
      </trkpt>
      <trkpt lat="44.01481" lon="4.85639">
        <ele>24</ele>
      </trkpt>
      <trkpt lat="44.01486" lon="4.85673">
        <ele>24</ele>
      </trkpt>
      <trkpt lat="44.01486" lon="4.85679">
        <ele>24</ele>
      </trkpt>
      <trkpt lat="44.0149" lon="4.8572">
        <ele>24</ele>
      </trkpt>
      <trkpt lat="44.0149" lon="4.85727">
        <ele>24</ele>
      </trkpt>
      <trkpt lat="44.01492" lon="4.85752">
        <ele>24</ele>
      </trkpt>
      <trkpt lat="44.01496" lon="4.85804">
        <ele>24</ele>
      </trkpt>
      <trkpt lat="44.01505" lon="4.85866">
        <ele>25</ele>
      </trkpt>
      <trkpt lat="44.0152" lon="4.85965">
        <ele>25</ele>
      </trkpt>
      <trkpt lat="44.0152" lon="4.85984">
        <ele>25</ele>
      </trkpt>
      <trkpt lat="44.0152" lon="4.85999">
        <ele>25</ele>
      </trkpt>
      <trkpt lat="44.01503" lon="4.86042">
        <ele>25</ele>
      </trkpt>
      <trkpt lat="44.0149" lon="4.8607">
        <ele>25</ele>
      </trkpt>
      <trkpt lat="44.01486" lon="4.86087">
        <ele>25</ele>
      </trkpt>
      <trkpt lat="44.01484" lon="4.86102">
        <ele>25</ele>
      </trkpt>
      <trkpt lat="44.01479" lon="4.86139">
        <ele>25</ele>
      </trkpt>
      <trkpt lat="44.01477" lon="4.86173">
        <ele>25</ele>
      </trkpt>
      <trkpt lat="44.01475" lon="4.86203">
        <ele>25</ele>
      </trkpt>
      <trkpt lat="44.01475" lon="4.86239">
        <ele>25</ele>
      </trkpt>
      <trkpt lat="44.01475" lon="4.86308">
        <ele>25</ele>
      </trkpt>
      <trkpt lat="44.01469" lon="4.86372">
        <ele>24</ele>
      </trkpt>
      <trkpt lat="44.01469" lon="4.86377">
        <ele>24</ele>
      </trkpt>
      <trkpt lat="44.01464" lon="4.86426">
        <ele>24</ele>
      </trkpt>
      <trkpt lat="44.01462" lon="4.86454">
        <ele>24</ele>
      </trkpt>
      <trkpt lat="44.0146" lon="4.86506">
        <ele>24</ele>
      </trkpt>
      <trkpt lat="44.01466" lon="4.86546">
        <ele>24</ele>
      </trkpt>
      <trkpt lat="44.01469" lon="4.86576">
        <ele>24</ele>
      </trkpt>
      <trkpt lat="44.01469" lon="4.86609">
        <ele>23</ele>
      </trkpt>
      <trkpt lat="44.01466" lon="4.86656">
        <ele>23</ele>
      </trkpt>
      <trkpt lat="44.01462" lon="4.86679">
        <ele>23</ele>
      </trkpt>
      <trkpt lat="44.0146" lon="4.86701">
        <ele>23</ele>
      </trkpt>
      <trkpt lat="44.01451" lon="4.86737">
        <ele>23</ele>
      </trkpt>
      <trkpt lat="44.01432" lon="4.86827">
        <ele>22</ele>
      </trkpt>
      <trkpt lat="44.01423" lon="4.8686">
        <ele>22</ele>
      </trkpt>
      <trkpt lat="44.01389" lon="4.86963">
        <ele>22</ele>
      </trkpt>
      <trkpt lat="44.0137" lon="4.87025">
        <ele>22</ele>
      </trkpt>
      <trkpt lat="44.0137" lon="4.87059">
        <ele>23</ele>
      </trkpt>
      <trkpt lat="44.01374" lon="4.87083">
        <ele>23</ele>
      </trkpt>
      <trkpt lat="44.01385" lon="4.87119">
        <ele>23</ele>
      </trkpt>
      <trkpt lat="44.01389" lon="4.8713">
        <ele>23</ele>
      </trkpt>
      <trkpt lat="44.01389" lon="4.87141">
        <ele>23</ele>
      </trkpt>
      <trkpt lat="44.01389" lon="4.87147">
        <ele>23</ele>
      </trkpt>
      <trkpt lat="44.01385" lon="4.87154">
        <ele>23</ele>
      </trkpt>
      <trkpt lat="44.01346" lon="4.87184">
        <ele>23</ele>
      </trkpt>
      <trkpt lat="44.01338" lon="4.8719">
        <ele>23</ele>
      </trkpt>
      <trkpt lat="44.01327" lon="4.87192">
        <ele>23</ele>
      </trkpt>
      <trkpt lat="44.01318" lon="4.8719">
        <ele>23</ele>
      </trkpt>
      <trkpt lat="44.0125" lon="4.87166">
        <ele>23</ele>
      </trkpt>
      <trkpt lat="44.01213" lon="4.87156">
        <ele>23</ele>
      </trkpt>
      <trkpt lat="44.0117" lon="4.87143">
        <ele>23</ele>
      </trkpt>
      <trkpt lat="44.01117" lon="4.87128">
        <ele>24</ele>
      </trkpt>
      <trkpt lat="44.0108" lon="4.87117">
        <ele>24</ele>
      </trkpt>
      <trkpt lat="44.01059" lon="4.87111">
        <ele>24</ele>
      </trkpt>
      <trkpt lat="44.01033" lon="4.87108">
        <ele>24</ele>
      </trkpt>
      <trkpt lat="44.01011" lon="4.87117">
        <ele>24</ele>
      </trkpt>
      <trkpt lat="44.01009" lon="4.87113">
        <ele>24</ele>
      </trkpt>
      <trkpt lat="44.01005" lon="4.87115">
        <ele>24</ele>
      </trkpt>
      <trkpt lat="44.01003" lon="4.87119">
        <ele>24</ele>
      </trkpt>
      <trkpt lat="44.01003" lon="4.87122">
        <ele>23</ele>
      </trkpt>
      <trkpt lat="44.01005" lon="4.87124">
        <ele>23</ele>
      </trkpt>
      <trkpt lat="44.01003" lon="4.87137">
        <ele>23</ele>
      </trkpt>
      <trkpt lat="44.01" lon="4.87153">
        <ele>23</ele>
      </trkpt>
      <trkpt lat="44.00995" lon="4.87182">
        <ele>23</ele>
      </trkpt>
      <trkpt lat="44.00994" lon="4.87197">
        <ele>23</ele>
      </trkpt>
      <trkpt lat="44.00994" lon="4.87218">
        <ele>23.2</ele>
      </trkpt>
      <trkpt lat="44.0099" lon="4.8724">
        <ele>23.1</ele>
      </trkpt>
      <trkpt lat="44.00986" lon="4.87256">
        <ele>23</ele>
      </trkpt>
      <trkpt lat="44.00979" lon="4.87265">
        <ele>23</ele>
      </trkpt>
      <trkpt lat="44.00939" lon="4.87301">
        <ele>23</ele>
      </trkpt>
      <trkpt lat="44.00939" lon="4.87301">
        <ele>23</ele>
      </trkpt>
      <trkpt lat="44.00922" lon="4.87311">
        <ele>23</ele>
      </trkpt>
      <trkpt lat="44.00906" lon="4.87295">
        <ele>23.4</ele>
      </trkpt>
      <trkpt lat="44.00906" lon="4.87294">
        <ele>23.4</ele>
      </trkpt>
      <trkpt lat="44.00898" lon="4.87285">
        <ele>23.7</ele>
      </trkpt>
      <trkpt lat="44.00888" lon="4.87276">
        <ele>24</ele>
      </trkpt>
      <trkpt lat="44.00885" lon="4.8727">
        <ele>24</ele>
      </trkpt>
      <trkpt lat="44.00879" lon="4.87261">
        <ele>24</ele>
      </trkpt>
      <trkpt lat="44.00879" lon="4.87261">
        <ele>24</ele>
      </trkpt>
      <trkpt lat="44.00875" lon="4.87261">
        <ele>24</ele>
      </trkpt>
      <trkpt lat="44.0087" lon="4.87263">
        <ele>24</ele>
      </trkpt>
      <trkpt lat="44.00864" lon="4.8727">
        <ele>24</ele>
      </trkpt>
      <trkpt lat="44.00863" lon="4.87272">
        <ele>25</ele>
      </trkpt>
      <trkpt lat="44.00851" lon="4.87274">
        <ele>25</ele>
      </trkpt>
      <trkpt lat="44.00839" lon="4.87288">
        <ele>25</ele>
      </trkpt>
      <trkpt lat="44.00836" lon="4.87293">
        <ele>25</ele>
      </trkpt>
      <trkpt lat="44.00833" lon="4.87299">
        <ele>25</ele>
      </trkpt>
      <trkpt lat="44.00782" lon="4.87407">
        <ele>26</ele>
      </trkpt>
      <trkpt lat="44.0078" lon="4.87413">
        <ele>26</ele>
      </trkpt>
      <trkpt lat="44.00775" lon="4.8742">
        <ele>26</ele>
      </trkpt>
      <trkpt lat="44.00778" lon="4.87428">
        <ele>26</ele>
      </trkpt>
      <trkpt lat="44.0078" lon="4.87432">
        <ele>27</ele>
      </trkpt>
      <trkpt lat="44.00784" lon="4.87432">
        <ele>26</ele>
      </trkpt>
      <trkpt lat="44.00782" lon="4.8745">
        <ele>27</ele>
      </trkpt>
      <trkpt lat="44.0073" lon="4.87503">
        <ele>27</ele>
      </trkpt>
      <trkpt lat="44.00677" lon="4.87556">
        <ele>28</ele>
      </trkpt>
      <trkpt lat="44.00645" lon="4.87589">
        <ele>28</ele>
      </trkpt>
      <trkpt lat="44.0063" lon="4.87604">
        <ele>28</ele>
      </trkpt>
      <trkpt lat="44.00608" lon="4.87628">
        <ele>28</ele>
      </trkpt>
      <trkpt lat="44.00567" lon="4.87647">
        <ele>28</ele>
      </trkpt>
      <trkpt lat="44.00563" lon="4.87649">
        <ele>28</ele>
      </trkpt>
      <trkpt lat="44.00557" lon="4.87653">
        <ele>28</ele>
      </trkpt>
      <trkpt lat="44.00552" lon="4.87651">
        <ele>28</ele>
      </trkpt>
      <trkpt lat="44.00546" lon="4.87656">
        <ele>28</ele>
      </trkpt>
      <trkpt lat="44.00471" lon="4.87688">
        <ele>28</ele>
      </trkpt>
      <trkpt lat="44.00421" lon="4.87707">
        <ele>28</ele>
      </trkpt>
      <trkpt lat="44.00398" lon="4.87716">
        <ele>28</ele>
      </trkpt>
      <trkpt lat="44.00338" lon="4.87735">
        <ele>28</ele>
      </trkpt>
      <trkpt lat="44.00275" lon="4.8775">
        <ele>28</ele>
      </trkpt>
      <trkpt lat="44.00269" lon="4.8775">
        <ele>28</ele>
      </trkpt>
      <trkpt lat="44.0026" lon="4.87748">
        <ele>28</ele>
      </trkpt>
      <trkpt lat="44.0025" lon="4.87744">
        <ele>28</ele>
      </trkpt>
      <trkpt lat="44.00245" lon="4.87737">
        <ele>28</ele>
      </trkpt>
      <trkpt lat="44.00241" lon="4.87733">
        <ele>28</ele>
      </trkpt>
      <trkpt lat="44.00235" lon="4.87731">
        <ele>28</ele>
      </trkpt>
      <trkpt lat="44.00226" lon="4.87733">
        <ele>28</ele>
      </trkpt>
      <trkpt lat="44.00215" lon="4.87724">
        <ele>28</ele>
      </trkpt>
      <trkpt lat="44.00153" lon="4.87615">
        <ele>28</ele>
      </trkpt>
      <trkpt lat="44.00115" lon="4.87544">
        <ele>27</ele>
      </trkpt>
      <trkpt lat="44.00074" lon="4.87468">
        <ele>27</ele>
      </trkpt>
      <trkpt lat="44.00061" lon="4.87443">
        <ele>27</ele>
      </trkpt>
      <trkpt lat="44.00046" lon="4.8743">
        <ele>27</ele>
      </trkpt>
      <trkpt lat="44.00031" lon="4.87417">
        <ele>27</ele>
      </trkpt>
      <trkpt lat="44.0002" lon="4.87413">
        <ele>27</ele>
      </trkpt>
      <trkpt lat="44.00009" lon="4.87415">
        <ele>27</ele>
      </trkpt>
      <trkpt lat="43.99949" lon="4.87439">
        <ele>27</ele>
      </trkpt>
      <trkpt lat="43.9993" lon="4.87439">
        <ele>27</ele>
      </trkpt>
      <trkpt lat="43.99909" lon="4.87441">
        <ele>27</ele>
      </trkpt>
      <trkpt lat="43.99808" lon="4.87413">
        <ele>27</ele>
      </trkpt>
      <trkpt lat="43.99733" lon="4.87394">
        <ele>26</ele>
      </trkpt>
      <trkpt lat="43.99694" lon="4.87379">
        <ele>26</ele>
      </trkpt>
      <trkpt lat="43.99649" lon="4.87282">
        <ele>26</ele>
      </trkpt>
      <trkpt lat="43.99638" lon="4.87272">
        <ele>26</ele>
      </trkpt>
      <trkpt lat="43.99615" lon="4.87248">
        <ele>26</ele>
      </trkpt>
      <trkpt lat="43.99516" lon="4.87203">
        <ele>26</ele>
      </trkpt>
      <trkpt lat="43.99434" lon="4.87164">
        <ele>26</ele>
      </trkpt>
      <trkpt lat="43.99394" lon="4.87147">
        <ele>26</ele>
      </trkpt>
      <trkpt lat="43.99383" lon="4.87143">
        <ele>26</ele>
      </trkpt>
      <trkpt lat="43.99329" lon="4.87117">
        <ele>26</ele>
      </trkpt>
      <trkpt lat="43.99312" lon="4.87106">
        <ele>26</ele>
      </trkpt>
      <trkpt lat="43.99291" lon="4.87089">
        <ele>26</ele>
      </trkpt>
      <trkpt lat="43.99284" lon="4.87102">
        <ele>26</ele>
      </trkpt>
      <trkpt lat="43.99273" lon="4.87111">
        <ele>26</ele>
      </trkpt>
      <trkpt lat="43.99263" lon="4.87106">
        <ele>26</ele>
      </trkpt>
      <trkpt lat="43.99233" lon="4.87083">
        <ele>26</ele>
      </trkpt>
      <trkpt lat="43.99224" lon="4.87072">
        <ele>26</ele>
      </trkpt>
      <trkpt lat="43.99205" lon="4.87061">
        <ele>26</ele>
      </trkpt>
      <trkpt lat="43.99089" lon="4.87018">
        <ele>26</ele>
      </trkpt>
      <trkpt lat="43.99044" lon="4.87005">
        <ele>25</ele>
      </trkpt>
      <trkpt lat="43.98984" lon="4.86989">
        <ele>25</ele>
      </trkpt>
      <trkpt lat="43.98926" lon="4.86958">
        <ele>25</ele>
      </trkpt>
      <trkpt lat="43.98917" lon="4.86954">
        <ele>25</ele>
      </trkpt>
      <trkpt lat="43.98834" lon="4.86909">
        <ele>25</ele>
      </trkpt>
      <trkpt lat="43.98795" lon="4.86887">
        <ele>25</ele>
      </trkpt>
      <trkpt lat="43.98718" lon="4.86834">
        <ele>25</ele>
      </trkpt>
      <trkpt lat="43.98557" lon="4.86722">
        <ele>25</ele>
      </trkpt>
      <trkpt lat="43.98437" lon="4.86654">
        <ele>24</ele>
      </trkpt>
      <trkpt lat="43.98372" lon="4.86619">
        <ele>25</ele>
      </trkpt>
      <trkpt lat="43.98209" lon="4.86544">
        <ele>25</ele>
      </trkpt>
      <trkpt lat="43.98085" lon="4.8649">
        <ele>25</ele>
      </trkpt>
      <trkpt lat="43.98055" lon="4.86478">
        <ele>25</ele>
      </trkpt>
      <trkpt lat="43.97814" lon="4.86394">
        <ele>25</ele>
      </trkpt>
      <trkpt lat="43.97598" lon="4.86338">
        <ele>26</ele>
      </trkpt>
      <trkpt lat="43.97454" lon="4.86304">
        <ele>26</ele>
      </trkpt>
      <trkpt lat="43.97423" lon="4.86296">
        <ele>26</ele>
      </trkpt>
      <trkpt lat="43.97417" lon="4.86295">
        <ele>26</ele>
      </trkpt>
      <trkpt lat="43.97402" lon="4.86304">
        <ele>26</ele>
      </trkpt>
      <trkpt lat="43.97396" lon="4.86317">
        <ele>26</ele>
      </trkpt>
      <trkpt lat="43.97394" lon="4.86334">
        <ele>26</ele>
      </trkpt>
      <trkpt lat="43.97396" lon="4.86368">
        <ele>26</ele>
      </trkpt>
      <trkpt lat="43.97402" lon="4.86439">
        <ele>27</ele>
      </trkpt>
      <trkpt lat="43.97411" lon="4.86469">
        <ele>27</ele>
      </trkpt>
      <trkpt lat="43.97424" lon="4.86512">
        <ele>27</ele>
      </trkpt>
      <trkpt lat="43.97426" lon="4.86525">
        <ele>28</ele>
      </trkpt>
      <trkpt lat="43.97417" lon="4.8654">
        <ele>28</ele>
      </trkpt>
      <trkpt lat="43.97419" lon="4.86557">
        <ele>28</ele>
      </trkpt>
      <trkpt lat="43.97433" lon="4.86605">
        <ele>28</ele>
      </trkpt>
      <trkpt lat="43.97441" lon="4.86634">
        <ele>28</ele>
      </trkpt>
      <trkpt lat="43.97445" lon="4.86651">
        <ele>29</ele>
      </trkpt>
      <trkpt lat="43.97445" lon="4.8666">
        <ele>29</ele>
      </trkpt>
      <trkpt lat="43.97441" lon="4.8666">
        <ele>29</ele>
      </trkpt>
      <trkpt lat="43.97434" lon="4.86662">
        <ele>29</ele>
      </trkpt>
      <trkpt lat="43.97402" lon="4.86679">
        <ele>28</ele>
      </trkpt>
      <trkpt lat="43.97396" lon="4.86681">
        <ele>28</ele>
      </trkpt>
      <trkpt lat="43.97377" lon="4.86688">
        <ele>28</ele>
      </trkpt>
      <trkpt lat="43.97368" lon="4.8669">
        <ele>28</ele>
      </trkpt>
      <trkpt lat="43.97359" lon="4.86688">
        <ele>28</ele>
      </trkpt>
      <trkpt lat="43.97353" lon="4.86686">
        <ele>28</ele>
      </trkpt>
      <trkpt lat="43.97342" lon="4.86679">
        <ele>28</ele>
      </trkpt>
      <trkpt lat="43.97338" lon="4.86673">
        <ele>28</ele>
      </trkpt>
      <trkpt lat="43.97336" lon="4.86666">
        <ele>28</ele>
      </trkpt>
      <trkpt lat="43.97334" lon="4.86662">
        <ele>28</ele>
      </trkpt>
      <trkpt lat="43.97329" lon="4.86658">
        <ele>28</ele>
      </trkpt>
      <trkpt lat="43.97321" lon="4.86654">
        <ele>28</ele>
      </trkpt>
      <trkpt lat="43.97314" lon="4.86656">
        <ele>28</ele>
      </trkpt>
      <trkpt lat="43.9731" lon="4.86658">
        <ele>27</ele>
      </trkpt>
      <trkpt lat="43.97306" lon="4.86662">
        <ele>27</ele>
      </trkpt>
      <trkpt lat="43.97304" lon="4.86669">
        <ele>27</ele>
      </trkpt>
      <trkpt lat="43.97301" lon="4.86675">
        <ele>27</ele>
      </trkpt>
      <trkpt lat="43.97301" lon="4.8669">
        <ele>27</ele>
      </trkpt>
      <trkpt lat="43.97304" lon="4.86696">
        <ele>27</ele>
      </trkpt>
      <trkpt lat="43.97286" lon="4.8672">
        <ele>27</ele>
      </trkpt>
      <trkpt lat="43.97265" lon="4.86735">
        <ele>27</ele>
      </trkpt>
      <trkpt lat="43.97252" lon="4.86742">
        <ele>27</ele>
      </trkpt>
      <trkpt lat="43.97164" lon="4.86774">
        <ele>27</ele>
      </trkpt>
      <trkpt lat="43.97143" lon="4.86782">
        <ele>27</ele>
      </trkpt>
      <trkpt lat="43.9711" lon="4.86793">
        <ele>27</ele>
      </trkpt>
      <trkpt lat="43.971" lon="4.86797">
        <ele>27</ele>
      </trkpt>
      <trkpt lat="43.97091" lon="4.86804">
        <ele>27</ele>
      </trkpt>
      <trkpt lat="43.97089" lon="4.86806">
        <ele>27</ele>
      </trkpt>
      <trkpt lat="43.97085" lon="4.86806">
        <ele>27</ele>
      </trkpt>
      <trkpt lat="43.9708" lon="4.86804">
        <ele>27</ele>
      </trkpt>
      <trkpt lat="43.97074" lon="4.86806">
        <ele>27</ele>
      </trkpt>
      <trkpt lat="43.97061" lon="4.86804">
        <ele>27</ele>
      </trkpt>
      <trkpt lat="43.97044" lon="4.86797">
        <ele>27</ele>
      </trkpt>
      <trkpt lat="43.97038" lon="4.86791">
        <ele>27</ele>
      </trkpt>
      <trkpt lat="43.96992" lon="4.86739">
        <ele>26</ele>
      </trkpt>
      <trkpt lat="43.9698" lon="4.86724">
        <ele>26</ele>
      </trkpt>
      <trkpt lat="43.96917" lon="4.86649">
        <ele>26</ele>
      </trkpt>
      <trkpt lat="43.96873" lon="4.86596">
        <ele>25.4</ele>
      </trkpt>
      <trkpt lat="43.96848" lon="4.86571">
        <ele>25</ele>
      </trkpt>
      <trkpt lat="43.96846" lon="4.86569">
        <ele>25</ele>
      </trkpt>
      <trkpt lat="43.96846" lon="4.86569">
        <ele>25</ele>
      </trkpt>
      <trkpt lat="43.96818" lon="4.86536">
        <ele>25</ele>
      </trkpt>
      <trkpt lat="43.96817" lon="4.86535">
        <ele>25</ele>
      </trkpt>
      <trkpt lat="43.96808" lon="4.86519">
        <ele>25</ele>
      </trkpt>
      <trkpt lat="43.96807" lon="4.86519">
        <ele>25</ele>
      </trkpt>
      <trkpt lat="43.96797" lon="4.86505">
        <ele>25</ele>
      </trkpt>
      <trkpt lat="43.96795" lon="4.86504">
        <ele>25</ele>
      </trkpt>
      <trkpt lat="43.96782" lon="4.86493">
        <ele>25</ele>
      </trkpt>
      <trkpt lat="43.9678" lon="4.86491">
        <ele>25</ele>
      </trkpt>
      <trkpt lat="43.96779" lon="4.86488">
        <ele>25</ele>
      </trkpt>
      <trkpt lat="43.96779" lon="4.86488">
        <ele>25</ele>
      </trkpt>
      <trkpt lat="43.96771" lon="4.86482">
        <ele>25</ele>
      </trkpt>
      <trkpt lat="43.96764" lon="4.86463">
        <ele>24.8</ele>
      </trkpt>
      <trkpt lat="43.96764" lon="4.86462">
        <ele>24.8</ele>
      </trkpt>
      <trkpt lat="43.96758" lon="4.86445">
        <ele>24.7</ele>
      </trkpt>
      <trkpt lat="43.96757" lon="4.86444">
        <ele>24.7</ele>
      </trkpt>
      <trkpt lat="43.96749" lon="4.86439">
        <ele>24.8</ele>
      </trkpt>
      <trkpt lat="43.96735" lon="4.86442">
        <ele>24.9</ele>
      </trkpt>
      <trkpt lat="43.96734" lon="4.86442">
        <ele>24.9</ele>
      </trkpt>
      <trkpt lat="43.96722" lon="4.86452">
        <ele>25</ele>
      </trkpt>
      <trkpt lat="43.96709" lon="4.8645">
        <ele>25</ele>
      </trkpt>
      <trkpt lat="43.96697" lon="4.86446">
        <ele>25</ele>
      </trkpt>
      <trkpt lat="43.96696" lon="4.86446">
        <ele>25</ele>
      </trkpt>
      <trkpt lat="43.9668" lon="4.86432">
        <ele>24.5</ele>
      </trkpt>
      <trkpt lat="43.9668" lon="4.86432">
        <ele>24.5</ele>
      </trkpt>
      <trkpt lat="43.96607" lon="4.86366">
        <ele>23.9</ele>
      </trkpt>
      <trkpt lat="43.96518" lon="4.86293">
        <ele>25</ele>
      </trkpt>
      <trkpt lat="43.96505" lon="4.8628">
        <ele>24</ele>
      </trkpt>
      <trkpt lat="43.96437" lon="4.86201">
        <ele>24</ele>
      </trkpt>
      <trkpt lat="43.96381" lon="4.86134">
        <ele>24</ele>
      </trkpt>
      <trkpt lat="43.9637" lon="4.86124">
        <ele>23</ele>
      </trkpt>
      <trkpt lat="43.96312" lon="4.86186">
        <ele>23</ele>
      </trkpt>
      <trkpt lat="43.96297" lon="4.86201">
        <ele>23</ele>
      </trkpt>
      <trkpt lat="43.96241" lon="4.86233">
        <ele>23</ele>
      </trkpt>
      <trkpt lat="43.96235" lon="4.86237">
        <ele>23</ele>
      </trkpt>
      <trkpt lat="43.96224" lon="4.86237">
        <ele>23</ele>
      </trkpt>
      <trkpt lat="43.96218" lon="4.86233">
        <ele>23</ele>
      </trkpt>
      <trkpt lat="43.96205" lon="4.86224">
        <ele>23</ele>
      </trkpt>
      <trkpt lat="43.96119" lon="4.86224">
        <ele>23</ele>
      </trkpt>
      <trkpt lat="43.96111" lon="4.86227">
        <ele>23</ele>
      </trkpt>
      <trkpt lat="43.96106" lon="4.86188">
        <ele>23</ele>
      </trkpt>
      <trkpt lat="43.961" lon="4.86162">
        <ele>23</ele>
      </trkpt>
      <trkpt lat="43.96096" lon="4.86149">
        <ele>23</ele>
      </trkpt>
      <trkpt lat="43.96091" lon="4.86141">
        <ele>23</ele>
      </trkpt>
      <trkpt lat="43.96083" lon="4.86128">
        <ele>23</ele>
      </trkpt>
      <trkpt lat="43.96074" lon="4.86119">
        <ele>23</ele>
      </trkpt>
      <trkpt lat="43.96065" lon="4.86113">
        <ele>23</ele>
      </trkpt>
      <trkpt lat="43.96053" lon="4.86109">
        <ele>23</ele>
      </trkpt>
      <trkpt lat="43.96044" lon="4.86111">
        <ele>23</ele>
      </trkpt>
      <trkpt lat="43.96038" lon="4.86113">
        <ele>23</ele>
      </trkpt>
      <trkpt lat="43.95995" lon="4.86132">
        <ele>23</ele>
      </trkpt>
      <trkpt lat="43.95986" lon="4.86134">
        <ele>23</ele>
      </trkpt>
      <trkpt lat="43.95928" lon="4.86158">
        <ele>24</ele>
      </trkpt>
      <trkpt lat="43.95922" lon="4.86158">
        <ele>24</ele>
      </trkpt>
      <trkpt lat="43.95917" lon="4.86151">
        <ele>24</ele>
      </trkpt>
      <trkpt lat="43.95915" lon="4.86145">
        <ele>24</ele>
      </trkpt>
      <trkpt lat="43.95911" lon="4.86119">
        <ele>24</ele>
      </trkpt>
      <trkpt lat="43.95902" lon="4.86074">
        <ele>24</ele>
      </trkpt>
      <trkpt lat="43.95896" lon="4.86061">
        <ele>24</ele>
      </trkpt>
      <trkpt lat="43.9589" lon="4.86057">
        <ele>24</ele>
      </trkpt>
      <trkpt lat="43.95881" lon="4.86055">
        <ele>24</ele>
      </trkpt>
      <trkpt lat="43.95851" lon="4.86061">
        <ele>24</ele>
      </trkpt>
      <trkpt lat="43.95836" lon="4.86066">
        <ele>24</ele>
      </trkpt>
      <trkpt lat="43.95825" lon="4.86066">
        <ele>24</ele>
      </trkpt>
      <trkpt lat="43.95819" lon="4.86063">
        <ele>24</ele>
      </trkpt>
      <trkpt lat="43.95814" lon="4.86061">
        <ele>24</ele>
      </trkpt>
      <trkpt lat="43.9581" lon="4.86059">
        <ele>24</ele>
      </trkpt>
      <trkpt lat="43.95778" lon="4.86025">
        <ele>24</ele>
      </trkpt>
      <trkpt lat="43.95769" lon="4.86014">
        <ele>24</ele>
      </trkpt>
      <trkpt lat="43.95752" lon="4.85995">
        <ele>24</ele>
      </trkpt>
      <trkpt lat="43.95746" lon="4.85984">
        <ele>24</ele>
      </trkpt>
      <trkpt lat="43.95741" lon="4.85965">
        <ele>24</ele>
      </trkpt>
      <trkpt lat="43.95737" lon="4.8592">
        <ele>24</ele>
      </trkpt>
      <trkpt lat="43.95735" lon="4.85909">
        <ele>24</ele>
      </trkpt>
      <trkpt lat="43.95728" lon="4.85885">
        <ele>24</ele>
      </trkpt>
      <trkpt lat="43.95724" lon="4.85875">
        <ele>24</ele>
      </trkpt>
      <trkpt lat="43.95724" lon="4.8586">
        <ele>24</ele>
      </trkpt>
      <trkpt lat="43.95722" lon="4.85851">
        <ele>24</ele>
      </trkpt>
      <trkpt lat="43.95716" lon="4.85834">
        <ele>24</ele>
      </trkpt>
      <trkpt lat="43.95711" lon="4.85821">
        <ele>24</ele>
      </trkpt>
      <trkpt lat="43.95711" lon="4.85815">
        <ele>24</ele>
      </trkpt>
      <trkpt lat="43.95711" lon="4.85795">
        <ele>24</ele>
      </trkpt>
      <trkpt lat="43.95714" lon="4.8578">
        <ele>24</ele>
      </trkpt>
      <trkpt lat="43.9572" lon="4.85701">
        <ele>23</ele>
      </trkpt>
      <trkpt lat="43.95737" lon="4.85514">
        <ele>22</ele>
      </trkpt>
      <trkpt lat="43.95739" lon="4.85497">
        <ele>22</ele>
      </trkpt>
      <trkpt lat="43.95741" lon="4.85478">
        <ele>22</ele>
      </trkpt>
      <trkpt lat="43.95743" lon="4.85456">
        <ele>22</ele>
      </trkpt>
      <trkpt lat="43.95744" lon="4.85443">
        <ele>22</ele>
      </trkpt>
      <trkpt lat="43.95748" lon="4.85439">
        <ele>22</ele>
      </trkpt>
      <trkpt lat="43.95748" lon="4.85435">
        <ele>22</ele>
      </trkpt>
      <trkpt lat="43.95748" lon="4.85428">
        <ele>22</ele>
      </trkpt>
      <trkpt lat="43.95746" lon="4.85424">
        <ele>22</ele>
      </trkpt>
      <trkpt lat="43.95739" lon="4.85422">
        <ele>22</ele>
      </trkpt>
      <trkpt lat="43.95735" lon="4.85426">
        <ele>22</ele>
      </trkpt>
      <trkpt lat="43.95733" lon="4.8543">
        <ele>22</ele>
      </trkpt>
      <trkpt lat="43.95733" lon="4.85437">
        <ele>22</ele>
      </trkpt>
      <trkpt lat="43.95724" lon="4.85439">
        <ele>22</ele>
      </trkpt>
      <trkpt lat="43.95656" lon="4.85512">
        <ele>22</ele>
      </trkpt>
      <trkpt lat="43.95597" lon="4.85573">
        <ele>23</ele>
      </trkpt>
      <trkpt lat="43.95589" lon="4.85581">
        <ele>23</ele>
      </trkpt>
      <trkpt lat="43.95576" lon="4.85585">
        <ele>23</ele>
      </trkpt>
      <trkpt lat="43.9555" lon="4.85585">
        <ele>23</ele>
      </trkpt>
      <trkpt lat="43.95488" lon="4.85587">
        <ele>23</ele>
      </trkpt>
      <trkpt lat="43.95444" lon="4.85585">
        <ele>23</ele>
      </trkpt>
      <trkpt lat="43.95439" lon="4.85585">
        <ele>23</ele>
      </trkpt>
      <trkpt lat="43.9542" lon="4.85594">
        <ele>23</ele>
      </trkpt>
      <trkpt lat="43.95392" lon="4.85602">
        <ele>23</ele>
      </trkpt>
      <trkpt lat="43.95357" lon="4.856">
        <ele>23</ele>
      </trkpt>
      <trkpt lat="43.95304" lon="4.85594">
        <ele>23</ele>
      </trkpt>
      <trkpt lat="43.95263" lon="4.85591">
        <ele>23</ele>
      </trkpt>
      <trkpt lat="43.95248" lon="4.85594">
        <ele>23</ele>
      </trkpt>
      <trkpt lat="43.95209" lon="4.85596">
        <ele>23</ele>
      </trkpt>
      <trkpt lat="43.95196" lon="4.85587">
        <ele>23</ele>
      </trkpt>
      <trkpt lat="43.9519" lon="4.85585">
        <ele>23</ele>
      </trkpt>
      <trkpt lat="43.95162" lon="4.85564">
        <ele>23</ele>
      </trkpt>
      <trkpt lat="43.95141" lon="4.85555">
        <ele>23</ele>
      </trkpt>
      <trkpt lat="43.95111" lon="4.85548">
        <ele>22</ele>
      </trkpt>
      <trkpt lat="43.95074" lon="4.85536">
        <ele>22</ele>
      </trkpt>
      <trkpt lat="43.95068" lon="4.85562">
        <ele>21.6</ele>
      </trkpt>
      <trkpt lat="43.95062" lon="4.85574">
        <ele>21.7</ele>
      </trkpt>
      <trkpt lat="43.95048" lon="4.85605">
        <ele>21.7</ele>
      </trkpt>
      <trkpt lat="43.9503" lon="4.8563">
        <ele>22.3</ele>
      </trkpt>
      <trkpt lat="43.94994" lon="4.85671">
        <ele>23.3</ele>
      </trkpt>
      <trkpt lat="43.9499" lon="4.85678">
        <ele>22.9</ele>
      </trkpt>
      <trkpt lat="43.9499" lon="4.85677">
        <ele>22.9</ele>
      </trkpt>
      <trkpt lat="43.94986" lon="4.85663">
        <ele>22.9</ele>
      </trkpt>
      <trkpt lat="43.9496" lon="4.85625">
        <ele>22.2</ele>
      </trkpt>
      <trkpt lat="43.9495" lon="4.85605">
        <ele>22.3</ele>
      </trkpt>
      <trkpt lat="43.94936" lon="4.85566">
        <ele>21.5</ele>
      </trkpt>
      <trkpt lat="43.94927" lon="4.85525">
        <ele>22.2</ele>
      </trkpt>
      <trkpt lat="43.94918" lon="4.85483">
        <ele>21.8</ele>
      </trkpt>
      <trkpt lat="43.94918" lon="4.85482">
        <ele>21.7</ele>
      </trkpt>
      <trkpt lat="43.9491" lon="4.85445">
        <ele>21.2</ele>
      </trkpt>
      <trkpt lat="43.9491" lon="4.85444">
        <ele>21.2</ele>
      </trkpt>
      <trkpt lat="43.94901" lon="4.85401">
        <ele>22</ele>
      </trkpt>
      <trkpt lat="43.94896" lon="4.85379">
        <ele>21.7</ele>
      </trkpt>
      <trkpt lat="43.94896" lon="4.85379">
        <ele>21.7</ele>
      </trkpt>
      <trkpt lat="43.94887" lon="4.85343">
        <ele>21.4</ele>
      </trkpt>
      <trkpt lat="43.94887" lon="4.85343">
        <ele>21.4</ele>
      </trkpt>
      <trkpt lat="43.9488" lon="4.85312">
        <ele>21.6</ele>
      </trkpt>
      <trkpt lat="43.9488" lon="4.85311">
        <ele>21.6</ele>
      </trkpt>
      <trkpt lat="43.94871" lon="4.85279">
        <ele>22.3</ele>
      </trkpt>
      <trkpt lat="43.94866" lon="4.85255">
        <ele>22</ele>
      </trkpt>
      <trkpt lat="43.94866" lon="4.85255">
        <ele>22</ele>
      </trkpt>
      <trkpt lat="43.9486" lon="4.85226">
        <ele>22</ele>
      </trkpt>
      <trkpt lat="43.9486" lon="4.85225">
        <ele>22</ele>
      </trkpt>
      <trkpt lat="43.94853" lon="4.852">
        <ele>22.2</ele>
      </trkpt>
      <trkpt lat="43.94853" lon="4.852">
        <ele>22.2</ele>
      </trkpt>
      <trkpt lat="43.94844" lon="4.8518">
        <ele>22.6</ele>
      </trkpt>
      <trkpt lat="43.94844" lon="4.85178">
        <ele>27</ele>
        <time>2017-07-26T14:21:35Z</time>
      </trkpt>
      <trkpt lat="43.94839" lon="4.85152">
        <ele>26</ele>
        <time>2017-07-26T14:22:15Z</time>
      </trkpt>
      <trkpt lat="43.94837" lon="4.85148">
        <ele>26</ele>
        <time>2017-07-26T14:22:16Z</time>
      </trkpt>
      <trkpt lat="43.94835" lon="4.85144">
        <ele>25</ele>
        <time>2017-07-26T14:22:17Z</time>
      </trkpt>
      <trkpt lat="43.94831" lon="4.85134">
        <ele>25</ele>
        <time>2017-07-26T14:22:19Z</time>
      </trkpt>
      <trkpt lat="43.94829" lon="4.85128">
        <ele>25</ele>
        <time>2017-07-26T14:22:20Z</time>
      </trkpt>
      <trkpt lat="43.94824" lon="4.85111">
        <ele>25</ele>
        <time>2017-07-26T14:22:23Z</time>
      </trkpt>
      <trkpt lat="43.94821" lon="4.851">
        <ele>25</ele>
        <time>2017-07-26T14:22:25Z</time>
      </trkpt>
      <trkpt lat="43.94816" lon="4.85083">
        <ele>25</ele>
        <time>2017-07-26T14:22:28Z</time>
      </trkpt>
      <trkpt lat="43.94812" lon="4.8506">
        <ele>25</ele>
        <time>2017-07-26T14:22:33Z</time>
      </trkpt>
      <trkpt lat="43.94809" lon="4.85037">
        <ele>25</ele>
        <time>2017-07-26T14:22:37Z</time>
      </trkpt>
      <trkpt lat="43.94805" lon="4.85">
        <ele>25</ele>
        <time>2017-07-26T14:22:44Z</time>
      </trkpt>
      <trkpt lat="43.94799" lon="4.84972">
        <ele>25</ele>
        <time>2017-07-26T14:22:50Z</time>
      </trkpt>
      <trkpt lat="43.94793" lon="4.84953">
        <ele>25</ele>
        <time>2017-07-26T14:22:54Z</time>
      </trkpt>
      <trkpt lat="43.94781" lon="4.84936">
        <ele>25</ele>
        <time>2017-07-26T14:22:58Z</time>
      </trkpt>
      <trkpt lat="43.94775" lon="4.84926">
        <ele>25</ele>
        <time>2017-07-26T14:23:00Z</time>
      </trkpt>
      <trkpt lat="43.94772" lon="4.84921">
        <ele>25</ele>
        <time>2017-07-26T14:23:01Z</time>
      </trkpt>
      <trkpt lat="43.94753" lon="4.84889">
        <ele>25</ele>
        <time>2017-07-26T14:23:08Z</time>
      </trkpt>
      <trkpt lat="43.94738" lon="4.84863">
        <ele>25</ele>
        <time>2017-07-26T14:23:15Z</time>
      </trkpt>
      <trkpt lat="43.94724" lon="4.84843">
        <ele>25</ele>
        <time>2017-07-26T14:23:22Z</time>
      </trkpt>
      <trkpt lat="43.94714" lon="4.84826">
        <ele>25</ele>
        <time>2017-07-26T14:23:27Z</time>
      </trkpt>
      <trkpt lat="43.94703" lon="4.84813">
        <ele>25</ele>
        <time>2017-07-26T14:23:32Z</time>
      </trkpt>
      <trkpt lat="43.94702" lon="4.84812">
        <ele>25</ele>
        <time>2017-07-26T14:23:36Z</time>
      </trkpt>
      <trkpt lat="43.94702" lon="4.84812">
        <ele>25</ele>
        <time>2017-07-26T14:23:37Z</time>
      </trkpt>
      <trkpt lat="43.947" lon="4.84805">
        <ele>25</ele>
        <time>2017-07-26T14:23:39Z</time>
      </trkpt>
      <trkpt lat="43.94696" lon="4.84798">
        <ele>25</ele>
        <time>2017-07-26T14:23:41Z</time>
      </trkpt>
      <trkpt lat="43.94692" lon="4.84791">
        <ele>25</ele>
        <time>2017-07-26T14:23:43Z</time>
      </trkpt>
      <trkpt lat="43.94687" lon="4.84771">
        <ele>25</ele>
        <time>2017-07-26T14:23:47Z</time>
      </trkpt>
      <trkpt lat="43.94679" lon="4.84758">
        <ele>26</ele>
        <time>2017-07-26T14:23:50Z</time>
      </trkpt>
      <trkpt lat="43.94676" lon="4.84753">
        <ele>26</ele>
        <time>2017-07-26T14:23:51Z</time>
      </trkpt>
      <trkpt lat="43.94674" lon="4.84749">
        <ele>27</ele>
        <time>2017-07-26T14:23:52Z</time>
      </trkpt>
      <trkpt lat="43.94661" lon="4.84735">
        <ele>27</ele>
        <time>2017-07-26T14:24:22Z</time>
      </trkpt>
      <trkpt lat="43.94654" lon="4.84725">
        <ele>27</ele>
        <time>2017-07-26T14:24:26Z</time>
      </trkpt>
      <trkpt lat="43.94651" lon="4.84725">
        <ele>27</ele>
        <time>2017-07-26T14:24:27Z</time>
      </trkpt>
      <trkpt lat="43.94642" lon="4.84734">
        <ele>27</ele>
        <time>2017-07-26T14:24:31Z</time>
      </trkpt>
      <trkpt lat="43.94628" lon="4.84748">
        <ele>27</ele>
        <time>2017-07-26T14:24:36Z</time>
      </trkpt>
      <trkpt lat="43.94625" lon="4.84749">
        <ele>27</ele>
        <time>2017-07-26T14:24:37Z</time>
      </trkpt>
      <trkpt lat="43.94616" lon="4.84739">
        <ele>27</ele>
        <time>2017-07-26T14:24:40Z</time>
      </trkpt>
      <trkpt lat="43.94614" lon="4.84734">
        <ele>27</ele>
        <time>2017-07-26T14:24:41Z</time>
      </trkpt>
      <trkpt lat="43.94608" lon="4.84724">
        <ele>27</ele>
        <time>2017-07-26T14:24:43Z</time>
      </trkpt>
      <trkpt lat="43.94605" lon="4.84719">
        <ele>27</ele>
        <time>2017-07-26T14:24:44Z</time>
      </trkpt>
      <trkpt lat="43.94585" lon="4.84686">
        <ele>27</ele>
        <time>2017-07-26T14:24:51Z</time>
      </trkpt>
      <trkpt lat="43.94568" lon="4.84657">
        <ele>27</ele>
        <time>2017-07-26T14:24:58Z</time>
      </trkpt>
      <trkpt lat="43.94561" lon="4.84641">
        <ele>27</ele>
        <time>2017-07-26T14:25:02Z</time>
      </trkpt>
      <trkpt lat="43.94561" lon="4.84636">
        <ele>27</ele>
        <time>2017-07-26T14:25:03Z</time>
      </trkpt>
      <trkpt lat="43.94568" lon="4.84612">
        <ele>27</ele>
        <time>2017-07-26T14:25:08Z</time>
      </trkpt>
      <trkpt lat="43.9457" lon="4.84609">
        <ele>27</ele>
        <time>2017-07-26T14:25:09Z</time>
      </trkpt>
      <trkpt lat="43.94575" lon="4.84595">
        <ele>27</ele>
        <time>2017-07-26T14:25:13Z</time>
      </trkpt>
      <trkpt lat="43.94575" lon="4.84595">
        <ele>27</ele>
        <time>2017-07-26T14:25:17Z</time>
      </trkpt>
      <trkpt lat="43.94575" lon="4.84595">
        <ele>27</ele>
        <time>2017-07-26T14:25:30Z</time>
      </trkpt>
      <trkpt lat="43.94575" lon="4.84595">
        <ele>27</ele>
        <time>2017-07-26T14:25:31Z</time>
      </trkpt>
      <trkpt lat="43.94575" lon="4.84595">
        <ele>26</ele>
        <time>2017-07-26T14:25:32Z</time>
      </trkpt>
      <trkpt lat="43.94575" lon="4.84595">
        <ele>26</ele>
        <time>2017-07-26T14:25:33Z</time>
      </trkpt>
      <trkpt lat="43.94575" lon="4.84595">
        <ele>26</ele>
        <time>2017-07-26T14:25:34Z</time>
      </trkpt>
      <trkpt lat="43.94575" lon="4.84595">
        <ele>25</ele>
        <time>2017-07-26T14:25:35Z</time>
      </trkpt>
      <trkpt lat="43.94576" lon="4.84595">
        <ele>25</ele>
        <time>2017-07-26T14:25:39Z</time>
      </trkpt>
      <trkpt lat="43.94577" lon="4.8459">
        <ele>25</ele>
        <time>2017-07-26T14:25:42Z</time>
      </trkpt>
      <trkpt lat="43.94576" lon="4.84587">
        <ele>25</ele>
        <time>2017-07-26T14:25:44Z</time>
      </trkpt>
      <trkpt lat="43.94573" lon="4.84577">
        <ele>25</ele>
        <time>2017-07-26T14:25:51Z</time>
      </trkpt>
      <trkpt lat="43.94572" lon="4.84568">
        <ele>25</ele>
        <time>2017-07-26T14:25:54Z</time>
      </trkpt>
      <trkpt lat="43.94572" lon="4.84563">
        <ele>25</ele>
        <time>2017-07-26T14:25:55Z</time>
      </trkpt>
      <trkpt lat="43.94573" lon="4.84554">
        <ele>25</ele>
        <time>2017-07-26T14:25:57Z</time>
      </trkpt>
      <trkpt lat="43.94573" lon="4.84549">
        <ele>25</ele>
        <time>2017-07-26T14:25:58Z</time>
      </trkpt>
      <trkpt lat="43.94572" lon="4.84541">
        <ele>25</ele>
        <time>2017-07-26T14:26:00Z</time>
      </trkpt>
      <trkpt lat="43.94575" lon="4.84519">
        <ele>25</ele>
        <time>2017-07-26T14:26:05Z</time>
      </trkpt>
      <trkpt lat="43.94579" lon="4.84486">
        <ele>25</ele>
        <time>2017-07-26T14:26:11Z</time>
      </trkpt>
      <trkpt lat="43.9458" lon="4.84463">
        <ele>25</ele>
        <time>2017-07-26T14:26:15Z</time>
      </trkpt>
      <trkpt lat="43.94581" lon="4.84451">
        <ele>25</ele>
        <time>2017-07-26T14:26:17Z</time>
      </trkpt>
      <trkpt lat="43.94581" lon="4.84445">
        <ele>25</ele>
        <time>2017-07-26T14:26:18Z</time>
      </trkpt>
      <trkpt lat="43.94582" lon="4.84439">
        <ele>26</ele>
        <time>2017-07-26T14:26:19Z</time>
      </trkpt>
      <trkpt lat="43.94583" lon="4.84433">
        <ele>26</ele>
        <time>2017-07-26T14:26:20Z</time>
      </trkpt>
      <trkpt lat="43.94583" lon="4.84428">
        <ele>27</ele>
        <time>2017-07-26T14:26:21Z</time>
      </trkpt>
      <trkpt lat="43.94583" lon="4.84422">
        <ele>27</ele>
        <time>2017-07-26T14:26:22Z</time>
      </trkpt>
      <trkpt lat="43.94584" lon="4.84412">
        <ele>27</ele>
        <time>2017-07-26T14:26:24Z</time>
      </trkpt>
      <trkpt lat="43.94584" lon="4.84376">
        <ele>27</ele>
        <time>2017-07-26T14:26:31Z</time>
      </trkpt>
      <trkpt lat="43.94582" lon="4.8436">
        <ele>27</ele>
        <time>2017-07-26T14:26:35Z</time>
      </trkpt>
      <trkpt lat="43.94581" lon="4.84358">
        <ele>27</ele>
        <time>2017-07-26T14:26:36Z</time>
      </trkpt>
      <trkpt lat="43.94571" lon="4.84346">
        <ele>27</ele>
        <time>2017-07-26T14:26:41Z</time>
      </trkpt>
      <trkpt lat="43.94552" lon="4.84318">
        <ele>27</ele>
        <time>2017-07-26T14:26:50Z</time>
      </trkpt>
      <trkpt lat="43.9456" lon="4.8431">
        <ele>27</ele>
        <time>2017-07-26T14:26:53Z</time>
      </trkpt>
      <trkpt lat="43.94576" lon="4.843">
        <ele>27</ele>
        <time>2017-07-26T14:26:56Z</time>
      </trkpt>
      <trkpt lat="43.94581" lon="4.84295">
        <ele>27</ele>
        <time>2017-07-26T14:26:57Z</time>
      </trkpt>
      <trkpt lat="43.94593" lon="4.84272">
        <ele>27</ele>
        <time>2017-07-26T14:27:01Z</time>
      </trkpt>
      <trkpt lat="43.94595" lon="4.84253">
        <ele>27</ele>
        <time>2017-07-26T14:27:04Z</time>
      </trkpt>
      <trkpt lat="43.94595" lon="4.84247">
        <ele>27</ele>
        <time>2017-07-26T14:27:05Z</time>
      </trkpt>
      <trkpt lat="43.94594" lon="4.84205">
        <ele>27</ele>
        <time>2017-07-26T14:27:12Z</time>
      </trkpt>
      <trkpt lat="43.94587" lon="4.84192">
        <ele>27</ele>
        <time>2017-07-26T14:27:16Z</time>
      </trkpt>
      <trkpt lat="43.94582" lon="4.84183">
        <ele>27</ele>
        <time>2017-07-26T14:27:20Z</time>
      </trkpt>
      <trkpt lat="43.94585" lon="4.84163">
        <ele>27</ele>
        <time>2017-07-26T14:27:25Z</time>
      </trkpt>
      <trkpt lat="43.94596" lon="4.84148">
        <ele>27</ele>
        <time>2017-07-26T14:27:29Z</time>
      </trkpt>
      <trkpt lat="43.94599" lon="4.84143">
        <ele>27</ele>
        <time>2017-07-26T14:27:30Z</time>
      </trkpt>
      <trkpt lat="43.94604" lon="4.84119">
        <ele>27</ele>
        <time>2017-07-26T14:27:34Z</time>
      </trkpt>
      <trkpt lat="43.94604" lon="4.84113">
        <ele>27</ele>
        <time>2017-07-26T14:27:35Z</time>
      </trkpt>
      <trkpt lat="43.94603" lon="4.84097">
        <ele>27</ele>
        <time>2017-07-26T14:27:38Z</time>
      </trkpt>
      <trkpt lat="43.94603" lon="4.84092">
        <ele>27</ele>
        <time>2017-07-26T14:27:40Z</time>
      </trkpt>
      <trkpt lat="43.94603" lon="4.84089">
        <ele>27</ele>
        <time>2017-07-26T14:27:41Z</time>
      </trkpt>
      <trkpt lat="43.94602" lon="4.84086">
        <ele>27</ele>
        <time>2017-07-26T14:27:42Z</time>
      </trkpt>
      <trkpt lat="43.94603" lon="4.84077">
        <ele>27</ele>
        <time>2017-07-26T14:27:44Z</time>
      </trkpt>
      <trkpt lat="43.94604" lon="4.84066">
        <ele>27</ele>
        <time>2017-07-26T14:27:46Z</time>
      </trkpt>
      <trkpt lat="43.94604" lon="4.84053">
        <ele>27</ele>
        <time>2017-07-26T14:27:48Z</time>
      </trkpt>
      <trkpt lat="43.94605" lon="4.84026">
        <ele>27</ele>
        <time>2017-07-26T14:27:52Z</time>
      </trkpt>
      <trkpt lat="43.94604" lon="4.84013">
        <ele>27</ele>
        <time>2017-07-26T14:27:54Z</time>
      </trkpt>
      <trkpt lat="43.94602" lon="4.84001">
        <ele>27</ele>
        <time>2017-07-26T14:27:56Z</time>
      </trkpt>
      <trkpt lat="43.94598" lon="4.83978">
        <ele>27</ele>
        <time>2017-07-26T14:28:00Z</time>
      </trkpt>
      <trkpt lat="43.94586" lon="4.83937">
        <ele>27</ele>
        <time>2017-07-26T14:28:08Z</time>
      </trkpt>
      <trkpt lat="43.94572" lon="4.83903">
        <ele>27</ele>
        <time>2017-07-26T14:28:14Z</time>
      </trkpt>
      <trkpt lat="43.94568" lon="4.83897">
        <ele>27</ele>
        <time>2017-07-26T14:28:15Z</time>
      </trkpt>
      <trkpt lat="43.94548" lon="4.83863">
        <ele>27</ele>
        <time>2017-07-26T14:28:22Z</time>
      </trkpt>
      <trkpt lat="43.94539" lon="4.83851">
        <ele>27</ele>
        <time>2017-07-26T14:28:25Z</time>
      </trkpt>
      <trkpt lat="43.94536" lon="4.8385">
        <ele>27</ele>
        <time>2017-07-26T14:28:26Z</time>
      </trkpt>
      <trkpt lat="43.94526" lon="4.83845">
        <ele>27</ele>
        <time>2017-07-26T14:28:30Z</time>
      </trkpt>
      <trkpt lat="43.94524" lon="4.83823">
        <ele>27</ele>
        <time>2017-07-26T14:28:34Z</time>
      </trkpt>
      <trkpt lat="43.94522" lon="4.83808">
        <ele>27</ele>
        <time>2017-07-26T14:28:36Z</time>
      </trkpt>
      <trkpt lat="43.94521" lon="4.83787">
        <ele>27</ele>
        <time>2017-07-26T14:28:39Z</time>
      </trkpt>
      <trkpt lat="43.94518" lon="4.83768">
        <ele>27</ele>
        <time>2017-07-26T14:28:42Z</time>
      </trkpt>
      <trkpt lat="43.94515" lon="4.83756">
        <ele>27</ele>
        <time>2017-07-26T14:28:44Z</time>
      </trkpt>
      <trkpt lat="43.9451" lon="4.83746">
        <ele>27</ele>
        <time>2017-07-26T14:28:46Z</time>
      </trkpt>
      <trkpt lat="43.94503" lon="4.83731">
        <ele>27</ele>
        <time>2017-07-26T14:28:49Z</time>
      </trkpt>
      <trkpt lat="43.94498" lon="4.83716">
        <ele>27</ele>
        <time>2017-07-26T14:28:52Z</time>
      </trkpt>
      <trkpt lat="43.94496" lon="4.8371">
        <ele>27</ele>
        <time>2017-07-26T14:28:56Z</time>
      </trkpt>
      <trkpt lat="43.94495" lon="4.83706">
        <ele>27</ele>
        <time>2017-07-26T14:29:07Z</time>
      </trkpt>
      <trkpt lat="43.94492" lon="4.83689">
        <ele>27</ele>
        <time>2017-07-26T14:29:11Z</time>
      </trkpt>
      <trkpt lat="43.94485" lon="4.83656">
        <ele>27</ele>
        <time>2017-07-26T14:29:16Z</time>
      </trkpt>
      <trkpt lat="43.94479" lon="4.83608">
        <ele>27</ele>
        <time>2017-07-26T14:29:24Z</time>
      </trkpt>
      <trkpt lat="43.94477" lon="4.83595">
        <ele>27</ele>
        <time>2017-07-26T14:29:27Z</time>
      </trkpt>
      <trkpt lat="43.94476" lon="4.83593">
        <ele>26</ele>
        <time>2017-07-26T14:29:28Z</time>
      </trkpt>
      <trkpt lat="43.94475" lon="4.83591">
        <ele>25</ele>
        <time>2017-07-26T14:29:29Z</time>
      </trkpt>
      <trkpt lat="43.94474" lon="4.83589">
        <ele>25</ele>
        <time>2017-07-26T14:29:30Z</time>
      </trkpt>
      <trkpt lat="43.94473" lon="4.83587">
        <ele>25</ele>
        <time>2017-07-26T14:29:31Z</time>
      </trkpt>
      <trkpt lat="43.9447" lon="4.8357">
        <ele>25</ele>
        <time>2017-07-26T14:29:35Z</time>
      </trkpt>
      <trkpt lat="43.9447" lon="4.83565">
        <ele>25</ele>
        <time>2017-07-26T14:29:36Z</time>
      </trkpt>
      <trkpt lat="43.94469" lon="4.83548">
        <ele>25</ele>
        <time>2017-07-26T14:29:39Z</time>
      </trkpt>
      <trkpt lat="43.94466" lon="4.83537">
        <ele>25</ele>
        <time>2017-07-26T14:29:41Z</time>
      </trkpt>
      <trkpt lat="43.94461" lon="4.8352">
        <ele>25</ele>
        <time>2017-07-26T14:29:44Z</time>
      </trkpt>
      <trkpt lat="43.94457" lon="4.83511">
        <ele>25</ele>
        <time>2017-07-26T14:29:46Z</time>
      </trkpt>
      <trkpt lat="43.94449" lon="4.83498">
        <ele>25</ele>
        <time>2017-07-26T14:29:50Z</time>
      </trkpt>
      <trkpt lat="43.94447" lon="4.83495">
        <ele>25</ele>
        <time>2017-07-26T14:29:51Z</time>
      </trkpt>
      <trkpt lat="43.94442" lon="4.8349">
        <ele>25</ele>
        <time>2017-07-26T14:29:54Z</time>
      </trkpt>
      <trkpt lat="43.9444" lon="4.83487">
        <ele>25</ele>
        <time>2017-07-26T14:29:55Z</time>
      </trkpt>
      <trkpt lat="43.94433" lon="4.83481">
        <ele>25</ele>
        <time>2017-07-26T14:29:57Z</time>
      </trkpt>
      <trkpt lat="43.9443" lon="4.83477">
        <ele>25</ele>
        <time>2017-07-26T14:29:58Z</time>
      </trkpt>
      <trkpt lat="43.94426" lon="4.8346">
        <ele>25</ele>
        <time>2017-07-26T14:30:01Z</time>
      </trkpt>
      <trkpt lat="43.94433" lon="4.83443">
        <ele>25</ele>
        <time>2017-07-26T14:30:04Z</time>
      </trkpt>
      <trkpt lat="43.94455" lon="4.83413">
        <ele>25</ele>
        <time>2017-07-26T14:30:12Z</time>
      </trkpt>
      <trkpt lat="43.94459" lon="4.83405">
        <ele>25</ele>
        <time>2017-07-26T14:30:16Z</time>
      </trkpt>
      <trkpt lat="43.9446" lon="4.83404">
        <ele>25</ele>
        <time>2017-07-26T14:30:17Z</time>
      </trkpt>
      <trkpt lat="43.94462" lon="4.83399">
        <ele>25</ele>
        <time>2017-07-26T14:30:20Z</time>
      </trkpt>
      <trkpt lat="43.94462" lon="4.83396">
        <ele>25</ele>
        <time>2017-07-26T14:30:21Z</time>
      </trkpt>
      <trkpt lat="43.94463" lon="4.83387">
        <ele>25</ele>
        <time>2017-07-26T14:30:23Z</time>
      </trkpt>
      <trkpt lat="43.94463" lon="4.83376">
        <ele>25</ele>
        <time>2017-07-26T14:30:25Z</time>
      </trkpt>
      <trkpt lat="43.94459" lon="4.83357">
        <ele>25</ele>
        <time>2017-07-26T14:30:28Z</time>
      </trkpt>
      <trkpt lat="43.94454" lon="4.83338">
        <ele>25</ele>
        <time>2017-07-26T14:30:31Z</time>
      </trkpt>
      <trkpt lat="43.94453" lon="4.83332">
        <ele>25</ele>
        <time>2017-07-26T14:30:32Z</time>
      </trkpt>
      <trkpt lat="43.94447" lon="4.83304">
        <ele>25</ele>
        <time>2017-07-26T14:30:37Z</time>
      </trkpt>
      <trkpt lat="43.9444" lon="4.83281">
        <ele>25</ele>
        <time>2017-07-26T14:30:42Z</time>
      </trkpt>
      <trkpt lat="43.9444" lon="4.83278">
        <ele>25</ele>
        <time>2017-07-26T14:30:43Z</time>
      </trkpt>
      <trkpt lat="43.94439" lon="4.83274">
        <ele>25</ele>
        <time>2017-07-26T14:30:45Z</time>
      </trkpt>
      <trkpt lat="43.9444" lon="4.83263">
        <ele>25</ele>
        <time>2017-07-26T14:30:48Z</time>
      </trkpt>
      <trkpt lat="43.9444" lon="4.83234">
        <ele>25</ele>
        <time>2017-07-26T14:30:53Z</time>
      </trkpt>
      <trkpt lat="43.94441" lon="4.83191">
        <ele>25</ele>
        <time>2017-07-26T14:31:00Z</time>
      </trkpt>
      <trkpt lat="43.94441" lon="4.8318">
        <ele>25</ele>
        <time>2017-07-26T14:31:02Z</time>
      </trkpt>
      <trkpt lat="43.94438" lon="4.8315">
        <ele>25</ele>
        <time>2017-07-26T14:31:07Z</time>
      </trkpt>
      <trkpt lat="43.94436" lon="4.83132">
        <ele>25</ele>
        <time>2017-07-26T14:31:10Z</time>
      </trkpt>
      <trkpt lat="43.94436" lon="4.83126">
        <ele>26</ele>
        <time>2017-07-26T14:31:11Z</time>
      </trkpt>
      <trkpt lat="43.94435" lon="4.83119">
        <ele>26</ele>
        <time>2017-07-26T14:31:12Z</time>
      </trkpt>
      <trkpt lat="43.94435" lon="4.83113">
        <ele>27</ele>
        <time>2017-07-26T14:31:13Z</time>
      </trkpt>
      <trkpt lat="43.94434" lon="4.83107">
        <ele>27</ele>
        <time>2017-07-26T14:31:14Z</time>
      </trkpt>
      <trkpt lat="43.94433" lon="4.83101">
        <ele>27</ele>
        <time>2017-07-26T14:31:15Z</time>
      </trkpt>
      <trkpt lat="43.94431" lon="4.8309">
        <ele>27</ele>
        <time>2017-07-26T14:31:17Z</time>
      </trkpt>
      <trkpt lat="43.94427" lon="4.83068">
        <ele>27</ele>
        <time>2017-07-26T14:31:21Z</time>
      </trkpt>
      <trkpt lat="43.94426" lon="4.83025">
        <ele>27</ele>
        <time>2017-07-26T14:31:28Z</time>
      </trkpt>
      <trkpt lat="43.94425" lon="4.83012">
        <ele>27</ele>
        <time>2017-07-26T14:31:30Z</time>
      </trkpt>
      <trkpt lat="43.94424" lon="4.82986">
        <ele>27</ele>
        <time>2017-07-26T14:31:34Z</time>
      </trkpt>
      <trkpt lat="43.9442" lon="4.8294">
        <ele>27</ele>
        <time>2017-07-26T14:31:41Z</time>
      </trkpt>
      <trkpt lat="43.94417" lon="4.82917">
        <ele>27</ele>
        <time>2017-07-26T14:31:45Z</time>
      </trkpt>
      <trkpt lat="43.94416" lon="4.82911">
        <ele>26</ele>
        <time>2017-07-26T14:31:46Z</time>
      </trkpt>
      <trkpt lat="43.94416" lon="4.82905">
        <ele>26</ele>
        <time>2017-07-26T14:31:47Z</time>
      </trkpt>
      <trkpt lat="43.94415" lon="4.82899">
        <ele>25</ele>
        <time>2017-07-26T14:31:48Z</time>
      </trkpt>
      <trkpt lat="43.94415" lon="4.82893">
        <ele>25</ele>
        <time>2017-07-26T14:31:49Z</time>
      </trkpt>
      <trkpt lat="43.94414" lon="4.82887">
        <ele>25</ele>
        <time>2017-07-26T14:31:50Z</time>
      </trkpt>
      <trkpt lat="43.94411" lon="4.82867">
        <ele>25</ele>
        <time>2017-07-26T14:31:53Z</time>
      </trkpt>
      <trkpt lat="43.94408" lon="4.82855">
        <ele>25</ele>
        <time>2017-07-26T14:31:55Z</time>
      </trkpt>
      <trkpt lat="43.94409" lon="4.82838">
        <ele>25</ele>
        <time>2017-07-26T14:31:58Z</time>
      </trkpt>
      <trkpt lat="43.94409" lon="4.8283">
        <ele>25</ele>
        <time>2017-07-26T14:32:00Z</time>
      </trkpt>
      <trkpt lat="43.9441" lon="4.8282">
        <ele>25</ele>
        <time>2017-07-26T14:32:05Z</time>
      </trkpt>
      <trkpt lat="43.94411" lon="4.82809">
        <ele>25</ele>
        <time>2017-07-26T14:32:08Z</time>
      </trkpt>
      <trkpt lat="43.94412" lon="4.82786">
        <ele>25</ele>
        <time>2017-07-26T14:32:12Z</time>
      </trkpt>
      <trkpt lat="43.94413" lon="4.82772">
        <ele>25</ele>
        <time>2017-07-26T14:32:30Z</time>
      </trkpt>
      <trkpt lat="43.94411" lon="4.82759">
        <ele>25</ele>
        <time>2017-07-26T14:32:35Z</time>
      </trkpt>
      <trkpt lat="43.94409" lon="4.82749">
        <ele>25</ele>
        <time>2017-07-26T14:32:39Z</time>
      </trkpt>
      <trkpt lat="43.9441" lon="4.82742">
        <ele>25</ele>
        <time>2017-07-26T14:32:43Z</time>
      </trkpt>
      <trkpt lat="43.94409" lon="4.82738">
        <ele>25</ele>
        <time>2017-07-26T14:32:44Z</time>
      </trkpt>
      <trkpt lat="43.94407" lon="4.82727">
        <ele>25</ele>
        <time>2017-07-26T14:32:46Z</time>
      </trkpt>
      <trkpt lat="43.94407" lon="4.82721">
        <ele>25</ele>
        <time>2017-07-26T14:32:47Z</time>
      </trkpt>
      <trkpt lat="43.94406" lon="4.82703">
        <ele>25</ele>
        <time>2017-07-26T14:32:50Z</time>
      </trkpt>
      <trkpt lat="43.94404" lon="4.82673">
        <ele>25</ele>
        <time>2017-07-26T14:32:55Z</time>
      </trkpt>
      <trkpt lat="43.94404" lon="4.82667">
        <ele>25</ele>
        <time>2017-07-26T14:32:56Z</time>
      </trkpt>
      <trkpt lat="43.94405" lon="4.82648">
        <ele>25</ele>
        <time>2017-07-26T14:32:59Z</time>
      </trkpt>
      <trkpt lat="43.94404" lon="4.82641">
        <ele>25</ele>
        <time>2017-07-26T14:33:00Z</time>
      </trkpt>
      <trkpt lat="43.94401" lon="4.82602">
        <ele>25</ele>
        <time>2017-07-26T14:33:06Z</time>
      </trkpt>
      <trkpt lat="43.94397" lon="4.8257">
        <ele>25</ele>
        <time>2017-07-26T14:33:12Z</time>
      </trkpt>
      <trkpt lat="43.94392" lon="4.82532">
        <ele>25</ele>
        <time>2017-07-26T14:33:19Z</time>
      </trkpt>
      <trkpt lat="43.94388" lon="4.8251">
        <ele>25</ele>
        <time>2017-07-26T14:33:23Z</time>
      </trkpt>
      <trkpt lat="43.94388" lon="4.82504">
        <ele>25</ele>
        <time>2017-07-26T14:33:24Z</time>
      </trkpt>
      <trkpt lat="43.94389" lon="4.82453">
        <ele>25</ele>
        <time>2017-07-26T14:33:32Z</time>
      </trkpt>
      <trkpt lat="43.9439" lon="4.8244">
        <ele>25</ele>
        <time>2017-07-26T14:33:34Z</time>
      </trkpt>
      <trkpt lat="43.94393" lon="4.82418">
        <ele>25</ele>
        <time>2017-07-26T14:33:38Z</time>
      </trkpt>
      <trkpt lat="43.94402" lon="4.82379">
        <ele>25</ele>
        <time>2017-07-26T14:33:45Z</time>
      </trkpt>
      <trkpt lat="43.94413" lon="4.82349">
        <ele>25</ele>
        <time>2017-07-26T14:33:51Z</time>
      </trkpt>
      <trkpt lat="43.94429" lon="4.82306">
        <ele>25</ele>
        <time>2017-07-26T14:34:00Z</time>
      </trkpt>
      <trkpt lat="43.94431" lon="4.82303">
        <ele>25</ele>
        <time>2017-07-26T14:34:02Z</time>
      </trkpt>
      <trkpt lat="43.94432" lon="4.82302">
        <ele>25</ele>
        <time>2017-07-26T14:34:03Z</time>
      </trkpt>
      <trkpt lat="43.94435" lon="4.8229">
        <ele>25</ele>
        <time>2017-07-26T14:34:07Z</time>
      </trkpt>
      <trkpt lat="43.9444" lon="4.82264">
        <ele>25</ele>
        <time>2017-07-26T14:34:12Z</time>
      </trkpt>
      <trkpt lat="43.9445" lon="4.82234">
        <ele>25</ele>
        <time>2017-07-26T14:34:18Z</time>
      </trkpt>
      <trkpt lat="43.94458" lon="4.82199">
        <ele>25</ele>
        <time>2017-07-26T14:34:24Z</time>
      </trkpt>
      <trkpt lat="43.94466" lon="4.82172">
        <ele>25</ele>
        <time>2017-07-26T14:34:30Z</time>
      </trkpt>
      <trkpt lat="43.94473" lon="4.82147">
        <ele>25</ele>
        <time>2017-07-26T14:34:36Z</time>
      </trkpt>
      <trkpt lat="43.94479" lon="4.82125">
        <ele>25</ele>
        <time>2017-07-26T14:34:42Z</time>
      </trkpt>
      <trkpt lat="43.94487" lon="4.82102">
        <ele>25</ele>
        <time>2017-07-26T14:34:49Z</time>
      </trkpt>
      <trkpt lat="43.94489" lon="4.82097">
        <ele>24</ele>
        <time>2017-07-26T14:34:51Z</time>
      </trkpt>
      <trkpt lat="43.9449" lon="4.82094">
        <ele>24</ele>
        <time>2017-07-26T14:34:52Z</time>
      </trkpt>
      <trkpt lat="43.94491" lon="4.8209">
        <ele>24</ele>
        <time>2017-07-26T14:34:53Z</time>
      </trkpt>
      <trkpt lat="43.94492" lon="4.82087">
        <ele>23</ele>
        <time>2017-07-26T14:34:54Z</time>
      </trkpt>
      <trkpt lat="43.94494" lon="4.82082">
        <ele>23</ele>
        <time>2017-07-26T14:34:55Z</time>
      </trkpt>
      <trkpt lat="43.94496" lon="4.82076">
        <ele>23</ele>
        <time>2017-07-26T14:34:56Z</time>
      </trkpt>
      <trkpt lat="43.94498" lon="4.82071">
        <ele>24</ele>
        <time>2017-07-26T14:34:57Z</time>
      </trkpt>
      <trkpt lat="43.945" lon="4.82065">
        <ele>24</ele>
        <time>2017-07-26T14:34:58Z</time>
      </trkpt>
      <trkpt lat="43.94502" lon="4.8206">
        <ele>25</ele>
        <time>2017-07-26T14:34:59Z</time>
      </trkpt>
      <trkpt lat="43.94505" lon="4.82056">
        <ele>25</ele>
        <time>2017-07-26T14:35:00Z</time>
      </trkpt>
      <trkpt lat="43.94508" lon="4.82053">
        <ele>25</ele>
        <time>2017-07-26T14:35:01Z</time>
      </trkpt>
      <trkpt lat="43.94516" lon="4.82047">
        <ele>25</ele>
        <time>2017-07-26T14:35:03Z</time>
      </trkpt>
      <trkpt lat="43.94522" lon="4.82039">
        <ele>25</ele>
        <time>2017-07-26T14:35:05Z</time>
      </trkpt>
      <trkpt lat="43.94537" lon="4.82005">
        <ele>25</ele>
        <time>2017-07-26T14:35:12Z</time>
      </trkpt>
      <trkpt lat="43.94548" lon="4.81978">
        <ele>25</ele>
        <time>2017-07-26T14:35:17Z</time>
      </trkpt>
      <trkpt lat="43.9455" lon="4.81974">
        <ele>25</ele>
        <time>2017-07-26T14:35:18Z</time>
      </trkpt>
      <trkpt lat="43.94555" lon="4.81966">
        <ele>25</ele>
        <time>2017-07-26T14:35:20Z</time>
      </trkpt>
      <trkpt lat="43.94561" lon="4.81952">
        <ele>25</ele>
        <time>2017-07-26T14:35:23Z</time>
      </trkpt>
      <trkpt lat="43.94565" lon="4.81941">
        <ele>25</ele>
        <time>2017-07-26T14:35:25Z</time>
      </trkpt>
      <trkpt lat="43.94567" lon="4.81935">
        <ele>25</ele>
        <time>2017-07-26T14:35:26Z</time>
      </trkpt>
      <trkpt lat="43.94575" lon="4.81912">
        <ele>25</ele>
        <time>2017-07-26T14:35:31Z</time>
      </trkpt>
      <trkpt lat="43.94587" lon="4.81885">
        <ele>25</ele>
        <time>2017-07-26T14:35:37Z</time>
      </trkpt>
      <trkpt lat="43.94597" lon="4.81866">
        <ele>25</ele>
        <time>2017-07-26T14:35:41Z</time>
      </trkpt>
      <trkpt lat="43.94603" lon="4.81857">
        <ele>25</ele>
        <time>2017-07-26T14:35:43Z</time>
      </trkpt>
      <trkpt lat="43.94628" lon="4.81823">
        <ele>25</ele>
        <time>2017-07-26T14:35:51Z</time>
      </trkpt>
      <trkpt lat="43.94642" lon="4.81803">
        <ele>25</ele>
        <time>2017-07-26T14:35:57Z</time>
      </trkpt>
      <trkpt lat="43.94657" lon="4.81779">
        <ele>25</ele>
        <time>2017-07-26T14:36:04Z</time>
      </trkpt>
      <trkpt lat="43.94663" lon="4.81771">
        <ele>25</ele>
        <time>2017-07-26T14:36:07Z</time>
      </trkpt>
      <trkpt lat="43.94658" lon="4.81753">
        <ele>25</ele>
        <time>2017-07-26T14:36:18Z</time>
      </trkpt>
      <trkpt lat="43.94656" lon="4.81751">
        <ele>25</ele>
        <time>2017-07-26T14:36:19Z</time>
      </trkpt>
      <trkpt lat="43.94647" lon="4.81743">
        <ele>25</ele>
        <time>2017-07-26T14:36:23Z</time>
      </trkpt>
      <trkpt lat="43.94645" lon="4.81741">
        <ele>25</ele>
        <time>2017-07-26T14:36:24Z</time>
      </trkpt>
      <trkpt lat="43.94643" lon="4.81737">
        <ele>25</ele>
        <time>2017-07-26T14:36:26Z</time>
      </trkpt>
      <trkpt lat="43.94644" lon="4.81734">
        <ele>25</ele>
        <time>2017-07-26T14:36:28Z</time>
      </trkpt>
      <trkpt lat="43.94644" lon="4.81722">
        <ele>25</ele>
        <time>2017-07-26T14:36:33Z</time>
      </trkpt>
      <trkpt lat="43.94642" lon="4.8172">
        <ele>25</ele>
        <time>2017-07-26T14:36:37Z</time>
      </trkpt>
      <trkpt lat="43.94641" lon="4.81714">
        <ele>25</ele>
        <time>2017-07-26T14:36:42Z</time>
      </trkpt>
      <trkpt lat="43.94641" lon="4.81713">
        <ele>25</ele>
        <time>2017-07-26T14:36:43Z</time>
      </trkpt>
      <trkpt lat="43.94641" lon="4.8171">
        <ele>25</ele>
        <time>2017-07-26T14:36:46Z</time>
      </trkpt>
      <trkpt lat="43.94576" lon="4.81655">
        <ele>25</ele>
        <time>2017-07-26T14:38:15Z</time>
      </trkpt>
      <trkpt lat="43.94557" lon="4.81641">
        <ele>25</ele>
        <time>2017-07-26T14:38:21Z</time>
      </trkpt>
      <trkpt lat="43.94532" lon="4.81623">
        <ele>25</ele>
        <time>2017-07-26T14:38:28Z</time>
      </trkpt>
      <trkpt lat="43.94516" lon="4.81611">
        <ele>25</ele>
        <time>2017-07-26T14:38:33Z</time>
      </trkpt>
      <trkpt lat="43.94497" lon="4.81601">
        <ele>25</ele>
        <time>2017-07-26T14:38:39Z</time>
      </trkpt>
      <trkpt lat="43.94484" lon="4.81587">
        <ele>25</ele>
        <time>2017-07-26T14:38:44Z</time>
      </trkpt>
      <trkpt lat="43.94471" lon="4.8157">
        <ele>25</ele>
        <time>2017-07-26T14:38:49Z</time>
      </trkpt>
      <trkpt lat="43.94454" lon="4.81553">
        <ele>25</ele>
        <time>2017-07-26T14:38:55Z</time>
      </trkpt>
      <trkpt lat="43.94436" lon="4.81537">
        <ele>25</ele>
        <time>2017-07-26T14:39:00Z</time>
      </trkpt>
      <trkpt lat="43.94423" lon="4.81523">
        <ele>25</ele>
        <time>2017-07-26T14:39:05Z</time>
      </trkpt>
      <trkpt lat="43.94409" lon="4.8151">
        <ele>25</ele>
        <time>2017-07-26T14:39:11Z</time>
      </trkpt>
      <trkpt lat="43.94403" lon="4.81504">
        <ele>25</ele>
        <time>2017-07-26T14:39:16Z</time>
      </trkpt>
      <trkpt lat="43.94381" lon="4.81423">
        <ele>20</ele>
      </trkpt>
      <trkpt lat="43.94352" lon="4.81293">
        <ele>25</ele>
        <time>2017-07-26T14:39:26Z</time>
      </trkpt>
      <trkpt lat="43.94323" lon="4.8115">
        <ele>20</ele>
      </trkpt>
      <trkpt lat="43.943" lon="4.81026">
        <ele>20</ele>
      </trkpt>
      <trkpt lat="43.94287" lon="4.80935">
        <ele>20</ele>
      </trkpt>
      <trkpt lat="43.94267" lon="4.80868">
        <ele>20</ele>
      </trkpt>
      <trkpt lat="43.9428" lon="4.80857">
        <ele>25</ele>
        <time>2017-07-26T14:42:32Z</time>
      </trkpt>
      <trkpt lat="43.94279" lon="4.80837">
        <ele>19</ele>
      </trkpt>
      <trkpt lat="43.94274" lon="4.80723">
        <ele>19</ele>
      </trkpt>
      <trkpt lat="43.94288" lon="4.80534">
        <ele>19</ele>
      </trkpt>
      <trkpt lat="43.94384" lon="4.80547">
        <ele>27</ele>
        <time>2017-07-26T14:45:58Z</time>
      </trkpt>
      <trkpt lat="43.94522" lon="4.80558">
        <ele>27</ele>
        <time>2017-07-26T14:53:37Z</time>
      </trkpt>
      <trkpt lat="43.94528" lon="4.80559">
        <ele>27</ele>
        <time>2017-07-26T14:53:45Z</time>
      </trkpt>
      <trkpt lat="43.94537" lon="4.80562">
        <ele>27</ele>
        <time>2017-07-26T14:53:53Z</time>
      </trkpt>
      <trkpt lat="43.94539" lon="4.80563">
        <ele>27</ele>
        <time>2017-07-26T14:53:54Z</time>
      </trkpt>
      <trkpt lat="43.94591" lon="4.80562">
        <ele>27</ele>
        <time>2017-07-26T14:55:13Z</time>
      </trkpt>
      <trkpt lat="43.94869" lon="4.80595">
        <ele>34</ele>
        <time>2017-07-26T14:59:07Z</time>
      </trkpt>
      <trkpt lat="43.94868" lon="4.80592">
        <ele>34</ele>
        <time>2017-07-26T14:59:09Z</time>
      </trkpt>
      <trkpt lat="43.94869" lon="4.8059">
        <ele>34</ele>
        <time>2017-07-26T14:59:11Z</time>
      </trkpt>
      <trkpt lat="43.94883" lon="4.80407">
        <ele>32</ele>
        <time>2017-07-26T15:01:18Z</time>
      </trkpt>
      <trkpt lat="43.94928" lon="4.80414">
        <ele>19</ele>
      </trkpt>
      <trkpt lat="43.94947" lon="4.80421">
        <ele>19</ele>
      </trkpt>
      <trkpt lat="43.95047" lon="4.80461">
        <ele>20</ele>
      </trkpt>
      <trkpt lat="43.95053" lon="4.80415">
        <ele>20</ele>
      </trkpt>
      <trkpt lat="43.95053" lon="4.8039">
        <ele>20</ele>
      </trkpt>
      <trkpt lat="43.95096" lon="4.80307">
        <ele>32</ele>
        <time>2017-07-26T15:02:56Z</time>
      </trkpt>
      <trkpt lat="43.95094" lon="4.80301">
        <ele>32</ele>
        <time>2017-07-26T15:02:58Z</time>
      </trkpt>
      <trkpt lat="43.9508" lon="4.8029">
        <ele>32</ele>
        <time>2017-07-26T15:03:02Z</time>
      </trkpt>
      <trkpt lat="43.95057" lon="4.80271">
        <ele>32</ele>
        <time>2017-07-26T15:03:10Z</time>
      </trkpt>
      <trkpt lat="43.95035" lon="4.80259">
        <ele>32</ele>
        <time>2017-07-26T15:03:17Z</time>
      </trkpt>
      <trkpt lat="43.95033" lon="4.80258">
        <ele>32</ele>
        <time>2017-07-26T15:03:18Z</time>
      </trkpt>
      <trkpt lat="43.95034" lon="4.80253">
        <ele>32</ele>
        <time>2017-07-26T15:03:20Z</time>
      </trkpt>
      <trkpt lat="43.95037" lon="4.8024">
        <ele>30</ele>
        <time>2017-07-27T10:07:37Z</time>
      </trkpt>
      <trkpt lat="43.95041" lon="4.80242">
        <ele>30</ele>
        <time>2017-07-27T10:07:40Z</time>
      </trkpt>
      <trkpt lat="43.95045" lon="4.8024">
        <ele>30</ele>
        <time>2017-07-27T10:07:42Z</time>
      </trkpt>
      <trkpt lat="43.95053" lon="4.80241">
        <ele>30</ele>
        <time>2017-07-27T10:07:46Z</time>
      </trkpt>
      <trkpt lat="43.95056" lon="4.80243">
        <ele>30</ele>
        <time>2017-07-27T10:07:48Z</time>
      </trkpt>
      <trkpt lat="43.95064" lon="4.80247">
        <ele>30</ele>
        <time>2017-07-27T10:07:52Z</time>
      </trkpt>
      <trkpt lat="43.95067" lon="4.80247">
        <ele>30</ele>
        <time>2017-07-27T10:07:53Z</time>
      </trkpt>
      <trkpt lat="43.95072" lon="4.80242">
        <ele>30</ele>
        <time>2017-07-27T10:07:56Z</time>
      </trkpt>
      <trkpt lat="43.95075" lon="4.8024">
        <ele>30</ele>
        <time>2017-07-27T10:07:57Z</time>
      </trkpt>
      <trkpt lat="43.95085" lon="4.8023">
        <ele>31</ele>
        <time>2017-07-27T10:08:02Z</time>
      </trkpt>
      <trkpt lat="43.95087" lon="4.80228">
        <ele>31</ele>
        <time>2017-07-27T10:08:03Z</time>
      </trkpt>
      <trkpt lat="43.95089" lon="4.80226">
        <ele>32</ele>
        <time>2017-07-27T10:08:04Z</time>
      </trkpt>
      <trkpt lat="43.95089" lon="4.80213">
        <ele>19</ele>
      </trkpt>
      <trkpt lat="43.95121" lon="4.80094">
        <ele>18</ele>
      </trkpt>
      <trkpt lat="43.9516" lon="4.79965">
        <ele>39</ele>
        <time>2017-07-27T10:11:02Z</time>
      </trkpt>
      <trkpt lat="43.95177" lon="4.79902">
        <ele>20</ele>
      </trkpt>
      <trkpt lat="43.95211" lon="4.79791">
        <ele>20</ele>
      </trkpt>
      <trkpt lat="43.9524" lon="4.79696">
        <ele>19</ele>
      </trkpt>
      <trkpt lat="43.9525" lon="4.79685">
        <ele>19</ele>
      </trkpt>
      <trkpt lat="43.95257" lon="4.79663">
        <ele>20</ele>
      </trkpt>
      <trkpt lat="43.9526" lon="4.79642">
        <ele>20</ele>
      </trkpt>
      <trkpt lat="43.95257" lon="4.79625">
        <ele>20</ele>
      </trkpt>
      <trkpt lat="43.95268" lon="4.79588">
        <ele>21</ele>
      </trkpt>
      <trkpt lat="43.95342" lon="4.79397">
        <ele>18</ele>
      </trkpt>
      <trkpt lat="43.9537" lon="4.79322">
        <ele>17</ele>
      </trkpt>
      <trkpt lat="43.95381" lon="4.79306">
        <ele>16</ele>
      </trkpt>
      <trkpt lat="43.95388" lon="4.79292">
        <ele>16</ele>
      </trkpt>
      <trkpt lat="43.95413" lon="4.79232">
        <ele>19.6</ele>
      </trkpt>
      <trkpt lat="43.95443" lon="4.79163">
        <ele>24.1</ele>
      </trkpt>
      <trkpt lat="43.95447" lon="4.79132">
        <ele>26.5</ele>
      </trkpt>
      <trkpt lat="43.95399" lon="4.79104">
        <ele>24.4</ele>
      </trkpt>
      <trkpt lat="43.95307" lon="4.79063">
        <ele>26.9</ele>
      </trkpt>
      <trkpt lat="43.95266" lon="4.79051">
        <ele>27.3</ele>
      </trkpt>
      <trkpt lat="43.95246" lon="4.7905">
        <ele>27.6</ele>
      </trkpt>
      <trkpt lat="43.95229" lon="4.79049">
        <ele>27.1</ele>
      </trkpt>
      <trkpt lat="43.95208" lon="4.7903">
        <ele>31.6</ele>
      </trkpt>
      <trkpt lat="43.95178" lon="4.79023">
        <ele>26.6</ele>
      </trkpt>
      <trkpt lat="43.95088" lon="4.78959">
        <ele>27.9</ele>
      </trkpt>
      <trkpt lat="43.95061" lon="4.78932">
        <ele>24.8</ele>
      </trkpt>
      <trkpt lat="43.95045" lon="4.789">
        <ele>24.6</ele>
      </trkpt>
      <trkpt lat="43.95012" lon="4.78732">
        <ele>21</ele>
      </trkpt>
      <trkpt lat="43.95013" lon="4.78674">
        <ele>22.2</ele>
      </trkpt>
      <trkpt lat="43.95014" lon="4.78634">
        <ele>22.6</ele>
      </trkpt>
      <trkpt lat="43.95028" lon="4.7853">
        <ele>26.7</ele>
      </trkpt>
      <trkpt lat="43.94999" lon="4.78445">
        <ele>23.8</ele>
      </trkpt>
      <trkpt lat="43.94981" lon="4.78405">
        <ele>22.9</ele>
      </trkpt>
      <trkpt lat="43.94981" lon="4.78358">
        <ele>23.2</ele>
      </trkpt>
      <trkpt lat="43.95005" lon="4.78344">
        <ele>23.4</ele>
      </trkpt>
      <trkpt lat="43.94978" lon="4.78183">
        <ele>20.8</ele>
      </trkpt>
      <trkpt lat="43.94952" lon="4.78079">
        <ele>23.3</ele>
      </trkpt>
      <trkpt lat="43.94915" lon="4.77993">
        <ele>26</ele>
      </trkpt>
      <trkpt lat="43.94864" lon="4.77896">
        <ele>22.9</ele>
      </trkpt>
      <trkpt lat="43.94852" lon="4.77864">
        <ele>23.6</ele>
      </trkpt>
      <trkpt lat="43.94847" lon="4.77697">
        <ele>21.6</ele>
      </trkpt>
      <trkpt lat="43.94877" lon="4.77644">
        <ele>21.9</ele>
      </trkpt>
      <trkpt lat="43.94891" lon="4.7746">
        <ele>18.1</ele>
      </trkpt>
      <trkpt lat="43.9492" lon="4.7732">
        <ele>18.9</ele>
      </trkpt>
      <trkpt lat="43.94976" lon="4.77113">
        <ele>19.4</ele>
      </trkpt>
      <trkpt lat="43.94974" lon="4.77061">
        <ele>17.3</ele>
      </trkpt>
      <trkpt lat="43.94994" lon="4.77045">
        <ele>18.5</ele>
      </trkpt>
      <trkpt lat="43.95044" lon="4.76938">
        <ele>20.7</ele>
      </trkpt>
      <trkpt lat="43.95068" lon="4.76836">
        <ele>18.8</ele>
      </trkpt>
      <trkpt lat="43.95095" lon="4.76787">
        <ele>19.5</ele>
      </trkpt>
      <trkpt lat="43.95144" lon="4.76703">
        <ele>22</ele>
      </trkpt>
      <trkpt lat="43.95171" lon="4.76597">
        <ele>24.8</ele>
      </trkpt>
      <trkpt lat="43.95197" lon="4.76487">
        <ele>24.2</ele>
      </trkpt>
      <trkpt lat="43.95197" lon="4.7646">
        <ele>23.7</ele>
      </trkpt>
      <trkpt lat="43.95179" lon="4.76382">
        <ele>19.7</ele>
      </trkpt>
      <trkpt lat="43.95144" lon="4.76286">
        <ele>19.2</ele>
      </trkpt>
      <trkpt lat="43.95126" lon="4.76208">
        <ele>19.6</ele>
      </trkpt>
      <trkpt lat="43.95103" lon="4.76042">
        <ele>19.5</ele>
      </trkpt>
      <trkpt lat="43.95093" lon="4.75984">
        <ele>20.1</ele>
      </trkpt>
      <trkpt lat="43.95079" lon="4.75938">
        <ele>18.1</ele>
      </trkpt>
      <trkpt lat="43.9506" lon="4.75873">
        <ele>19.1</ele>
      </trkpt>
      <trkpt lat="43.95016" lon="4.75786">
        <ele>19.7</ele>
      </trkpt>
      <trkpt lat="43.94996" lon="4.75781">
        <ele>18.1</ele>
      </trkpt>
      <trkpt lat="43.94884" lon="4.75817">
        <ele>19.6</ele>
      </trkpt>
      <trkpt lat="43.9483" lon="4.75845">
        <ele>17.2</ele>
      </trkpt>
      <trkpt lat="43.94818" lon="4.75844">
        <ele>16.8</ele>
      </trkpt>
      <trkpt lat="43.94751" lon="4.75787">
        <ele>19.7</ele>
      </trkpt>
      <trkpt lat="43.94696" lon="4.75706">
        <ele>21.8</ele>
      </trkpt>
      <trkpt lat="43.9464" lon="4.75656">
        <ele>19.1</ele>
      </trkpt>
      <trkpt lat="43.9459" lon="4.75633">
        <ele>18.5</ele>
      </trkpt>
      <trkpt lat="43.94517" lon="4.75631">
        <ele>18.6</ele>
      </trkpt>
      <trkpt lat="43.94416" lon="4.75579">
        <ele>17.8</ele>
      </trkpt>
      <trkpt lat="43.94388" lon="4.7558">
        <ele>17.1</ele>
      </trkpt>
      <trkpt lat="43.94369" lon="4.75588">
        <ele>15.5</ele>
      </trkpt>
      <trkpt lat="43.94319" lon="4.75579">
        <ele>15</ele>
      </trkpt>
      <trkpt lat="43.94307" lon="4.75556">
        <ele>15</ele>
      </trkpt>
      <trkpt lat="43.94301" lon="4.75496">
        <ele>15.8</ele>
      </trkpt>
      <trkpt lat="43.94293" lon="4.75458">
        <ele>15.8</ele>
      </trkpt>
      <trkpt lat="43.94275" lon="4.75428">
        <ele>15.5</ele>
      </trkpt>
      <trkpt lat="43.94211" lon="4.75372">
        <ele>15.4</ele>
      </trkpt>
      <trkpt lat="43.94128" lon="4.75322">
        <ele>15.4</ele>
      </trkpt>
      <trkpt lat="43.94099" lon="4.75314">
        <ele>15.6</ele>
      </trkpt>
      <trkpt lat="43.93999" lon="4.75299">
        <ele>15</ele>
      </trkpt>
      <trkpt lat="43.93883" lon="4.75284">
        <ele>15.2</ele>
      </trkpt>
      <trkpt lat="43.93847" lon="4.75295">
        <ele>15.4</ele>
      </trkpt>
      <trkpt lat="43.9383" lon="4.75295">
        <ele>15.4</ele>
      </trkpt>
      <trkpt lat="43.93792" lon="4.75229">
        <ele>16.2</ele>
      </trkpt>
      <trkpt lat="43.93761" lon="4.75254">
        <ele>17.8</ele>
      </trkpt>
      <trkpt lat="43.93753" lon="4.75238">
        <ele>18.9</ele>
      </trkpt>
      <trkpt lat="43.93686" lon="4.75299">
        <ele>16</ele>
      </trkpt>
      <trkpt lat="43.93665" lon="4.7531">
        <ele>15.8</ele>
      </trkpt>
      <trkpt lat="43.93654" lon="4.75269">
        <ele>14.8</ele>
      </trkpt>
      <trkpt lat="43.93637" lon="4.75211">
        <ele>15.8</ele>
      </trkpt>
      <trkpt lat="43.9361" lon="4.75139">
        <ele>15.9</ele>
      </trkpt>
      <trkpt lat="43.93582" lon="4.75065">
        <ele>15.9</ele>
      </trkpt>
      <trkpt lat="43.93493" lon="4.74867">
        <ele>15.1</ele>
      </trkpt>
      <trkpt lat="43.93438" lon="4.74762">
        <ele>15.3</ele>
      </trkpt>
      <trkpt lat="43.93311" lon="4.74551">
        <ele>15.6</ele>
      </trkpt>
      <trkpt lat="43.93256" lon="4.74471">
        <ele>16.3</ele>
      </trkpt>
      <trkpt lat="43.93232" lon="4.74457">
        <ele>17.4</ele>
      </trkpt>
      <trkpt lat="43.93227" lon="4.74455">
        <ele>17.4</ele>
      </trkpt>
      <trkpt lat="43.93201" lon="4.74445">
        <ele>18.8</ele>
      </trkpt>
      <trkpt lat="43.93178" lon="4.74428">
        <ele>19.5</ele>
      </trkpt>
      <trkpt lat="43.93112" lon="4.74361">
        <ele>20</ele>
      </trkpt>
      <trkpt lat="43.93065" lon="4.74327">
        <ele>20.4</ele>
      </trkpt>
      <trkpt lat="43.93003" lon="4.7426">
        <ele>20.2</ele>
      </trkpt>
      <trkpt lat="43.92825" lon="4.74062">
        <ele>19</ele>
      </trkpt>
      <trkpt lat="43.92811" lon="4.7404">
        <ele>19.4</ele>
      </trkpt>
      <trkpt lat="43.92804" lon="4.74024">
        <ele>19.7</ele>
      </trkpt>
      <trkpt lat="43.92801" lon="4.74016">
        <ele>19.1</ele>
      </trkpt>
      <trkpt lat="43.92789" lon="4.73993">
        <ele>19</ele>
      </trkpt>
      <trkpt lat="43.92753" lon="4.73932">
        <ele>18.4</ele>
      </trkpt>
      <trkpt lat="43.92739" lon="4.7391">
        <ele>17.8</ele>
      </trkpt>
      <trkpt lat="43.92734" lon="4.73895">
        <ele>17.2</ele>
      </trkpt>
      <trkpt lat="43.92727" lon="4.73882">
        <ele>16.8</ele>
      </trkpt>
      <trkpt lat="43.92717" lon="4.73875">
        <ele>16.5</ele>
      </trkpt>
      <trkpt lat="43.92713" lon="4.73868">
        <ele>16.1</ele>
      </trkpt>
      <trkpt lat="43.92714" lon="4.73862">
        <ele>15.8</ele>
      </trkpt>
      <trkpt lat="43.92718" lon="4.73851">
        <ele>16</ele>
      </trkpt>
      <trkpt lat="43.92717" lon="4.73839">
        <ele>15.9</ele>
      </trkpt>
      <trkpt lat="43.92709" lon="4.73826">
        <ele>15.4</ele>
      </trkpt>
      <trkpt lat="43.92674" lon="4.73782">
        <ele>15.7</ele>
      </trkpt>
      <trkpt lat="43.92661" lon="4.73766">
        <ele>15.6</ele>
      </trkpt>
      <trkpt lat="43.92657" lon="4.7376">
        <ele>15.6</ele>
      </trkpt>
      <trkpt lat="43.92649" lon="4.7375">
        <ele>15.7</ele>
      </trkpt>
      <trkpt lat="43.92628" lon="4.7373">
        <ele>15.4</ele>
      </trkpt>
      <trkpt lat="43.92592" lon="4.73684">
        <ele>14.3</ele>
      </trkpt>
      <trkpt lat="43.92568" lon="4.73656">
        <ele>14.6</ele>
      </trkpt>
      <trkpt lat="43.92487" lon="4.73558">
        <ele>14.9</ele>
      </trkpt>
      <trkpt lat="43.92458" lon="4.73523">
        <ele>14.6</ele>
      </trkpt>
      <trkpt lat="43.92438" lon="4.73496">
        <ele>14.3</ele>
      </trkpt>
      <trkpt lat="43.92377" lon="4.73412">
        <ele>14.9</ele>
      </trkpt>
      <trkpt lat="43.92318" lon="4.73341">
        <ele>14.4</ele>
      </trkpt>
      <trkpt lat="43.9227" lon="4.73283">
        <ele>15.1</ele>
      </trkpt>
      <trkpt lat="43.92227" lon="4.73234">
        <ele>14.4</ele>
      </trkpt>
      <trkpt lat="43.92181" lon="4.73186">
        <ele>14.4</ele>
      </trkpt>
      <trkpt lat="43.92158" lon="4.73161">
        <ele>14.5</ele>
      </trkpt>
      <trkpt lat="43.92124" lon="4.73128">
        <ele>14.3</ele>
      </trkpt>
      <trkpt lat="43.92091" lon="4.73099">
        <ele>14</ele>
      </trkpt>
      <trkpt lat="43.92063" lon="4.73074">
        <ele>14.3</ele>
      </trkpt>
      <trkpt lat="43.92032" lon="4.7305">
        <ele>14.4</ele>
      </trkpt>
      <trkpt lat="43.92002" lon="4.73025">
        <ele>14.1</ele>
      </trkpt>
      <trkpt lat="43.91928" lon="4.72972">
        <ele>14.4</ele>
      </trkpt>
      <trkpt lat="43.91904" lon="4.72956">
        <ele>14</ele>
      </trkpt>
      <trkpt lat="43.91853" lon="4.72921">
        <ele>14.2</ele>
      </trkpt>
      <trkpt lat="43.91827" lon="4.72902">
        <ele>14.2</ele>
      </trkpt>
      <trkpt lat="43.91782" lon="4.72871">
        <ele>14.1</ele>
      </trkpt>
      <trkpt lat="43.91742" lon="4.7285">
        <ele>14</ele>
      </trkpt>
      <trkpt lat="43.91713" lon="4.72834">
        <ele>14.6</ele>
      </trkpt>
      <trkpt lat="43.91674" lon="4.72808">
        <ele>14.9</ele>
      </trkpt>
      <trkpt lat="43.91638" lon="4.72787">
        <ele>14</ele>
      </trkpt>
      <trkpt lat="43.91582" lon="4.72748">
        <ele>15</ele>
      </trkpt>
      <trkpt lat="43.91552" lon="4.72729">
        <ele>15</ele>
      </trkpt>
      <trkpt lat="43.91537" lon="4.72718">
        <ele>14.7</ele>
      </trkpt>
      <trkpt lat="43.91506" lon="4.72697">
        <ele>14.8</ele>
      </trkpt>
      <trkpt lat="43.91451" lon="4.72656">
        <ele>14.3</ele>
      </trkpt>
      <trkpt lat="43.91439" lon="4.7265">
        <ele>14.5</ele>
      </trkpt>
      <trkpt lat="43.91422" lon="4.72639">
        <ele>15.2</ele>
      </trkpt>
      <trkpt lat="43.91394" lon="4.7262">
        <ele>14.4</ele>
      </trkpt>
      <trkpt lat="43.91332" lon="4.72578">
        <ele>15.1</ele>
      </trkpt>
      <trkpt lat="43.91299" lon="4.72554">
        <ele>15.3</ele>
      </trkpt>
      <trkpt lat="43.91284" lon="4.72544">
        <ele>14.6</ele>
      </trkpt>
      <trkpt lat="43.91258" lon="4.72528">
        <ele>15.3</ele>
      </trkpt>
      <trkpt lat="43.91211" lon="4.72494">
        <ele>14.3</ele>
      </trkpt>
      <trkpt lat="43.91198" lon="4.72482">
        <ele>14.7</ele>
      </trkpt>
      <trkpt lat="43.91192" lon="4.72478">
        <ele>15.1</ele>
      </trkpt>
      <trkpt lat="43.9115" lon="4.72445">
        <ele>14.7</ele>
      </trkpt>
      <trkpt lat="43.91118" lon="4.72417">
        <ele>15.2</ele>
      </trkpt>
      <trkpt lat="43.91077" lon="4.72377">
        <ele>14.8</ele>
      </trkpt>
      <trkpt lat="43.91012" lon="4.72302">
        <ele>15.5</ele>
      </trkpt>
      <trkpt lat="43.90995" lon="4.72283">
        <ele>15.2</ele>
      </trkpt>
      <trkpt lat="43.90979" lon="4.72268">
        <ele>14.4</ele>
      </trkpt>
      <trkpt lat="43.90968" lon="4.72255">
        <ele>14.9</ele>
      </trkpt>
      <trkpt lat="43.90954" lon="4.72234">
        <ele>14.5</ele>
      </trkpt>
      <trkpt lat="43.90939" lon="4.72206">
        <ele>15.1</ele>
      </trkpt>
      <trkpt lat="43.9093" lon="4.72189">
        <ele>15.5</ele>
      </trkpt>
      <trkpt lat="43.90903" lon="4.72147">
        <ele>15.3</ele>
      </trkpt>
      <trkpt lat="43.90887" lon="4.7212">
        <ele>15.6</ele>
      </trkpt>
      <trkpt lat="43.9087" lon="4.72094">
        <ele>15.5</ele>
      </trkpt>
      <trkpt lat="43.90853" lon="4.72065">
        <ele>15.4</ele>
      </trkpt>
      <trkpt lat="43.90818" lon="4.71997">
        <ele>15</ele>
      </trkpt>
      <trkpt lat="43.90785" lon="4.71937">
        <ele>15.2</ele>
      </trkpt>
      <trkpt lat="43.90748" lon="4.71854">
        <ele>14.8</ele>
      </trkpt>
      <trkpt lat="43.90725" lon="4.71794">
        <ele>15</ele>
      </trkpt>
      <trkpt lat="43.90723" lon="4.71789">
        <ele>15</ele>
      </trkpt>
      <trkpt lat="43.90719" lon="4.7178">
        <ele>14.7</ele>
      </trkpt>
      <trkpt lat="43.90701" lon="4.71729">
        <ele>15</ele>
      </trkpt>
      <trkpt lat="43.90684" lon="4.71679">
        <ele>14.3</ele>
      </trkpt>
      <trkpt lat="43.90675" lon="4.71659">
        <ele>14.8</ele>
      </trkpt>
      <trkpt lat="43.90647" lon="4.71577">
        <ele>15</ele>
      </trkpt>
      <trkpt lat="43.90629" lon="4.7152">
        <ele>14.1</ele>
      </trkpt>
      <trkpt lat="43.90608" lon="4.71466">
        <ele>14.4</ele>
      </trkpt>
      <trkpt lat="43.90566" lon="4.71344">
        <ele>14.4</ele>
      </trkpt>
      <trkpt lat="43.90532" lon="4.71241">
        <ele>14.1</ele>
      </trkpt>
      <trkpt lat="43.90528" lon="4.7123">
        <ele>14</ele>
      </trkpt>
      <trkpt lat="43.90507" lon="4.71175">
        <ele>14</ele>
      </trkpt>
      <trkpt lat="43.90479" lon="4.71098">
        <ele>14.1</ele>
      </trkpt>
      <trkpt lat="43.90451" lon="4.71011">
        <ele>14.1</ele>
      </trkpt>
      <trkpt lat="43.90436" lon="4.70973">
        <ele>13.7</ele>
      </trkpt>
      <trkpt lat="43.90336" lon="4.70686">
        <ele>13</ele>
      </trkpt>
      <trkpt lat="43.9033" lon="4.70673">
        <ele>12.8</ele>
      </trkpt>
      <trkpt lat="43.90325" lon="4.7066">
        <ele>12.5</ele>
      </trkpt>
      <trkpt lat="43.90317" lon="4.70644">
        <ele>12.8</ele>
      </trkpt>
      <trkpt lat="43.90303" lon="4.70605">
        <ele>13</ele>
      </trkpt>
      <trkpt lat="43.90295" lon="4.70587">
        <ele>12.8</ele>
      </trkpt>
      <trkpt lat="43.90247" lon="4.70455">
        <ele>13.6</ele>
      </trkpt>
      <trkpt lat="43.90217" lon="4.70373">
        <ele>13.8</ele>
      </trkpt>
      <trkpt lat="43.90188" lon="4.70301">
        <ele>13.3</ele>
      </trkpt>
      <trkpt lat="43.90163" lon="4.70242">
        <ele>13.9</ele>
      </trkpt>
      <trkpt lat="43.9016" lon="4.70234">
        <ele>13.9</ele>
      </trkpt>
      <trkpt lat="43.90149" lon="4.7021">
        <ele>14.3</ele>
      </trkpt>
      <trkpt lat="43.90141" lon="4.70191">
        <ele>14.3</ele>
      </trkpt>
      <trkpt lat="43.90138" lon="4.70165">
        <ele>15</ele>
      </trkpt>
      <trkpt lat="43.90141" lon="4.70145">
        <ele>16</ele>
      </trkpt>
      <trkpt lat="43.90144" lon="4.70124">
        <ele>16.9</ele>
      </trkpt>
      <trkpt lat="43.90145" lon="4.70106">
        <ele>17.3</ele>
      </trkpt>
      <trkpt lat="43.90142" lon="4.7009">
        <ele>17.8</ele>
      </trkpt>
      <trkpt lat="43.90135" lon="4.70071">
        <ele>17.9</ele>
      </trkpt>
      <trkpt lat="43.90135" lon="4.70069">
        <ele>17.9</ele>
      </trkpt>
      <trkpt lat="43.90132" lon="4.70054">
        <ele>18</ele>
      </trkpt>
      <trkpt lat="43.90112" lon="4.70019">
        <ele>18</ele>
      </trkpt>
      <trkpt lat="43.90128" lon="4.70006">
        <ele>19.4</ele>
      </trkpt>
      <trkpt lat="43.90125" lon="4.69999">
        <ele>19.5</ele>
      </trkpt>
      <trkpt lat="43.90117" lon="4.69987">
        <ele>19</ele>
      </trkpt>
      <trkpt lat="43.9011" lon="4.69972">
        <ele>19</ele>
      </trkpt>
      <trkpt lat="43.90108" lon="4.69963">
        <ele>19</ele>
      </trkpt>
      <trkpt lat="43.90109" lon="4.69957">
        <ele>19</ele>
      </trkpt>
      <trkpt lat="43.90112" lon="4.69953">
        <ele>19</ele>
      </trkpt>
      <trkpt lat="43.90108" lon="4.69925">
        <ele>20.3</ele>
      </trkpt>
      <trkpt lat="43.90098" lon="4.69919">
        <ele>20</ele>
      </trkpt>
      <trkpt lat="43.90089" lon="4.6991">
        <ele>19.2</ele>
      </trkpt>
      <trkpt lat="43.90089" lon="4.6991">
        <ele>19.2</ele>
      </trkpt>
      <trkpt lat="43.90084" lon="4.69896">
        <ele>18.3</ele>
      </trkpt>
      <trkpt lat="43.90076" lon="4.69876">
        <ele>18.2</ele>
      </trkpt>
      <trkpt lat="43.90059" lon="4.69854">
        <ele>17.5</ele>
      </trkpt>
      <trkpt lat="43.90049" lon="4.69847">
        <ele>17.4</ele>
      </trkpt>
      <trkpt lat="43.90038" lon="4.69844">
        <ele>17.1</ele>
      </trkpt>
      <trkpt lat="43.90033" lon="4.69842">
        <ele>16.8</ele>
      </trkpt>
      <trkpt lat="43.90029" lon="4.6984">
        <ele>16.5</ele>
      </trkpt>
      <trkpt lat="43.90027" lon="4.69836">
        <ele>16.2</ele>
      </trkpt>
      <trkpt lat="43.90024" lon="4.69823">
        <ele>16.4</ele>
      </trkpt>
      <trkpt lat="43.90019" lon="4.69808">
        <ele>16.9</ele>
      </trkpt>
      <trkpt lat="43.90014" lon="4.69796">
        <ele>17</ele>
      </trkpt>
      <trkpt lat="43.90007" lon="4.69782">
        <ele>16.2</ele>
      </trkpt>
      <trkpt lat="43.89999" lon="4.69767">
        <ele>15.8</ele>
      </trkpt>
      <trkpt lat="43.89993" lon="4.69758">
        <ele>16.2</ele>
      </trkpt>
      <trkpt lat="43.8998" lon="4.69748">
        <ele>15.7</ele>
      </trkpt>
      <trkpt lat="43.8997" lon="4.69739">
        <ele>15.4</ele>
      </trkpt>
      <trkpt lat="43.89966" lon="4.69732">
        <ele>15.7</ele>
      </trkpt>
      <trkpt lat="43.8996" lon="4.6972">
        <ele>16.1</ele>
      </trkpt>
      <trkpt lat="43.89951" lon="4.69704">
        <ele>16</ele>
      </trkpt>
      <trkpt lat="43.89949" lon="4.69695">
        <ele>15.6</ele>
      </trkpt>
      <trkpt lat="43.89945" lon="4.69683">
        <ele>16.2</ele>
      </trkpt>
      <trkpt lat="43.89941" lon="4.69676">
        <ele>16.9</ele>
      </trkpt>
      <trkpt lat="43.89935" lon="4.69666">
        <ele>17.3</ele>
      </trkpt>
      <trkpt lat="43.89931" lon="4.69657">
        <ele>17</ele>
      </trkpt>
      <trkpt lat="43.89936" lon="4.69651">
        <ele>17.6</ele>
      </trkpt>
      <trkpt lat="43.89954" lon="4.6963">
        <ele>17.3</ele>
      </trkpt>
      <trkpt lat="43.89954" lon="4.69625">
        <ele>17.1</ele>
      </trkpt>
      <trkpt lat="43.89952" lon="4.6962">
        <ele>17.1</ele>
      </trkpt>
      <trkpt lat="43.89928" lon="4.69587">
        <ele>19.6</ele>
      </trkpt>
      <trkpt lat="43.89913" lon="4.69559">
        <ele>20.5</ele>
      </trkpt>
      <trkpt lat="43.89906" lon="4.69543">
        <ele>20.5</ele>
      </trkpt>
      <trkpt lat="43.89882" lon="4.69491">
        <ele>21.7</ele>
      </trkpt>
      <trkpt lat="43.89862" lon="4.69446">
        <ele>20</ele>
      </trkpt>
      <trkpt lat="43.89847" lon="4.69415">
        <ele>19.9</ele>
      </trkpt>
      <trkpt lat="43.89822" lon="4.69363">
        <ele>19</ele>
      </trkpt>
      <trkpt lat="43.89803" lon="4.6932">
        <ele>20.2</ele>
      </trkpt>
      <trkpt lat="43.89793" lon="4.69294">
        <ele>20.5</ele>
      </trkpt>
      <trkpt lat="43.89771" lon="4.69242">
        <ele>16.1</ele>
      </trkpt>
      <trkpt lat="43.89754" lon="4.69198">
        <ele>16</ele>
      </trkpt>
      <trkpt lat="43.89731" lon="4.69145">
        <ele>16.9</ele>
      </trkpt>
      <trkpt lat="43.89699" lon="4.69078">
        <ele>16</ele>
      </trkpt>
      <trkpt lat="43.89679" lon="4.69031">
        <ele>16.3</ele>
      </trkpt>
      <trkpt lat="43.89671" lon="4.6901">
        <ele>16.4</ele>
      </trkpt>
      <trkpt lat="43.89669" lon="4.69004">
        <ele>16.2</ele>
      </trkpt>
      <trkpt lat="43.89663" lon="4.69005">
        <ele>16.6</ele>
      </trkpt>
      <trkpt lat="43.89643" lon="4.69023">
        <ele>16.7</ele>
      </trkpt>
      <trkpt lat="43.89629" lon="4.69034">
        <ele>15.5</ele>
      </trkpt>
      <trkpt lat="43.89604" lon="4.69048">
        <ele>14.9</ele>
      </trkpt>
      <trkpt lat="43.89589" lon="4.69055">
        <ele>15</ele>
      </trkpt>
      <trkpt lat="43.89553" lon="4.69091">
        <ele>15</ele>
      </trkpt>
      <trkpt lat="43.89512" lon="4.69126">
        <ele>15</ele>
      </trkpt>
      <trkpt lat="43.895" lon="4.69123">
        <ele>15</ele>
      </trkpt>
      <trkpt lat="43.89488" lon="4.69114">
        <ele>15</ele>
      </trkpt>
      <trkpt lat="43.89468" lon="4.69091">
        <ele>15</ele>
      </trkpt>
      <trkpt lat="43.89435" lon="4.69058">
        <ele>14.7</ele>
      </trkpt>
      <trkpt lat="43.894" lon="4.69025">
        <ele>14</ele>
      </trkpt>
      <trkpt lat="43.8935" lon="4.6898">
        <ele>13.7</ele>
      </trkpt>
      <trkpt lat="43.89303" lon="4.68939">
        <ele>13.8</ele>
      </trkpt>
      <trkpt lat="43.8927" lon="4.68913">
        <ele>13.1</ele>
      </trkpt>
      <trkpt lat="43.89203" lon="4.68858">
        <ele>13.4</ele>
      </trkpt>
      <trkpt lat="43.8913" lon="4.68802">
        <ele>13</ele>
      </trkpt>
      <trkpt lat="43.89048" lon="4.68742">
        <ele>13</ele>
      </trkpt>
      <trkpt lat="43.88986" lon="4.68692">
        <ele>13</ele>
      </trkpt>
      <trkpt lat="43.88951" lon="4.68666">
        <ele>13</ele>
      </trkpt>
      <trkpt lat="43.88931" lon="4.68652">
        <ele>13.8</ele>
      </trkpt>
      <trkpt lat="43.88912" lon="4.68634">
        <ele>14</ele>
      </trkpt>
      <trkpt lat="43.88875" lon="4.68601">
        <ele>13.3</ele>
      </trkpt>
      <trkpt lat="43.8884" lon="4.68563">
        <ele>14.2</ele>
      </trkpt>
      <trkpt lat="43.88779" lon="4.68489">
        <ele>14</ele>
      </trkpt>
      <trkpt lat="43.88759" lon="4.68461">
        <ele>14.8</ele>
      </trkpt>
      <trkpt lat="43.88699" lon="4.6837">
        <ele>15.3</ele>
      </trkpt>
      <trkpt lat="43.88685" lon="4.68344">
        <ele>15.1</ele>
      </trkpt>
      <trkpt lat="43.88642" lon="4.68273">
        <ele>15</ele>
      </trkpt>
      <trkpt lat="43.88633" lon="4.68248">
        <ele>15.2</ele>
      </trkpt>
      <trkpt lat="43.88618" lon="4.68216">
        <ele>15</ele>
      </trkpt>
      <trkpt lat="43.88602" lon="4.68184">
        <ele>15.3</ele>
      </trkpt>
      <trkpt lat="43.88661" lon="4.68185">
        <ele>15</ele>
      </trkpt>
      <trkpt lat="43.88699" lon="4.68179">
        <ele>15</ele>
      </trkpt>
      <trkpt lat="43.88737" lon="4.68159">
        <ele>15</ele>
      </trkpt>
      <trkpt lat="43.88803" lon="4.68115">
        <ele>14.1</ele>
      </trkpt>
      <trkpt lat="43.88825" lon="4.68104">
        <ele>14.8</ele>
      </trkpt>
      <trkpt lat="43.88841" lon="4.68097">
        <ele>14.7</ele>
      </trkpt>
      <trkpt lat="43.88844" lon="4.68094">
        <ele>14.6</ele>
      </trkpt>
      <trkpt lat="43.88846" lon="4.68091">
        <ele>14.5</ele>
      </trkpt>
      <trkpt lat="43.88853" lon="4.68075">
        <ele>14.5</ele>
      </trkpt>
      <trkpt lat="43.88858" lon="4.68068">
        <ele>14.6</ele>
      </trkpt>
      <trkpt lat="43.88859" lon="4.68066">
        <ele>14.6</ele>
      </trkpt>
      <trkpt lat="43.88861" lon="4.68036">
        <ele>15</ele>
      </trkpt>
      <trkpt lat="43.88862" lon="4.67983">
        <ele>14.4</ele>
      </trkpt>
      <trkpt lat="43.88877" lon="4.67984">
        <ele>14.2</ele>
      </trkpt>
      <trkpt lat="43.88894" lon="4.67989">
        <ele>14.1</ele>
      </trkpt>
      <trkpt lat="43.88905" lon="4.68">
        <ele>14</ele>
      </trkpt>
      <trkpt lat="43.88916" lon="4.68018">
        <ele>14</ele>
      </trkpt>
      <trkpt lat="43.88928" lon="4.68021">
        <ele>14.3</ele>
      </trkpt>
      <trkpt lat="43.88946" lon="4.68022">
        <ele>14.7</ele>
      </trkpt>
      <trkpt lat="43.89" lon="4.68017">
        <ele>13</ele>
      </trkpt>
      <trkpt lat="43.89072" lon="4.68021">
        <ele>12.9</ele>
      </trkpt>
      <trkpt lat="43.89116" lon="4.6803">
        <ele>12.3</ele>
      </trkpt>
    </trkseg>
  </trk>
</gpx>